Provisional Data: West Branch Owego Creek near Speedsville, NY


Please select a monitoring station.
Please select start date.
Please select start date.

Toggle Unit: C/F Toggle Unit: C/F
Sample Time Temperature (C) Temperature (F) Specific Conductivity (mS/cm) pH   Turbidity (NTU+) DO (mg/L)
3/7/2021 12:00:00 AM 0.15 32.27 0.191 7.28 3.45 13.74
3/7/2021 12:15:00 AM 0.13 32.234 0.191 7.27 3.22 13.73
3/7/2021 12:30:00 AM 0.13 32.234 0.191 7.27 3.11 13.74
3/7/2021 12:45:00 AM 0.12 32.216 0.192 7.26 3.26 13.75
3/7/2021 1:00:00 AM 0.11 32.198 0.191 7.25 3.18 13.74
3/7/2021 1:15:00 AM 0.11 32.198 0.191 7.26 3.23 13.74
3/7/2021 1:30:00 AM 0.11 32.198 0.191 7.26 3.19 13.75
3/7/2021 1:45:00 AM 0.11 32.198 0.191 7.27 3.16 13.75
3/7/2021 2:00:00 AM 0.1 32.18 0.191 7.27 3.2 13.75
3/7/2021 2:15:00 AM 0.1 32.18 0.191 7.28 3.12 13.76
3/7/2021 2:30:00 AM 0.09 32.162 0.191 7.27 3.16 13.76
3/7/2021 2:45:00 AM 0.08 32.144 0.191 7.25 3.31 13.77
3/7/2021 3:00:00 AM 0.08 32.144 0.191 7.25 3.25 13.76
3/7/2021 3:15:00 AM 0.07 32.126 0.191 7.24 3.22 13.77
3/7/2021 3:30:00 AM 0.06 32.108 0.191 7.26 3.1 13.77
3/7/2021 3:45:00 AM 0.05 32.09 0.191 7.24 3.11 13.77
3/7/2021 4:00:00 AM 0.04 32.072 0.191 7.24 3.04 13.78
3/7/2021 4:15:00 AM 0.03 32.054 0.191 7.23 3.35 13.79
3/7/2021 4:30:00 AM 0.02 32.036 0.191 7.24 3.24 13.78
3/7/2021 4:45:00 AM 0 32 0.191 7.23 3.17 13.79
3/7/2021 5:00:00 AM -0.01 31.982 0.191 7.21 3.28 13.8
3/7/2021 5:15:00 AM -0.03 31.946 0.191 7.22 3.22 13.81
3/7/2021 5:30:00 AM -0.05 31.91 0.192 7.22 3.28 13.82
3/7/2021 5:45:00 AM -0.07 31.874 0.192 7.23 3.17 13.84
3/7/2021 6:00:00 AM -0.09 31.838 0.192 7.23 3.22 13.85
3/7/2021 6:15:00 AM -0.1 31.82 0.192 7.25 3.32 13.87
3/7/2021 6:30:00 AM -0.1 31.82 0.192 7.24 3.33 13.89
3/7/2021 6:45:00 AM -0.09 31.838 0.192 7.31 3.63 13.89
3/7/2021 7:00:00 AM -0.08 31.856 0.192 7.33 3.56 13.9
3/7/2021 7:15:00 AM -0.09 31.838 0.193 7.24 7.62 13.96
3/7/2021 7:30:00 AM -0.09 31.838 0.193 7.26 3.94 14
3/7/2021 7:45:00 AM -0.09 31.838 0.193 7.31 3.86 14.05
3/7/2021 8:00:00 AM -0.08 31.856 0.193 7.31 4.98 14.1
3/7/2021 8:15:00 AM -0.08 31.856 0.193 7.34 4.28 14.15
3/7/2021 8:30:00 AM -0.08 31.856 0.193 7.37 3.54 14.19
3/7/2021 8:45:00 AM -0.07 31.874 0.193 7.41 3.06 14.26
3/7/2021 9:00:00 AM -0.06 31.892 0.193 7.39 3.14 14.3
3/7/2021 9:15:00 AM -0.03 31.946 0.193 7.36 3.17 14.34
3/7/2021 9:30:00 AM -0.01 31.982 0.192 7.31 2.9 14.36
3/7/2021 9:45:00 AM 0.03 32.054 0.192 7.33 2.9 14.38
3/7/2021 10:00:00 AM 0.08 32.144 0.192 7.36 3.1 14.39
3/7/2021 10:15:00 AM 0.13 32.234 0.192 7.37 2.89 14.4
3/7/2021 10:30:00 AM 0.23 32.414 0.191 7.41 2.97 14.4
3/7/2021 10:45:00 AM 0.4 32.72 0.191 7.45 3.02 14.38
3/7/2021 11:00:00 AM 0.61 33.098 0.191 7.47 3.44 14.33
3/7/2021 11:15:00 AM 0.81 33.458 0.19 7.48 3.27 14.28
3/7/2021 11:30:00 AM 1.04 33.872 0.191 7.49 3.19 14.27
3/7/2021 11:45:00 AM 1.3 34.34 0.19 7.52 3.01 14.2
3/7/2021 12:00:00 PM 1.53 34.754 0.19 7.54 3.01 14.14
3/7/2021 12:15:00 PM 1.8 35.24 0.19 7.56 3.02 14.08
3/7/2021 12:30:00 PM 2.08 35.744 0.19 7.58 2.96 14
3/7/2021 12:45:00 PM 2.31 36.158 0.19 7.55 2.93 13.94
3/7/2021 1:00:00 PM 2.57 36.626 0.19 7.6 2.93 13.88
3/7/2021 1:15:00 PM 2.67 36.806 0.19 7.58 2.84 13.83
3/7/2021 1:30:00 PM 2.87 37.166 0.19 7.56 2.92 13.77
3/7/2021 1:45:00 PM 3.09 37.562 0.189 7.57 2.84 13.7
3/7/2021 2:00:00 PM 3.16 37.688 0.19 7.59 2.93 13.68
3/7/2021 2:15:00 PM 3.19 37.742 0.189 7.57 2.94 13.66
3/7/2021 2:30:00 PM 3.16 37.688 0.19 7.62 2.89 13.62
3/7/2021 2:45:00 PM 3.11 37.598 0.19 7.58 2.86 13.61
3/7/2021 3:00:00 PM 3.05 37.49 0.19 7.56 2.95 13.6
3/7/2021 3:15:00 PM 2.95 37.31 0.19 7.53 2.92 13.6
3/7/2021 3:30:00 PM 2.82 37.076 0.19 7.52 2.89 13.6
3/7/2021 3:45:00 PM 2.61 36.698 0.19 7.47 2.9 13.61
3/7/2021 4:00:00 PM 2.44 36.392 0.19 7.42 2.95 13.61
3/7/2021 4:15:00 PM 2.28 36.104 0.191 7.4 2.83 13.62
3/7/2021 4:30:00 PM 2.13 35.834 0.191 7.38 2.9 13.64
3/7/2021 4:45:00 PM 2.01 35.618 0.191 7.36 2.87 13.63
3/7/2021 5:00:00 PM 1.88 35.384 0.191 7.42 2.97 13.64
3/7/2021 5:15:00 PM 1.78 35.204 0.191 7.41 2.97 13.64
3/7/2021 5:30:00 PM 1.68 35.024 0.191 7.38 3.06 13.63
3/7/2021 5:45:00 PM 1.56 34.808 0.191 7.37 3.04 13.62
3/7/2021 6:00:00 PM 1.46 34.628 0.191 7.38 3.03 13.62
3/7/2021 6:15:00 PM 1.36 34.448 0.19 7.35 3.12 13.61
3/7/2021 6:30:00 PM 1.25 34.25 0.19 7.29 3.32 13.61
3/7/2021 6:45:00 PM 1.15 34.07 0.19 7.26 3.32 13.61
3/7/2021 7:00:00 PM 1.06 33.908 0.19 7.25 3.32 13.61
3/7/2021 7:15:00 PM 0.97 33.746 0.19 7.26 3.33 13.61
3/7/2021 7:30:00 PM 0.87 33.566 0.19 7.27 3.43 13.62
3/7/2021 7:45:00 PM 0.78 33.404 0.19 7.26 3.37 13.63
3/7/2021 8:00:00 PM 0.7 33.26 0.19 7.29 3.41 13.63
3/7/2021 8:15:00 PM 0.63 33.134 0.19 7.28 3.39 13.65
3/7/2021 8:30:00 PM 0.55 32.99 0.191 7.27 3.46 13.67
3/7/2021 8:45:00 PM 0.5 32.9 0.191 7.28 3.27 13.67
3/7/2021 9:00:00 PM 0.44 32.792 0.191 7.28 3.2 13.68
3/7/2021 9:15:00 PM 0.38 32.684 0.191 7.29 3.21 13.69
3/7/2021 9:30:00 PM 0.32 32.576 0.191 7.28 3.31 13.71
3/7/2021 9:45:00 PM 0.25 32.45 0.191 7.3 3.28 13.73
3/7/2021 10:00:00 PM 0.19 32.342 0.192 7.32 3.28 13.75
3/7/2021 10:15:00 PM 0.13 32.234 0.192 7.31 3.32 13.77
3/7/2021 10:30:00 PM 0.06 32.108 0.192 7.31 3.39 13.81
3/7/2021 10:45:00 PM 0.02 32.036 0.191 7.31 3.34 13.8
3/7/2021 11:00:00 PM -0.03 31.946 0.192 7.32 3.31 13.82
3/7/2021 11:15:00 PM -0.08 31.856 0.192 7.33 3.46 13.85
3/7/2021 11:30:00 PM -0.12 31.784 0.192 7.3 3.79 13.88
3/7/2021 11:45:00 PM -0.12 31.784 0.193 7.33 3.53 13.92
3/8/2021 12:00:00 AM -0.1 31.82 0.193 7.35 3.62 13.94
3/8/2021 12:15:00 AM -0.09 31.838 0.192 7.35 4.35 13.9
3/8/2021 12:30:00 AM -0.09 31.838 0.193 7.34 4.05 13.89
3/8/2021 12:45:00 AM -0.09 31.838 0.194 7.33 4.34 13.9
3/8/2021 1:00:00 AM -0.09 31.838 0.194 7.34 4.17 13.91
3/8/2021 1:15:00 AM -0.09 31.838 0.194 7.35 3.95 13.92
3/8/2021 1:30:00 AM -0.09 31.838 0.194 7.4 3.73 13.95
3/8/2021 1:45:00 AM -0.09 31.838 0.195 7.4 3.61 13.96
3/8/2021 2:00:00 AM -0.09 31.838 0.195 7.4 3.53 13.97
3/8/2021 2:15:00 AM -0.09 31.838 0.195 7.39 3.58 13.97
3/8/2021 2:30:00 AM -0.09 31.838 0.195 7.38 3.7 13.98
3/8/2021 2:45:00 AM -0.08 31.856 0.196 7.38 3.44 13.97
3/8/2021 3:00:00 AM -0.09 31.838 0.196 7.4 3.51 13.98
3/8/2021 3:15:00 AM -0.08 31.856 0.196 7.38 3.56 13.97
3/8/2021 3:30:00 AM -0.09 31.838 0.196 7.38 3.51 13.98
3/8/2021 3:45:00 AM -0.09 31.838 0.196 7.38 3.58 13.99
3/8/2021 4:00:00 AM -0.08 31.856 0.197 7.37 3.41 13.98
3/8/2021 4:15:00 AM -0.09 31.838 0.197 7.37 3.7 14
3/8/2021 4:30:00 AM -0.09 31.838 0.197 7.38 3.88 14.01
3/8/2021 4:45:00 AM -0.09 31.838 0.198 7.38 3.91 14.01
3/8/2021 5:00:00 AM -0.09 31.838 0.198 7.37 3.64 14.01
3/8/2021 5:15:00 AM -0.09 31.838 0.198 7.38 3.64 14.01
3/8/2021 5:30:00 AM -0.09 31.838 0.199 7.38 3.79 14.01
3/8/2021 5:45:00 AM -0.09 31.838 0.199 7.38 3.52 14.01
3/8/2021 6:00:00 AM -0.09 31.838 0.2 7.38 3.58 14.01
3/8/2021 6:15:00 AM -0.09 31.838 0.2 7.38 3.7 14.01
3/8/2021 6:30:00 AM -0.09 31.838 0.201 7.38 3.7 14
3/8/2021 6:45:00 AM -0.09 31.838 0.201 7.38 3.58 14.01
3/8/2021 7:00:00 AM -0.08 31.856 0.202 7.38 3.72 14.03
3/8/2021 7:15:00 AM -0.08 31.856 0.202 7.38 3.78 14.04
3/8/2021 7:30:00 AM -0.08 31.856 0.203 7.38 3.52 14.05
3/8/2021 7:45:00 AM -0.08 31.856 0.203 7.38 3.59 14.07
3/8/2021 8:00:00 AM -0.08 31.856 0.203 7.39 3.43 14.09
3/8/2021 8:15:00 AM -0.07 31.874 0.204 7.39 3.37 14.09
3/8/2021 8:30:00 AM -0.08 31.856 0.204 7.4 4.27 14.12
3/8/2021 8:45:00 AM -0.07 31.874 0.204 7.4 3.98 14.14
3/8/2021 9:00:00 AM -0.07 31.874 0.205 7.4 4.26 14.17
3/8/2021 9:15:00 AM -0.07 31.874 0.205 7.4 5.57 14.19
3/8/2021 9:30:00 AM -0.06 31.892 0.205 7.41 4.85 14.22
3/8/2021 9:45:00 AM -0.05 31.91 0.206 7.42 4.14 14.25
3/8/2021 10:00:00 AM -0.05 31.91 0.206 7.42 3.85 14.29
3/8/2021 10:15:00 AM -0.05 31.91 0.207 7.42 4.3 14.34
3/8/2021 10:30:00 AM -0.04 31.928 0.207 7.27 4.5 14.37
3/8/2021 10:45:00 AM -0.02 31.964 0.207 7.27 3.98 14.41
3/8/2021 11:00:00 AM 0 32 0.207 7.36 3.94 14.43
3/8/2021 11:15:00 AM 0.02 32.036 0.207 7.44 3.65 14.43
3/8/2021 11:30:00 AM 0.04 32.072 0.206 7.34 3.72 14.44
3/8/2021 11:45:00 AM 0.09 32.162 0.206 7.4 3.67 14.42
3/8/2021 12:00:00 PM 0.14 32.252 0.205 7.42 3.64 14.41
3/8/2021 12:15:00 PM 0.21 32.378 0.204 7.39 3.4 14.4
3/8/2021 12:30:00 PM 0.24 32.432 0.203 7.41 3.52 14.39
3/8/2021 12:45:00 PM 0.26 32.468 0.202 7.46 3.89 14.34
3/8/2021 1:00:00 PM 0.39 32.702 0.201 7.46 4.12 14.28
3/8/2021 1:15:00 PM 0.5 32.9 0.201 7.5 3.9 14.23
3/8/2021 1:30:00 PM 0.58 33.044 0.201 7.5 3.87 14.18
3/8/2021 1:45:00 PM 0.79 33.422 0.201 7.54 3.09 14.12
3/8/2021 2:00:00 PM 1.05 33.89 0.201 7.57 3.01 14.08
3/8/2021 2:15:00 PM 1.34 34.412 0.201 7.59 3.03 14.01
3/8/2021 2:30:00 PM 1.54 34.772 0.201 7.63 3.09 13.96
3/8/2021 2:45:00 PM 1.66 34.988 0.201 7.62 2.92 13.94
3/8/2021 3:00:00 PM 1.79 35.222 0.201 7.63 3.03 13.91
3/8/2021 3:15:00 PM 1.87 35.366 0.2 7.59 3.18 13.89
3/8/2021 3:30:00 PM 1.9 35.42 0.2 7.54 3.1 13.88
3/8/2021 3:45:00 PM 1.91 35.438 0.199 7.52 3.27 13.86
3/8/2021 4:00:00 PM 1.89 35.402 0.198 7.52 3.48 13.85
3/8/2021 4:15:00 PM 1.87 35.366 0.198 7.51 3.63 13.84
3/8/2021 4:30:00 PM 1.84 35.312 0.197 7.51 4.11 13.83
3/8/2021 4:45:00 PM 1.81 35.258 0.197 7.54 4 13.82
3/8/2021 5:00:00 PM 1.78 35.204 0.196 7.55 3.84 13.81
3/8/2021 5:15:00 PM 1.75 35.15 0.196 7.54 3.58 13.79
3/8/2021 5:30:00 PM 1.73 35.114 0.195 7.53 3.75 13.75
3/8/2021 5:45:00 PM 1.7 35.06 0.193 7.51 3.77 13.71
3/8/2021 6:00:00 PM 1.65 34.97 0.192 7.39 3.68 13.68
3/8/2021 6:15:00 PM 1.6 34.88 0.19 7.37 3.54 13.64
3/8/2021 6:30:00 PM 1.54 34.772 0.189 7.35 3.84 13.6
3/8/2021 6:45:00 PM 1.49 34.682 0.188 7.37 3.43 13.57
3/8/2021 7:00:00 PM 1.44 34.592 0.188 7.34 3.62 13.54
3/8/2021 7:15:00 PM 1.39 34.502 0.187 7.34 3.4 13.52
3/8/2021 7:30:00 PM 1.35 34.43 0.188 7.33 3.39 13.5
3/8/2021 7:45:00 PM 1.32 34.376 0.188 7.33 3.43 13.48
3/8/2021 8:00:00 PM 1.29 34.322 0.189 7.34 3.36 13.48
3/8/2021 8:15:00 PM 1.28 34.304 0.19 7.35 3.34 13.46
3/8/2021 8:30:00 PM 1.27 34.286 0.191 7.35 3.45 13.44
3/8/2021 8:45:00 PM 1.26 34.268 0.191 7.37 3.58 13.43
3/8/2021 9:00:00 PM 1.25 34.25 0.192 7.36 3.42 13.42
3/8/2021 9:15:00 PM 1.26 34.268 0.193 7.35 3.59 13.41
3/8/2021 9:30:00 PM 1.26 34.268 0.193 7.35 3.61 13.4
3/8/2021 9:45:00 PM 1.27 34.286 0.194 7.37 3.49 13.38
3/8/2021 10:00:00 PM 1.27 34.286 0.194 7.37 3.37 13.38
3/8/2021 10:15:00 PM 1.28 34.304 0.194 7.36 3.38 13.37
3/8/2021 10:30:00 PM 1.29 34.322 0.195 7.34 3.4 13.36
3/8/2021 10:45:00 PM 1.3 34.34 0.195 7.37 3.49 13.35
3/8/2021 11:00:00 PM 1.31 34.358 0.195 7.36 3.66 13.34
3/8/2021 11:15:00 PM 1.32 34.376 0.195 7.37 3.58 13.33
3/8/2021 11:30:00 PM 1.33 34.394 0.195 7.39 3.69 13.32
3/8/2021 11:45:00 PM 1.34 34.412 0.195 7.37 3.48 13.31
3/9/2021 12:00:00 AM 1.34 34.412 0.195 7.36 3.43 13.32
3/9/2021 12:15:00 AM 1.34 34.412 0.195 7.36 3.37 13.3
3/9/2021 12:30:00 AM 1.35 34.43 0.195 7.34 3.35 13.29
3/9/2021 12:45:00 AM 1.36 34.448 0.195 7.37 3.32 13.3
3/9/2021 1:00:00 AM 1.36 34.448 0.194 7.35 3.29 13.29
3/9/2021 1:15:00 AM 1.37 34.466 0.194 7.36 3.21 13.28
3/9/2021 1:30:00 AM 1.35 34.43 0.194 7.35 3.17 13.29
3/9/2021 1:45:00 AM 1.34 34.412 0.194 7.33 3.15 13.27
3/9/2021 2:00:00 AM 1.32 34.376 0.194 7.35 3.29 13.28
3/9/2021 2:15:00 AM 1.32 34.376 0.193 7.34 3.14 13.28
3/9/2021 2:30:00 AM 1.31 34.358 0.193 7.33 3.19 13.27
3/9/2021 2:45:00 AM 1.31 34.358 0.193 7.33 3.19 13.27
3/9/2021 3:00:00 AM 1.31 34.358 0.192 7.33 3.25 13.27
3/9/2021 3:15:00 AM 1.3 34.34 0.192 7.31 3.23 13.28
3/9/2021 3:30:00 AM 1.29 34.322 0.192 7.31 3.3 13.28
3/9/2021 3:45:00 AM 1.28 34.304 0.192 7.31 3.37 13.27
3/9/2021 4:00:00 AM 1.27 34.286 0.192 7.3 3.55 13.27
3/9/2021 4:15:00 AM 1.25 34.25 0.192 7.3 3.39 13.28
3/9/2021 4:30:00 AM 1.23 34.214 0.192 7.3 3.31 13.28
3/9/2021 4:45:00 AM 1.2 34.16 0.192 7.31 3.13 13.28
3/9/2021 5:00:00 AM 1.17 34.106 0.192 7.3 3.39 13.31
3/9/2021 5:15:00 AM 1.15 34.07 0.192 7.29 3.35 13.32
3/9/2021 5:30:00 AM 1.12 34.016 0.192 7.29 3.2 13.32
3/9/2021 5:45:00 AM 1.1 33.98 0.192 7.3 3.37 13.33
3/9/2021 6:00:00 AM 1.07 33.926 0.191 7.29 3.22 13.34
3/9/2021 6:15:00 AM 1.05 33.89 0.191 7.28 3.28 13.33
3/9/2021 6:30:00 AM 1.01 33.818 0.191 7.29 3.38 13.37
3/9/2021 6:45:00 AM 0.99 33.782 0.192 7.29 3.3 13.39
3/9/2021 7:00:00 AM 0.98 33.764 0.191 7.29 3.32 13.41
3/9/2021 7:15:00 AM 0.97 33.746 0.191 7.29 3.3 13.45
3/9/2021 7:30:00 AM 0.95 33.71 0.192 7.31 3.18 13.5
3/9/2021 7:45:00 AM 0.96 33.728 0.191 7.31 3.22 13.57
3/9/2021 8:00:00 AM 0.98 33.764 0.192 7.31 3.25 13.63
3/9/2021 8:15:00 AM 1 33.8 0.191 7.32 3.16 13.69
3/9/2021 8:30:00 AM 1.03 33.854 0.192 7.32 3.2 13.75
3/9/2021 8:45:00 AM 1.09 33.962 0.192 7.35 3.22 13.81
3/9/2021 9:00:00 AM 1.19 34.142 0.191 7.37 3.3 13.84
3/9/2021 9:15:00 AM 1.29 34.322 0.191 7.39 3.04 13.88
3/9/2021 9:30:00 AM 1.43 34.574 0.191 7.41 3.19 13.91
3/9/2021 9:45:00 AM 1.59 34.862 0.19 7.44 3.1 13.92
3/9/2021 10:00:00 AM 1.77 35.186 0.19 7.47 3.05 13.93
3/9/2021 10:15:00 AM 1.96 35.528 0.19 7.5 3.05 13.95
3/9/2021 10:30:00 AM 2.16 35.888 0.19 7.52 3.01 13.94
3/9/2021 10:45:00 AM 2.38 36.284 0.19 7.55 3.04 13.93
3/9/2021 11:00:00 AM 2.63 36.734 0.19 7.57 2.97 13.9
3/9/2021 11:15:00 AM 2.85 37.13 0.189 7.59 2.97 13.86
3/9/2021 11:30:00 AM 2.98 37.364 0.189 7.59 3.03 13.84
3/9/2021 11:45:00 AM 3.12 37.616 0.189 7.6 2.97 13.79
3/9/2021 12:00:00 PM 3.19 37.742 0.188 7.59 2.86 13.77
3/9/2021 12:15:00 PM 3.38 38.084 0.189 7.62 3.02 13.75
3/9/2021 12:30:00 PM 3.65 38.57 0.188 7.65 3.07 13.69
3/9/2021 12:45:00 PM 3.94 39.092 0.188 7.67 2.85 13.63
3/9/2021 1:00:00 PM 4.18 39.524 0.188 7.68 2.92 13.57
3/9/2021 1:15:00 PM 4.42 39.956 0.189 7.7 3.07 13.51
3/9/2021 1:30:00 PM 4.65 40.37 0.188 7.69 3.27 13.43
3/9/2021 1:45:00 PM 4.84 40.712 0.188 7.7 2.97 13.37
3/9/2021 2:00:00 PM 5.03 41.054 0.188 7.69 2.89 13.3
3/9/2021 2:15:00 PM 5.13 41.234 0.188 7.71 3.01 13.24
3/9/2021 2:30:00 PM 5.2 41.36 0.189 7.72 2.78 13.21
3/9/2021 2:45:00 PM 5.21 41.378 0.189 7.71 2.87 13.16
3/9/2021 3:00:00 PM 5.14 41.252 0.189 7.71 3.07 13.13
3/9/2021 3:15:00 PM 5.06 41.108 0.189 7.71 3.09 13.1
3/9/2021 3:30:00 PM 4.96 40.928 0.189 7.7 2.94 13.1
3/9/2021 3:45:00 PM 4.77 40.586 0.189 7.69 3.19 13.08
3/9/2021 4:00:00 PM 4.62 40.316 0.189 7.67 2.99 13.06
3/9/2021 4:15:00 PM 4.47 40.046 0.19 7.66 3.03 13.05
3/9/2021 4:30:00 PM 4.33 39.794 0.19 7.64 3.05 13.04
3/9/2021 4:45:00 PM 4.21 39.578 0.19 7.61 2.99 13.03
3/9/2021 5:00:00 PM 4.08 39.344 0.191 7.59 3.04 13.02
3/9/2021 5:15:00 PM 3.96 39.128 0.191 7.56 3.52 13
3/9/2021 5:30:00 PM 3.85 38.93 0.191 7.54 3.62 12.98
3/9/2021 5:45:00 PM 3.73 38.714 0.192 7.51 3.6 12.96
3/9/2021 6:00:00 PM 3.6 38.48 0.193 7.49 3.36 12.93
3/9/2021 6:15:00 PM 3.48 38.264 0.193 7.46 3.3 12.92
3/9/2021 6:30:00 PM 3.36 38.048 0.194 7.42 3.4 12.9
3/9/2021 6:45:00 PM 3.25 37.85 0.195 7.38 3.5 12.88
3/9/2021 7:00:00 PM 3.15 37.67 0.196 7.32 3.39 12.87
3/9/2021 7:15:00 PM 3.06 37.508 0.197 7.28 3.48 12.85
3/9/2021 7:30:00 PM 2.97 37.346 0.198 7.26 3.58 12.85
3/9/2021 7:45:00 PM 2.9 37.22 0.198 7.25 3.64 12.84
3/9/2021 8:00:00 PM 2.83 37.094 0.199 7.24 3.71 12.84
3/9/2021 8:15:00 PM 2.77 36.986 0.199 7.23 3.48 12.83
3/9/2021 8:30:00 PM 2.72 36.896 0.2 7.22 3.7 12.84
3/9/2021 8:45:00 PM 2.67 36.806 0.2 7.22 3.72 12.85
3/9/2021 9:00:00 PM 2.62 36.716 0.2 7.23 3.52 12.85
3/9/2021 9:15:00 PM 2.58 36.644 0.2 7.22 3.73 12.86
3/9/2021 9:30:00 PM 2.53 36.554 0.2 7.22 3.56 12.87
3/9/2021 9:45:00 PM 2.48 36.464 0.199 7.23 3.37 12.88
3/9/2021 10:00:00 PM 2.42 36.356 0.2 7.22 3.56 12.9
3/9/2021 10:15:00 PM 2.37 36.266 0.199 7.21 3.55 12.92
3/9/2021 10:30:00 PM 2.32 36.176 0.199 7.21 3.56 12.94
3/9/2021 10:45:00 PM 2.27 36.086 0.199 7.21 3.5 12.95
3/9/2021 11:00:00 PM 2.22 35.996 0.199 7.21 3.65 12.97
3/9/2021 11:15:00 PM 2.17 35.906 0.199 7.21 3.5 12.98
3/9/2021 11:30:00 PM 2.13 35.834 0.199 7.21 3.51 13
3/9/2021 11:45:00 PM 2.1 35.78 0.2 7.2 3.73 13.01
3/10/2021 12:00:00 AM 2.08 35.744 0.2 7.21 3.75 13.02
3/10/2021 12:15:00 AM 2.05 35.69 0.2 7.21 3.51 13.02
3/10/2021 12:30:00 AM 2.03 35.654 0.2 7.22 3.43 13.03
3/10/2021 12:45:00 AM 2.01 35.618 0.2 7.22 3.46 13.04
3/10/2021 1:00:00 AM 2 35.6 0.2 7.22 3.59 13.04
3/10/2021 1:15:00 AM 1.98 35.564 0.201 7.23 3.42 13.04
3/10/2021 1:30:00 AM 1.96 35.528 0.201 7.23 3.36 13.04
3/10/2021 1:45:00 AM 1.95 35.51 0.201 7.23 3.56 13.04
3/10/2021 2:00:00 AM 1.94 35.492 0.202 7.23 3.51 13.05
3/10/2021 2:15:00 AM 1.92 35.456 0.202 7.24 4.02 13.05
3/10/2021 2:30:00 AM 1.9 35.42 0.202 7.24 3.9 13.06
3/10/2021 2:45:00 AM 1.88 35.384 0.202 7.24 3.57 13.07
3/10/2021 3:00:00 AM 1.86 35.348 0.203 7.24 3.52 13.08
3/10/2021 3:15:00 AM 1.83 35.294 0.203 7.24 3.38 13.08
3/10/2021 3:30:00 AM 1.8 35.24 0.203 7.25 3.5 13.09
3/10/2021 3:45:00 AM 1.77 35.186 0.203 7.25 3.43 13.1
3/10/2021 4:00:00 AM 1.74 35.132 0.203 7.26 3.99 13.12
3/10/2021 4:15:00 AM 1.71 35.078 0.203 7.27 3.81 13.13
3/10/2021 4:30:00 AM 1.68 35.024 0.203 7.26 3.4 13.14
3/10/2021 4:45:00 AM 1.65 34.97 0.203 7.26 3.75 13.15
3/10/2021 5:00:00 AM 1.62 34.916 0.203 7.27 3.66 13.17
3/10/2021 5:15:00 AM 1.58 34.844 0.203 7.27 3.59 13.18
3/10/2021 5:30:00 AM 1.55 34.79 0.203 7.27 3.53 13.2
3/10/2021 5:45:00 AM 1.52 34.736 0.203 7.28 3.66 13.21
3/10/2021 6:00:00 AM 1.49 34.682 0.203 7.29 3.61 13.22
3/10/2021 6:15:00 AM 1.46 34.628 0.203 7.27 3.49 13.24
3/10/2021 6:30:00 AM 1.43 34.574 0.203 7.27 3.49 13.26
3/10/2021 6:45:00 AM 1.4 34.52 0.202 7.28 3.3 13.29
3/10/2021 7:00:00 AM 1.37 34.466 0.202 7.27 3.48 13.34
3/10/2021 7:15:00 AM 1.35 34.43 0.202 7.28 3.57 13.38
3/10/2021 7:30:00 AM 1.34 34.412 0.202 7.29 3.42 13.44
3/10/2021 7:45:00 AM 1.34 34.412 0.202 7.3 3.35 13.5
3/10/2021 8:00:00 AM 1.35 34.43 0.201 7.32 3.37 13.56
3/10/2021 8:15:00 AM 1.37 34.466 0.201 7.33 3.22 13.63
3/10/2021 8:30:00 AM 1.39 34.502 0.201 7.38 3.37 13.69
3/10/2021 8:45:00 AM 1.43 34.574 0.201 7.37 3.74 13.75
3/10/2021 9:00:00 AM 1.49 34.682 0.2 7.4 4.23 13.8
3/10/2021 9:15:00 AM 1.57 34.826 0.2 7.46 3.72 13.85
3/10/2021 9:30:00 AM 1.68 35.024 0.2 7.48 3.69 13.88
3/10/2021 9:45:00 AM 1.81 35.258 0.2 7.5 3.37 13.91
3/10/2021 10:00:00 AM 1.97 35.546 0.199 7.49 3.19 13.93
3/10/2021 10:15:00 AM 2.15 35.87 0.199 7.55 3.26 13.92
3/10/2021 10:30:00 AM 2.34 36.212 0.198 7.54 3.12 13.92
3/10/2021 10:45:00 AM 2.56 36.608 0.198 7.56 3.22 13.9
3/10/2021 11:00:00 AM 2.8 37.04 0.198 7.59 3.2 13.85
3/10/2021 11:15:00 AM 3.07 37.526 0.197 7.6 3.18 13.81
3/10/2021 11:30:00 AM 3.36 38.048 0.197 7.62 3.14 13.77
3/10/2021 11:45:00 AM 3.66 38.588 0.196 7.65 3.31 13.69
3/10/2021 12:00:00 PM 3.99 39.182 0.196 7.67 3.19 13.63
3/10/2021 12:15:00 PM 4.29 39.722 0.196 7.67 3.26 13.56
3/10/2021 12:30:00 PM 4.61 40.298 0.195 7.69 3.13 13.47
3/10/2021 12:45:00 PM 4.91 40.838 0.195 7.71 3.06 13.4
3/10/2021 1:00:00 PM 5.16 41.288 0.195 7.72 3.19 13.32
3/10/2021 1:15:00 PM 5.39 41.702 0.195 7.73 3.16 13.26
3/10/2021 1:30:00 PM 5.58 42.044 0.194 7.73 3.1 13.19
3/10/2021 1:45:00 PM 5.75 42.35 0.194 7.73 3.29 13.14
3/10/2021 2:00:00 PM 5.85 42.53 0.194 7.73 3.15 13.08
3/10/2021 2:15:00 PM 5.88 42.584 0.194 7.7 3.27 13.03
3/10/2021 2:30:00 PM 5.92 42.656 0.194 7.68 3.48 12.98
3/10/2021 2:45:00 PM 5.94 42.692 0.194 7.65 3.42 12.98
3/10/2021 3:00:00 PM 5.89 42.602 0.194 7.61 3.59 12.95
3/10/2021 3:15:00 PM 5.79 42.422 0.193 7.56 4.17 12.92
3/10/2021 3:30:00 PM 5.67 42.206 0.194 7.54 4.51 12.91
3/10/2021 3:45:00 PM 5.53 41.954 0.194 7.51 4.95 12.88
3/10/2021 4:00:00 PM 5.39 41.702 0.195 7.47 5.37 12.85
3/10/2021 4:15:00 PM 5.24 41.432 0.196 7.43 5.86 12.82
3/10/2021 4:30:00 PM 5.1 41.18 0.197 7.4 6.18 12.81
3/10/2021 4:45:00 PM 4.94 40.892 0.197 7.45 7 12.79
3/10/2021 5:00:00 PM 4.78 40.604 0.198 7.44 6.76 12.77
3/10/2021 5:15:00 PM 4.62 40.316 0.199 7.42 7.46 12.75
3/10/2021 5:30:00 PM 4.47 40.046 0.199 7.4 10.07 12.71
3/10/2021 5:45:00 PM 4.3 39.74 0.199 7.36 16.78 12.65
3/10/2021 6:00:00 PM 4.14 39.452 0.199 7.32 21.45 12.62
3/10/2021 6:15:00 PM 4 39.2 0.199 7.29 18.66 12.62
3/10/2021 6:30:00 PM 3.86 38.948 0.198 7.25 16.79 12.63
3/10/2021 6:45:00 PM 3.74 38.732 0.197 7.23 13.06 12.63
3/10/2021 7:00:00 PM 3.63 38.534 0.197 7.24 12.29 12.63
3/10/2021 7:15:00 PM 3.53 38.354 0.196 7.23 11.1 12.64
3/10/2021 7:30:00 PM 3.45 38.21 0.194 7.23 11.91 12.65
3/10/2021 7:45:00 PM 3.4 38.12 0.194 7.22 11.55 12.65
3/10/2021 8:00:00 PM 3.35 38.03 0.193 7.2 12.75 12.65
3/10/2021 8:15:00 PM 3.32 37.976 0.193 7.21 12.13 12.63
3/10/2021 8:30:00 PM 3.3 37.94 0.193 7.24 11.98 12.62
3/10/2021 8:45:00 PM 3.3 37.94 0.193 7.25 13.25 12.61
3/10/2021 9:00:00 PM 3.33 37.994 0.193 7.25 12.02 12.6
3/10/2021 9:15:00 PM 3.34 38.012 0.193 7.25 12.82 12.59
3/10/2021 9:30:00 PM 3.37 38.066 0.193 7.25 13.06 12.56
3/10/2021 9:45:00 PM 3.38 38.084 0.193 7.23 13.41 12.56
3/10/2021 10:00:00 PM 3.4 38.12 0.192 7.25 14.13 12.55
3/10/2021 10:15:00 PM 3.41 38.138 0.192 7.25 13.74 12.54
3/10/2021 10:30:00 PM 3.41 38.138 0.191 7.27 12.89 12.54
3/10/2021 10:45:00 PM 3.39 38.102 0.19 7.25 12.89 12.55
3/10/2021 11:00:00 PM 3.36 38.048 0.189 7.25 13.33 12.56
3/10/2021 11:15:00 PM 3.33 37.994 0.188 7.22 12.93 12.58
3/10/2021 11:30:00 PM 3.28 37.904 0.187 7.21 13.09 12.6
3/10/2021 11:45:00 PM 3.21 37.778 0.185 7.2 12.35 12.62
3/11/2021 12:00:00 AM 3.14 37.652 0.184 7.18 12.58 12.66
3/11/2021 12:15:00 AM 3.06 37.508 0.183 7.16 12.74 12.69
3/11/2021 12:30:00 AM 2.98 37.364 0.182 7.16 12.48 12.72
3/11/2021 12:45:00 AM 2.9 37.22 0.18 7.17 12.6 12.75
3/11/2021 1:00:00 AM 2.81 37.058 0.179 7.15 12.67 12.78
3/11/2021 1:15:00 AM 2.73 36.914 0.179 7.14 12.18 12.81
3/11/2021 1:30:00 AM 2.66 36.788 0.178 7.16 12.29 12.85
3/11/2021 1:45:00 AM 2.58 36.644 0.177 7.18 12.29 12.87
3/11/2021 2:00:00 AM 2.52 36.536 0.176 7.15 12.07 12.9
3/11/2021 2:15:00 AM 2.46 36.428 0.175 7.17 11.92 12.92
3/11/2021 2:30:00 AM 2.41 36.338 0.174 7.17 12.91 12.94
3/11/2021 2:45:00 AM 2.37 36.266 0.174 7.16 12.96 12.95
3/11/2021 3:00:00 AM 2.33 36.194 0.173 7.18 11.88 12.97
3/11/2021 3:15:00 AM 2.29 36.122 0.172 7.19 12.6 12.99
3/11/2021 3:30:00 AM 2.26 36.068 0.172 7.2 12.04 13.01
3/11/2021 3:45:00 AM 2.23 36.014 0.171 7.18 12.28 13.01
3/11/2021 4:00:00 AM 2.21 35.978 0.171 7.18 12.35 13.03
3/11/2021 4:15:00 AM 2.19 35.942 0.17 7.19 12.12 13.02
3/11/2021 4:30:00 AM 2.17 35.906 0.17 7.17 11.56 13.04
3/11/2021 4:45:00 AM 2.15 35.87 0.17 7.16 11.82 13.05
3/11/2021 5:00:00 AM 2.13 35.834 0.17 7.18 11.97 13.05
3/11/2021 5:15:00 AM 2.11 35.798 0.169 7.16 12.47 13.05
3/11/2021 5:30:00 AM 2.1 35.78 0.169 7.16 12.07 13.07
3/11/2021 5:45:00 AM 2.08 35.744 0.169 7.17 11.23 13.08
3/11/2021 6:00:00 AM 2.07 35.726 0.169 7.17 10.91 13.07
3/11/2021 6:15:00 AM 2.06 35.708 0.168 7.18 10.74 13.08
3/11/2021 6:30:00 AM 2.05 35.69 0.168 7.17 11.55 13.08
3/11/2021 6:45:00 AM 2.04 35.672 0.168 7.15 10.33 13.1
3/11/2021 7:00:00 AM 2.04 35.672 0.168 7.17 10.4 13.11
3/11/2021 7:15:00 AM 2.04 35.672 0.167 7.19 10.66 13.14
3/11/2021 7:30:00 AM 2.05 35.69 0.167 7.18 10.11 13.17
3/11/2021 7:45:00 AM 2.07 35.726 0.167 7.19 10.47 13.2
3/11/2021 8:00:00 AM 2.1 35.78 0.167 7.19 9.52 13.25
3/11/2021 8:15:00 AM 2.15 35.87 0.167 7.22 10.04 13.29
3/11/2021 8:30:00 AM 2.17 35.906 0.166 7.24 9.69 13.33
3/11/2021 8:45:00 AM 2.24 36.032 0.166 7.25 9.52 13.36
3/11/2021 9:00:00 AM 2.29 36.122 0.166 7.27 9.65 13.39
3/11/2021 9:15:00 AM 2.38 36.284 0.165 7.27 9.04 13.4
3/11/2021 9:30:00 AM 2.47 36.446 0.164 7.29 8.91 13.42
3/11/2021 9:45:00 AM 2.62 36.716 0.164 7.3 8.94 13.42
3/11/2021 10:00:00 AM 2.71 36.878 0.163 7.33 8.62 13.43
3/11/2021 10:15:00 AM 2.89 37.202 0.163 7.34 8.74 13.41
3/11/2021 10:30:00 AM 3.06 37.508 0.162 7.36 8.65 13.4
3/11/2021 10:45:00 AM 3.2 37.76 0.162 7.38 8.66 13.38
3/11/2021 11:00:00 AM 3.39 38.102 0.161 7.37 8.45 13.35
3/11/2021 11:15:00 AM 3.55 38.39 0.161 7.39 8.33 13.32
3/11/2021 11:30:00 AM 3.71 38.678 0.16 7.39 8.5 13.29
3/11/2021 11:45:00 AM 3.86 38.948 0.16 7.39 8.61 13.25
3/11/2021 12:00:00 PM 4.02 39.236 0.159 7.38 8.62 13.21
3/11/2021 12:15:00 PM 4.16 39.488 0.159 7.38 9.12 13.17
3/11/2021 12:30:00 PM 4.3 39.74 0.158 7.4 10.16 13.13
3/11/2021 12:45:00 PM 4.39 39.902 0.157 7.38 11.8 13.09
3/11/2021 1:00:00 PM 4.41 39.938 0.156 7.38 12.88 13.05
3/11/2021 1:15:00 PM 4.44 39.992 0.155 7.34 15.6 13.01
3/11/2021 1:30:00 PM 4.39 39.902 0.154 7.32 19.27 12.97
3/11/2021 1:45:00 PM 4.36 39.848 0.152 7.26 20.02 12.95
3/11/2021 2:00:00 PM 4.31 39.758 0.151 7.24 22.83 12.9
3/11/2021 2:15:00 PM 4.25 39.65 0.149 7.24 27.4 12.88
3/11/2021 2:30:00 PM 4.15 39.47 0.148 7.17 44.38 12.82
3/11/2021 2:45:00 PM 4.04 39.272 0.146 7.13 28.55 12.78
3/11/2021 3:00:00 PM 3.92 39.056 0.144 7.09 34.8 12.74
3/11/2021 3:15:00 PM 3.83 38.894 0.143 7.07 48.94 12.7
3/11/2021 3:30:00 PM 3.75 38.75 0.141 7.03 62.1 12.67
3/11/2021 3:45:00 PM 3.68 38.624 0.139 7.01 72.97 12.65
3/11/2021 4:00:00 PM 3.63 38.534 0.138 6.97 49.19 12.63
3/11/2021 4:15:00 PM 3.6 38.48 0.136 6.94 68.25 12.61
3/11/2021 4:30:00 PM 3.55 38.39 0.134 6.95 121.27 12.61
3/11/2021 4:45:00 PM 3.5 38.3 0.133 6.92 62.86 12.6
3/11/2021 5:00:00 PM 3.44 38.192 0.13 6.87 85.79 12.61
3/11/2021 5:15:00 PM 3.36 38.048 0.127 6.83 88.03 12.62
3/11/2021 5:30:00 PM 3.28 37.904 0.124 6.87 89.83 12.63
3/11/2021 5:45:00 PM 3.19 37.742 0.121 6.88 80.68 12.65
3/11/2021 6:00:00 PM 3.1 37.58 0.118 6.92 91.27 12.68
3/11/2021 6:15:00 PM 2.97 37.346 0.116 6.89 110.41 12.72
3/11/2021 6:30:00 PM 2.86 37.148 0.114 6.86 89.87 12.75
3/11/2021 6:45:00 PM 2.76 36.968 0.112 6.85 93.31 12.78
3/11/2021 7:00:00 PM 2.67 36.806 0.11 6.83 101.42 12.81
3/11/2021 7:15:00 PM 2.58 36.644 0.108 6.82 110.9 12.84
3/11/2021 7:30:00 PM 2.49 36.482 0.107 6.83 93.22 12.87
3/11/2021 7:45:00 PM 2.41 36.338 0.106 6.87 101.37 12.9
3/11/2021 8:00:00 PM 2.33 36.194 0.105 6.8 103.4 12.93
3/11/2021 8:15:00 PM 2.25 36.05 0.104 6.77 111.98 12.96
3/11/2021 8:30:00 PM 2.17 35.906 0.103 6.74 117.14 12.99
3/11/2021 8:45:00 PM 2.11 35.798 0.102 6.73 108.12 13.01
3/11/2021 9:00:00 PM 2.05 35.69 0.101 6.73 100.48 13.04
3/11/2021 9:15:00 PM 2 35.6 0.1 6.75 96.72 13.06
3/11/2021 9:30:00 PM 1.95 35.51 0.099 6.75 90.74 13.07
3/11/2021 9:45:00 PM 1.9 35.42 0.098 6.77 93.82 13.09
3/11/2021 10:00:00 PM 1.86 35.348 0.098 6.77 194.32 13.11
3/11/2021 10:15:00 PM 1.82 35.276 0.097 6.75 100.45 13.14
3/11/2021 10:30:00 PM 1.79 35.222 0.096 6.81 107.21 13.15
3/11/2021 10:45:00 PM 1.76 35.168 0.096 6.76 105.08 13.16
3/11/2021 11:00:00 PM 1.74 35.132 0.095 6.72 80.97 13.17
3/11/2021 11:15:00 PM 1.72 35.096 0.095 6.7 81.8 13.18
3/11/2021 11:30:00 PM 1.7 35.06 0.094 6.67 67.96 13.19
3/11/2021 11:45:00 PM 1.69 35.042 0.094 6.67 82.46 13.19
3/12/2021 12:00:00 AM 1.68 35.024 0.093 6.66 78.78 13.2
3/12/2021 12:15:00 AM 1.68 35.024 0.093 6.64 73.99 13.2
3/12/2021 12:30:00 AM 1.69 35.042 0.093 6.65 56.01 13.2
3/12/2021 12:45:00 AM 1.7 35.06 0.093 6.66 52.7 13.2
3/12/2021 1:00:00 AM 1.73 35.114 0.092 6.66 51.59 13.2
3/12/2021 1:15:00 AM 1.75 35.15 0.092 6.66 49.34 13.21
3/12/2021 1:30:00 AM 1.76 35.168 0.092 6.63 56.73 13.2
3/12/2021 1:45:00 AM 1.77 35.186 0.091 6.62 47.83 13.2
3/12/2021 2:00:00 AM 1.79 35.222 0.091 6.61 45.02 13.2
3/12/2021 2:15:00 AM 1.8 35.24 0.091 6.61 50.4 13.2
3/12/2021 2:30:00 AM 1.81 35.258 0.091 6.62 42.5 13.19
3/12/2021 2:45:00 AM 1.83 35.294 0.09 6.62 39.63 13.19
3/12/2021 3:00:00 AM 1.86 35.348 0.09 6.64 47.09 13.18
3/12/2021 3:15:00 AM 1.88 35.384 0.091 6.68 59.93 13.18
3/12/2021 3:30:00 AM 1.91 35.438 0.09 6.67 38.61 13.17
3/12/2021 3:45:00 AM 1.93 35.474 0.09 6.69 40.57 13.16
3/12/2021 4:00:00 AM 1.94 35.492 0.09 6.73 34.6 13.16
3/12/2021 4:15:00 AM 1.94 35.492 0.089 6.71 34.09 13.16
3/12/2021 4:30:00 AM 1.94 35.492 0.089 6.71 34.93 13.16
3/12/2021 4:45:00 AM 1.94 35.492 0.089 6.72 31.79 13.16
3/12/2021 5:00:00 AM 1.93 35.474 0.089 6.71 32.16 13.16
3/12/2021 5:15:00 AM 1.91 35.438 0.089 6.68 31.93 13.16
3/12/2021 5:30:00 AM 1.9 35.42 0.089 6.69 28.88 13.17
3/12/2021 5:45:00 AM 1.89 35.402 0.089 6.7 38.38 13.17
3/12/2021 6:00:00 AM 1.87 35.366 0.089 6.68 30.96 13.18
3/12/2021 6:15:00 AM 1.86 35.348 0.089 6.69 27.85 13.18
3/12/2021 6:30:00 AM 1.84 35.312 0.088 6.71 29.08 13.19
3/12/2021 6:45:00 AM 1.82 35.276 0.088 6.69 27.79 13.19
3/12/2021 7:00:00 AM 1.8 35.24 0.088 6.68 28.78 13.2
3/12/2021 7:15:00 AM 1.79 35.222 0.088 6.71 27.53 13.21
3/12/2021 7:30:00 AM 1.77 35.186 0.088 6.69 26.8 13.22
3/12/2021 7:45:00 AM 1.76 35.168 0.088 6.69 43.16 13.24
3/12/2021 8:00:00 AM 1.76 35.168 0.088 6.69 26.07 13.25
3/12/2021 8:15:00 AM 1.77 35.186 0.089 6.71 25.37 13.26
3/12/2021 8:30:00 AM 1.81 35.258 0.088 6.69 23.12 13.27
3/12/2021 8:45:00 AM 1.86 35.348 0.088 6.73 23.43 13.28
3/12/2021 9:00:00 AM 1.92 35.456 0.088 6.76 22.24 13.28
3/12/2021 9:15:00 AM 2 35.6 0.088 6.75 35.43 13.28
3/12/2021 9:30:00 AM 2.09 35.762 0.088 6.78 21.83 13.27
3/12/2021 9:45:00 AM 2.2 35.96 0.088 6.79 21.09 13.26
3/12/2021 10:00:00 AM 2.32 36.176 0.088 6.8 20.62 13.24
3/12/2021 10:15:00 AM 2.45 36.41 0.088 6.81 20.54 13.22
3/12/2021 10:30:00 AM 2.59 36.662 0.089 6.79 20.29 13.19
3/12/2021 10:45:00 AM 2.74 36.932 0.089 6.84 19.41 13.16
3/12/2021 11:00:00 AM 2.9 37.22 0.089 6.87 19.21 13.13
3/12/2021 11:15:00 AM 3.06 37.508 0.089 6.86 19.16 13.09
3/12/2021 11:30:00 AM 3.22 37.796 0.089 6.86 18.75 13.05
3/12/2021 11:45:00 AM 3.38 38.084 0.089 6.86 18.83 13.01
3/12/2021 12:00:00 PM 3.55 38.39 0.089 6.87 18.39 12.96
3/12/2021 12:15:00 PM 3.7 38.66 0.089 6.86 17.84 12.92
3/12/2021 12:30:00 PM 3.85 38.93 0.089 6.88 17.9 12.87
3/12/2021 12:45:00 PM 3.99 39.182 0.089 6.89 17.79 12.83
3/12/2021 1:00:00 PM 4.12 39.416 0.089 6.9 17.67 12.77
3/12/2021 1:15:00 PM 4.25 39.65 0.089 6.91 17.79 12.72
3/12/2021 1:30:00 PM 4.36 39.848 0.088 6.92 18.11 12.68
3/12/2021 1:45:00 PM 4.47 40.046 0.088 6.92 18.49 12.63
3/12/2021 2:00:00 PM 4.56 40.208 0.088 6.92 19.88 12.59
3/12/2021 2:15:00 PM 4.63 40.334 0.088 6.92 20.19 12.54
3/12/2021 2:30:00 PM 4.68 40.424 0.087 6.93 20.76 12.5
3/12/2021 2:45:00 PM 4.72 40.496 0.087 6.93 22.26 12.47
3/12/2021 3:00:00 PM 4.75 40.55 0.086 6.88 22.64 12.43
3/12/2021 3:15:00 PM 4.77 40.586 0.086 6.86 24.24 12.4
3/12/2021 3:30:00 PM 4.77 40.586 0.086 6.85 25.75 12.37
3/12/2021 3:45:00 PM 4.76 40.568 0.085 6.79 26.92 12.34
3/12/2021 4:00:00 PM 4.74 40.532 0.085 6.73 27.27 12.31
3/12/2021 4:15:00 PM 4.72 40.496 0.085 6.69 30.07 12.29
3/12/2021 4:30:00 PM 4.7 40.46 0.085 6.74 29.03 12.27
3/12/2021 4:45:00 PM 4.67 40.406 0.085 6.76 34.47 12.26
3/12/2021 5:00:00 PM 4.63 40.334 0.084 6.79 30.59 12.26
3/12/2021 5:15:00 PM 4.58 40.244 0.084 6.82 32.57 12.25
3/12/2021 5:30:00 PM 4.53 40.154 0.083 6.82 32.27 12.26
3/12/2021 5:45:00 PM 4.46 40.028 0.083 6.81 31.01 12.27
3/12/2021 6:00:00 PM 4.4 39.92 0.083 6.78 35.39 12.28
3/12/2021 6:15:00 PM 4.32 39.776 0.082 6.74 32.89 12.3
3/12/2021 6:30:00 PM 4.24 39.632 0.082 6.71 38.02 12.33
3/12/2021 6:45:00 PM 4.16 39.488 0.082 6.66 34.32 12.35
3/12/2021 7:00:00 PM 4.08 39.344 0.082 6.72 37.62 12.37
3/12/2021 7:15:00 PM 3.99 39.182 0.082 6.72 33.21 12.4
3/12/2021 7:30:00 PM 3.89 39.002 0.081 6.74 37.18 12.44
3/12/2021 7:45:00 PM 3.79 38.822 0.081 6.71 39.74 12.47
3/12/2021 8:00:00 PM 3.7 38.66 0.081 6.71 41.32 12.5
3/12/2021 8:15:00 PM 3.6 38.48 0.081 6.71 40.46 12.54
3/12/2021 8:30:00 PM 3.5 38.3 0.081 6.72 34.62 12.58
3/12/2021 8:45:00 PM 3.39 38.102 0.081 6.73 29.51 12.61
3/12/2021 9:00:00 PM 3.28 37.904 0.081 6.73 32.67 12.65
3/12/2021 9:15:00 PM 3.18 37.724 0.081 6.72 26.36 12.68
3/12/2021 9:30:00 PM 3.07 37.526 0.081 6.66 30.04 12.73
3/12/2021 9:45:00 PM 2.96 37.328 0.081 6.67 32.32 12.76
3/12/2021 10:00:00 PM 2.86 37.148 0.081 6.68 31.75 12.79
3/12/2021 10:15:00 PM 2.75 36.95 0.081 6.65 38.29 12.83
3/12/2021 10:30:00 PM 2.65 36.77 0.082 6.62 28.85 12.86
3/12/2021 10:45:00 PM 2.56 36.608 0.082 6.6 27.53 12.9
3/12/2021 11:00:00 PM 2.47 36.446 0.082 6.62 26.15 12.93
3/12/2021 11:15:00 PM 2.39 36.302 0.082 6.67 25.39 12.97
3/12/2021 11:30:00 PM 2.31 36.158 0.082 6.69 19.03 13
3/12/2021 11:45:00 PM 2.22 35.996 0.083 6.74 23.21 13.03
3/13/2021 12:00:00 AM 2.14 35.852 0.083 6.76 23.39 13.07
3/13/2021 12:15:00 AM 2.05 35.69 0.083 6.77 21.14 13.1
3/13/2021 12:30:00 AM 1.96 35.528 0.083 6.78 21.42 13.14
3/13/2021 12:45:00 AM 1.88 35.384 0.084 6.76 17.08 13.18
3/13/2021 1:00:00 AM 1.81 35.258 0.084 6.73 19.83 13.2
3/13/2021 1:15:00 AM 1.74 35.132 0.084 6.68 20.24 13.23
3/13/2021 1:30:00 AM 1.67 35.006 0.084 6.7 19.81 13.26
3/13/2021 1:45:00 AM 1.6 34.88 0.085 6.74 18.84 13.29
3/13/2021 2:00:00 AM 1.54 34.772 0.085 6.75 19.2 13.32
3/13/2021 2:15:00 AM 1.49 34.682 0.085 6.75 18 13.34
3/13/2021 2:30:00 AM 1.43 34.574 0.085 6.77 17.68 13.37
3/13/2021 2:45:00 AM 1.38 34.484 0.085 6.75 18.21 13.4
3/13/2021 3:00:00 AM 1.32 34.376 0.086 6.72 17.89 13.42
3/13/2021 3:15:00 AM 1.26 34.268 0.086 6.72 17.32 13.45
3/13/2021 3:30:00 AM 1.2 34.16 0.086 6.69 18.08 13.47
3/13/2021 3:45:00 AM 1.15 34.07 0.086 6.69 17.52 13.49
3/13/2021 4:00:00 AM 1.1 33.98 0.086 6.73 17.19 13.51
3/13/2021 4:15:00 AM 1.05 33.89 0.086 6.73 17.24 13.54
3/13/2021 4:30:00 AM 1 33.8 0.087 6.73 15.62 13.55
3/13/2021 4:45:00 AM 0.95 33.71 0.086 6.73 16.36 13.57
3/13/2021 5:00:00 AM 0.91 33.638 0.087 6.74 15.37 13.59
3/13/2021 5:15:00 AM 0.87 33.566 0.087 6.74 15.76 13.6
3/13/2021 5:30:00 AM 0.82 33.476 0.087 6.75 15.64 13.62
3/13/2021 5:45:00 AM 0.79 33.422 0.087 6.76 16.16 13.64
3/13/2021 6:00:00 AM 0.75 33.35 0.088 6.78 16.26 13.66
3/13/2021 6:15:00 AM 0.72 33.296 0.088 6.8 15.49 13.68
3/13/2021 6:30:00 AM 0.7 33.26 0.088 6.81 15.04 13.68
3/13/2021 6:45:00 AM 0.67 33.206 0.088 6.83 15.12 13.7
3/13/2021 7:00:00 AM 0.65 33.17 0.088 6.84 14.39 13.72
3/13/2021 7:15:00 AM 0.63 33.134 0.088 6.85 14.33 13.73
3/13/2021 7:30:00 AM 0.62 33.116 0.088 6.85 13.89 13.75
3/13/2021 7:45:00 AM 0.61 33.098 0.088 6.86 13.94 13.77
3/13/2021 8:00:00 AM 0.6 33.08 0.089 6.85 13.29 13.78
3/13/2021 8:15:00 AM 0.61 33.098 0.089 6.87 12.88 13.81
3/13/2021 8:30:00 AM 0.63 33.134 0.089 6.86 13.04 13.82
3/13/2021 8:45:00 AM 0.66 33.188 0.089 6.87 12.73 13.84
3/13/2021 9:00:00 AM 0.71 33.278 0.089 6.88 12.95 13.84
3/13/2021 9:15:00 AM 0.77 33.386 0.089 6.88 12.21 13.84
3/13/2021 9:30:00 AM 0.84 33.512 0.089 6.88 12.02 13.84
3/13/2021 9:45:00 AM 0.94 33.692 0.089 6.88 11.99 13.82
3/13/2021 10:00:00 AM 1.05 33.89 0.089 6.89 12.24 13.81
3/13/2021 10:15:00 AM 1.16 34.088 0.089 6.89 11.92 13.8
3/13/2021 10:30:00 AM 1.3 34.34 0.089 6.9 11.8 13.77
3/13/2021 10:45:00 AM 1.44 34.592 0.089 6.92 11.34 13.74
3/13/2021 11:00:00 AM 1.59 34.862 0.09 6.92 11.34 13.71
3/13/2021 11:15:00 AM 1.74 35.132 0.09 6.93 11.42 13.67
3/13/2021 11:30:00 AM 1.88 35.384 0.09 6.95 11.08 13.63
3/13/2021 11:45:00 AM 2.04 35.672 0.09 6.96 10.45 13.59
3/13/2021 12:00:00 PM 2.19 35.942 0.09 6.94 10.82 13.56
3/13/2021 12:15:00 PM 2.34 36.212 0.09 6.97 11.1 13.51
3/13/2021 12:30:00 PM 2.48 36.464 0.09 6.98 10.16 13.47
3/13/2021 12:45:00 PM 2.61 36.698 0.09 6.99 10.65 13.43
3/13/2021 1:00:00 PM 2.73 36.914 0.09 6.99 10.55 13.38
3/13/2021 1:15:00 PM 2.85 37.13 0.09 6.97 10.64 13.33
3/13/2021 1:30:00 PM 2.96 37.328 0.09 6.99 10.06 13.29
3/13/2021 1:45:00 PM 3.07 37.526 0.09 6.96 10.24 13.24
3/13/2021 2:00:00 PM 3.16 37.688 0.09 6.97 10.12 13.2
3/13/2021 2:15:00 PM 3.24 37.832 0.09 6.96 10.41 13.15
3/13/2021 2:30:00 PM 3.3 37.94 0.09 6.95 10.58 13.11
3/13/2021 2:45:00 PM 3.36 38.048 0.09 6.94 10.45 13.06
3/13/2021 3:00:00 PM 3.41 38.138 0.09 6.93 10.1 13.02
3/13/2021 3:15:00 PM 3.44 38.192 0.09 6.91 10.4 12.98
3/13/2021 3:30:00 PM 3.46 38.228 0.09 6.89 9.94 12.95
3/13/2021 3:45:00 PM 3.47 38.246 0.09 6.88 9.87 12.92
3/13/2021 4:00:00 PM 3.48 38.264 0.09 6.86 10.31 12.87
3/13/2021 4:15:00 PM 3.49 38.282 0.09 6.85 10.29 12.85
3/13/2021 4:30:00 PM 3.5 38.3 0.091 6.85 9.9 12.81
3/13/2021 4:45:00 PM 3.5 38.3 0.091 6.85 9.66 12.79
3/13/2021 5:00:00 PM 3.51 38.318 0.091 6.86 10.2 12.76
3/13/2021 5:15:00 PM 3.51 38.318 0.091 6.84 9.75 12.73
3/13/2021 5:30:00 PM 3.51 38.318 0.091 6.83 10.21 12.71
3/13/2021 5:45:00 PM 3.5 38.3 0.091 6.83 10.16 12.69
3/13/2021 6:00:00 PM 3.49 38.282 0.091 6.82 9.94 12.67
3/13/2021 6:15:00 PM 3.48 38.264 0.092 6.81 10.67 12.65
3/13/2021 6:30:00 PM 3.46 38.228 0.092 6.8 10.1 12.65
3/13/2021 6:45:00 PM 3.43 38.174 0.092 6.79 10.65 12.64
3/13/2021 7:00:00 PM 3.39 38.102 0.092 6.78 10.58 12.63
3/13/2021 7:15:00 PM 3.35 38.03 0.092 6.77 10.83 12.63
3/13/2021 7:30:00 PM 3.31 37.958 0.092 6.75 10.83 12.64
3/13/2021 7:45:00 PM 3.26 37.868 0.093 6.75 10.57 12.65
3/13/2021 8:00:00 PM 3.21 37.778 0.093 6.75 10.82 12.67
3/13/2021 8:15:00 PM 3.15 37.67 0.093 6.74 10.54 12.67
3/13/2021 8:30:00 PM 3.08 37.544 0.093 6.73 11.45 12.7
3/13/2021 8:45:00 PM 3.01 37.418 0.093 6.71 10.97 12.71
3/13/2021 9:00:00 PM 2.94 37.292 0.094 6.71 10.66 12.74
3/13/2021 9:15:00 PM 2.86 37.148 0.094 6.7 10.98 12.76
3/13/2021 9:30:00 PM 2.78 37.004 0.094 6.68 11.13 12.78
3/13/2021 9:45:00 PM 2.7 36.86 0.094 6.69 10.48 12.8
3/13/2021 10:00:00 PM 2.62 36.716 0.094 6.68 11.27 12.83
3/13/2021 10:15:00 PM 2.55 36.59 0.094 6.67 10.51 12.85
3/13/2021 10:30:00 PM 2.47 36.446 0.094 6.67 10.96 12.88
3/13/2021 10:45:00 PM 2.4 36.32 0.095 6.66 10.05 12.91
3/13/2021 11:00:00 PM 2.33 36.194 0.095 6.7 12 12.93
3/13/2021 11:15:00 PM 2.26 36.068 0.095 6.72 11.19 12.96
3/13/2021 11:30:00 PM 2.19 35.942 0.095 6.71 10.53 12.98
3/13/2021 11:45:00 PM 2.12 35.816 0.095 6.72 9.77 13.01
3/14/2021 12:00:00 AM 2.06 35.708 0.096 6.72 10.03 13.03
3/14/2021 12:15:00 AM 2 35.6 0.096 6.72 10.03 13.05
3/14/2021 12:30:00 AM 1.94 35.492 0.096 6.73 9.85 13.07
3/14/2021 12:45:00 AM 1.88 35.384 0.096 6.72 10.09 13.09
3/14/2021 1:00:00 AM 1.84 35.312 0.096 6.73 9.77 13.11
3/14/2021 1:15:00 AM 1.79 35.222 0.096 6.73 10.02 13.12
3/14/2021 1:30:00 AM 1.76 35.168 0.096 6.74 9.67 13.13
3/14/2021 1:45:00 AM 1.73 35.114 0.097 6.74 10.05 13.15
3/14/2021 3:45:00 AM 1.67 35.006 0.097 6.79 9.5 13.18
3/14/2021 4:00:00 AM 1.66 34.988 0.097 6.8 9.48 13.18
3/14/2021 4:15:00 AM 1.64 34.952 0.097 6.8 9.32 13.19
3/14/2021 4:30:00 AM 1.64 34.952 0.098 6.82 9.54 13.19
3/14/2021 4:45:00 AM 1.64 34.952 0.098 6.82 9.32 13.19
3/14/2021 5:00:00 AM 1.63 34.934 0.098 6.83 9.86 13.19
3/14/2021 5:15:00 AM 1.63 34.934 0.098 6.84 9.34 13.19
3/14/2021 5:30:00 AM 1.64 34.952 0.098 6.85 9.48 13.18
3/14/2021 5:45:00 AM 1.65 34.97 0.098 6.8 10.17 13.18
3/14/2021 6:00:00 AM 1.66 34.988 0.098 6.79 10.14 13.18
3/14/2021 6:15:00 AM 1.67 35.006 0.098 6.8 10.52 13.17
3/14/2021 6:30:00 AM 1.68 35.024 0.099 6.81 10.41 13.16
3/14/2021 6:45:00 AM 1.69 35.042 0.099 6.82 10.21 13.16
3/14/2021 7:00:00 AM 1.7 35.06 0.099 6.83 10.15 13.16
3/14/2021 7:15:00 AM 1.7 35.06 0.099 6.86 9.06 13.16
3/14/2021 7:30:00 AM 1.71 35.078 0.099 6.84 9.05 13.16
3/14/2021 7:45:00 AM 1.71 35.078 0.099 6.87 8.98 13.16
3/14/2021 8:00:00 AM 1.72 35.096 0.099 6.89 9.32 13.18
3/14/2021 8:15:00 AM 1.74 35.132 0.099 6.91 9.1 13.19
3/14/2021 8:30:00 AM 1.76 35.168 0.099 6.92 8.66 13.2
3/14/2021 8:45:00 AM 1.79 35.222 0.099 6.94 8.04 13.22
3/14/2021 9:00:00 AM 1.82 35.276 0.099 6.94 8.22 13.23
3/14/2021 9:15:00 AM 1.86 35.348 0.099 6.95 7.94 13.24
3/14/2021 9:30:00 AM 1.89 35.402 0.099 6.97 7.88 13.25
3/14/2021 9:45:00 AM 1.92 35.456 0.1 6.96 8.08 13.24
3/14/2021 10:00:00 AM 1.95 35.51 0.1 6.98 7.93 13.25
3/14/2021 10:15:00 AM 1.98 35.564 0.1 7.01 8.32 13.24
3/14/2021 10:30:00 AM 2.02 35.636 0.1 7.01 7.75 13.26
3/14/2021 10:45:00 AM 2.08 35.744 0.1 7.03 7.61 13.26
3/14/2021 11:00:00 AM 2.13 35.834 0.1 7.03 7.76 13.26
3/14/2021 11:15:00 AM 2.21 35.978 0.1 7.04 7.45 13.25
3/14/2021 11:30:00 AM 2.27 36.086 0.1 7.05 7.41 13.25
3/14/2021 11:45:00 AM 2.29 36.122 0.1 7.05 7.23 13.22
3/14/2021 12:00:00 PM 2.34 36.212 0.1 7.05 7.23 13.22
3/14/2021 12:15:00 PM 2.32 36.176 0.1 7.03 7.48 13.2
3/14/2021 12:30:00 PM 2.26 36.068 0.1 7.02 7.4 13.19
3/14/2021 12:45:00 PM 2.3 36.14 0.101 7.02 7.32 13.21
3/14/2021 1:00:00 PM 2.27 36.086 0.101 7.02 7.26 13.21
3/14/2021 1:15:00 PM 2.38 36.284 0.101 7.01 6.98 13.21
3/14/2021 1:30:00 PM 2.45 36.41 0.101 7.02 6.99 13.21
3/14/2021 1:45:00 PM 2.53 36.554 0.101 7.05 7.23 13.2
3/14/2021 2:00:00 PM 2.53 36.554 0.101 7.02 7.49 13.19
3/14/2021 2:15:00 PM 2.59 36.662 0.101 7.03 7.21 13.18
3/14/2021 2:30:00 PM 2.55 36.59 0.101 7.02 7.38 13.17
3/14/2021 2:45:00 PM 2.54 36.572 0.101 7.01 7.36 13.18
3/14/2021 3:00:00 PM 2.51 36.518 0.101 7.02 7.37 13.16
3/14/2021 3:15:00 PM 2.5 36.5 0.101 7.03 6.92 13.17
3/14/2021 3:30:00 PM 2.54 36.572 0.102 7.05 6.75 13.17
3/14/2021 3:45:00 PM 2.57 36.626 0.102 7.06 7.14 13.18
3/14/2021 4:00:00 PM 2.58 36.644 0.102 7.07 7 13.17
3/14/2021 4:15:00 PM 2.57 36.626 0.102 7.07 7.11 13.17
3/14/2021 4:30:00 PM 2.57 36.626 0.103 7.07 7.2 13.17
3/14/2021 4:45:00 PM 2.54 36.572 0.103 7.07 6.94 13.18
3/14/2021 5:00:00 PM 2.52 36.536 0.103 7.1 7.14 13.18
3/14/2021 5:15:00 PM 2.5 36.5 0.103 7.11 6.98 13.18
3/14/2021 5:30:00 PM 2.46 36.428 0.103 7.1 7.56 13.18
3/14/2021 5:45:00 PM 2.44 36.392 0.103 7.09 7.5 13.19
3/14/2021 6:00:00 PM 2.43 36.374 0.103 7.08 7.63 13.18
3/14/2021 6:15:00 PM 2.4 36.32 0.103 7.1 7.8 13.18
3/14/2021 6:30:00 PM 2.36 36.248 0.103 7.1 7.42 13.17
3/14/2021 6:45:00 PM 2.3 36.14 0.104 7.1 7.51 13.17
3/14/2021 7:00:00 PM 2.23 36.014 0.104 7.06 7.9 13.16
3/14/2021 7:15:00 PM 2.17 35.906 0.104 7.01 7.84 13.16
3/14/2021 7:30:00 PM 2.11 35.798 0.104 6.99 8.29 13.16
3/14/2021 7:45:00 PM 2.06 35.708 0.104 6.98 8.04 13.15
3/14/2021 8:00:00 PM 2.02 35.636 0.105 6.97 8.13 13.16
3/14/2021 8:15:00 PM 1.96 35.528 0.105 6.97 8.39 13.16
3/14/2021 8:30:00 PM 1.91 35.438 0.105 6.96 8.66 13.17
3/14/2021 8:45:00 PM 1.85 35.33 0.105 6.96 8.69 13.18
3/14/2021 9:00:00 PM 1.8 35.24 0.105 6.96 8.83 13.19
3/14/2021 9:15:00 PM 1.72 35.096 0.105 6.96 8.74 13.22
3/14/2021 9:30:00 PM 1.64 34.952 0.106 6.95 8.74 13.25
3/14/2021 9:45:00 PM 1.56 34.808 0.106 6.95 8.92 13.28
3/14/2021 10:00:00 PM 1.5 34.7 0.106 6.97 8.31 13.3
3/14/2021 10:15:00 PM 1.44 34.592 0.106 6.97 8.37 13.32
3/14/2021 10:30:00 PM 1.38 34.484 0.106 6.97 10.43 13.36
3/14/2021 10:45:00 PM 1.31 34.358 0.106 6.98 8.53 13.38
3/14/2021 11:00:00 PM 1.25 34.25 0.107 6.97 8.52 13.41
3/14/2021 11:15:00 PM 1.2 34.16 0.107 6.95 8.16 13.42
3/14/2021 11:30:00 PM 1.14 34.052 0.107 6.95 8.24 13.46
3/14/2021 11:45:00 PM 1.07 33.926 0.108 6.94 8.49 13.48
3/15/2021 12:00:00 AM 1 33.8 0.108 6.93 8.44 13.51
3/15/2021 12:15:00 AM 0.94 33.692 0.108 6.95 8.05 13.53
3/15/2021 12:30:00 AM 0.89 33.602 0.108 6.96 8.16 13.55
3/15/2021 12:45:00 AM 0.83 33.494 0.108 6.96 8.1 13.57
3/15/2021 1:00:00 AM 0.79 33.422 0.109 6.98 7.92 13.6
3/15/2021 1:15:00 AM 0.74 33.332 0.109 6.99 8.08 13.62
3/15/2021 1:30:00 AM 0.67 33.206 0.109 6.98 7.51 13.65
3/15/2021 1:45:00 AM 0.62 33.116 0.109 6.98 7.82 13.67
3/15/2021 2:00:00 AM 0.55 32.99 0.11 6.98 8.06 13.7
3/15/2021 2:15:00 AM 0.49 32.882 0.11 6.98 7.8 13.72
3/15/2021 2:30:00 AM 0.43 32.774 0.11 6.99 7.63 13.74
3/15/2021 2:45:00 AM 0.37 32.666 0.11 6.99 7.82 13.77
3/15/2021 3:00:00 AM 0.3 32.54 0.111 6.99 7.34 13.8
3/15/2021 3:15:00 AM 0.24 32.432 0.111 6.99 7.68 13.82
3/15/2021 3:30:00 AM 0.18 32.324 0.111 6.99 7.78 13.85
3/15/2021 3:45:00 AM 0.12 32.216 0.111 6.99 7.61 13.87
3/15/2021 4:00:00 AM 0.06 32.108 0.112 6.99 7.6 13.9
3/15/2021 4:15:00 AM 0 32 0.112 6.99 7.73 13.93
3/15/2021 4:30:00 AM -0.05 31.91 0.112 7 7.64 13.94
3/15/2021 4:45:00 AM -0.1 31.82 0.112 7 7.96 13.96
3/15/2021 5:00:00 AM -0.13 31.766 0.113 7 7.83 13.98
3/15/2021 5:15:00 AM -0.11 31.802 0.113 6.99 7.84 14
3/15/2021 5:30:00 AM -0.1 31.82 0.113 6.96 8.01 14.01
3/15/2021 5:45:00 AM -0.1 31.82 0.113 7.02 8.4 14.02
3/15/2021 6:00:00 AM -0.1 31.82 0.114 6.99 9.03 14.02
3/15/2021 6:15:00 AM -0.09 31.838 0.114 6.95 8.51 14.03
3/15/2021 6:30:00 AM -0.09 31.838 0.115 6.98 8.33 14.04
3/15/2021 6:45:00 AM -0.09 31.838 0.115 7 8.14 14.05
3/15/2021 7:00:00 AM -0.1 31.82 0.116 7.03 7.47 14.06
3/15/2021 7:15:00 AM -0.1 31.82 0.116 7.06 7.74 14.06
3/15/2021 7:30:00 AM -0.09 31.838 0.116 7.08 7.99 14.07
3/15/2021 7:45:00 AM -0.1 31.82 0.116 7.07 7.2 14.08
3/15/2021 8:00:00 AM -0.09 31.838 0.111 7.02 7.48 14.09
3/15/2021 8:15:00 AM -0.09 31.838 0.117 6.93 7.75 14.12
3/15/2021 8:30:00 AM -0.09 31.838 0.117 6.92 7.85 14.13
3/15/2021 8:45:00 AM -0.09 31.838 0.117 6.86 7.22 14.15
3/15/2021 9:00:00 AM -0.09 31.838 0.117 6.86 7.4 14.17
3/15/2021 9:15:00 AM -0.09 31.838 0.118 6.83 7.94 14.19
3/15/2021 9:30:00 AM -0.08 31.856 0.118 6.87 8.18 14.2
3/15/2021 9:45:00 AM -0.08 31.856 0.118 6.84 8.65 14.21
3/15/2021 10:00:00 AM -0.08 31.856 0.118 6.92 8.65 14.22
3/15/2021 10:15:00 AM -0.08 31.856 0.118 7.02 8.46 14.23
3/15/2021 10:30:00 AM -0.07 31.874 0.118 7.04 6.98 14.23
3/15/2021 10:45:00 AM -0.06 31.892 0.117 7 7.1 14.23
3/15/2021 11:00:00 AM -0.06 31.892 0.118 7.04 6.81 14.24
3/15/2021 11:15:00 AM -0.04 31.928 0.119 7.08 7.09 14.22
3/15/2021 11:30:00 AM -0.02 31.964 0.118 7.08 7.78 14.21
3/15/2021 11:45:00 AM 0.04 32.072 0.118 7.12 8.55 14.18
3/15/2021 12:00:00 PM 0.21 32.378 0.118 7.13 7.96 14.14
3/15/2021 12:15:00 PM 0.46 32.828 0.118 7.14 7.91 14.1
3/15/2021 12:30:00 PM 0.74 33.332 0.119 7.16 7.48 14.05
3/15/2021 12:45:00 PM 1.04 33.872 0.118 7.18 6.97 13.99
3/15/2021 1:00:00 PM 1.32 34.376 0.118 7.18 6.78 13.93
3/15/2021 1:15:00 PM 1.53 34.754 0.118 7.19 6.68 13.88
3/15/2021 1:30:00 PM 1.71 35.078 0.118 7.19 6.84 13.83
3/15/2021 1:45:00 PM 1.83 35.294 0.118 7.19 6.88 13.79
3/15/2021 2:00:00 PM 1.93 35.474 0.118 7.18 6.8 13.77
3/15/2021 2:15:00 PM 2.01 35.618 0.117 7.17 7.06 13.73
3/15/2021 2:30:00 PM 2.07 35.726 0.117 7.18 7.21 13.71
3/15/2021 2:45:00 PM 2.13 35.834 0.116 7.17 7.21 13.68
3/15/2021 3:00:00 PM 2.17 35.906 0.116 7.18 7.17 13.66
3/15/2021 3:15:00 PM 2.19 35.942 0.116 7.2 6.97 13.64
3/15/2021 3:30:00 PM 2.19 35.942 0.116 7.18 7.33 13.63
3/15/2021 3:45:00 PM 2.17 35.906 0.116 7.17 7.21 13.61
3/15/2021 4:00:00 PM 2.14 35.852 0.116 7.16 7.06 13.6
3/15/2021 4:15:00 PM 2.12 35.816 0.116 7.16 6.89 13.58
3/15/2021 4:30:00 PM 2.09 35.762 0.116 7.15 6.9 13.57
3/15/2021 4:45:00 PM 2.02 35.636 0.116 7.14 6.75 13.54
3/15/2021 5:00:00 PM 1.97 35.546 0.116 7.16 6.67 13.53
3/15/2021 5:15:00 PM 1.93 35.474 0.116 7.16 6.83 13.52
3/15/2021 5:30:00 PM 1.88 35.384 0.116 7.15 6.5 13.52
3/15/2021 5:45:00 PM 1.82 35.276 0.116 7.14 6.7 13.51
3/15/2021 6:00:00 PM 1.76 35.168 0.116 7.11 6.41 13.51
3/15/2021 6:15:00 PM 1.71 35.078 0.116 7.11 6.5 13.5
3/15/2021 6:30:00 PM 1.66 34.988 0.117 7.11 6.62 13.5
3/15/2021 6:45:00 PM 1.62 34.916 0.117 7.11 6.63 13.49
3/15/2021 7:00:00 PM 1.59 34.862 0.117 7.1 6.92 13.48
3/15/2021 7:15:00 PM 1.57 34.826 0.117 7.09 6.67 13.47
3/15/2021 7:30:00 PM 1.54 34.772 0.117 7.07 6.52 13.45
3/15/2021 7:45:00 PM 1.52 34.736 0.117 7.07 6.45 13.44
3/15/2021 8:00:00 PM 1.49 34.682 0.117 7.09 6.41 13.42
3/15/2021 8:15:00 PM 1.47 34.646 0.117 7.08 6.74 13.42
3/15/2021 8:30:00 PM 1.44 34.592 0.117 7.09 6.36 13.42
3/15/2021 8:45:00 PM 1.41 34.538 0.118 7.08 6.44 13.41
3/15/2021 9:00:00 PM 1.39 34.502 0.118 7.09 6.58 13.41
3/15/2021 9:15:00 PM 1.36 34.448 0.118 7.09 6.77 13.41
3/15/2021 9:30:00 PM 1.34 34.412 0.118 7.1 6.42 13.42
3/15/2021 9:45:00 PM 1.32 34.376 0.118 7.1 6.45 13.42
3/15/2021 10:00:00 PM 1.3 34.34 0.118 7.1 6.4 13.43
3/15/2021 10:15:00 PM 1.28 34.304 0.118 7.1 6.71 13.43
3/15/2021 10:30:00 PM 1.25 34.25 0.118 7.1 6.54 13.44
3/15/2021 10:45:00 PM 1.22 34.196 0.118 7.1 6.61 13.45
3/15/2021 11:00:00 PM 1.18 34.124 0.119 7.1 6.58 13.46
3/15/2021 11:15:00 PM 1.13 34.034 0.119 7.1 6.62 13.48
3/15/2021 11:30:00 PM 1.09 33.962 0.119 7.1 6.93 13.49
3/15/2021 11:45:00 PM 1.04 33.872 0.119 7.11 6.65 13.51
3/16/2021 12:00:00 AM 0.99 33.782 0.119 7.09 6.68 13.53
3/16/2021 12:15:00 AM 0.94 33.692 0.119 7.09 6.78 13.55
3/16/2021 12:30:00 AM 0.88 33.584 0.12 7.07 6.75 13.56
3/16/2021 12:45:00 AM 0.83 33.494 0.12 7.09 6.61 13.58
3/16/2021 1:00:00 AM 0.78 33.404 0.12 7.08 6.66 13.59
3/16/2021 1:15:00 AM 0.73 33.314 0.12 7.07 6.39 13.61
3/16/2021 1:30:00 AM 0.69 33.242 0.12 7.08 6.61 13.63
3/16/2021 1:45:00 AM 0.64 33.152 0.121 7.09 6.76 13.65
3/16/2021 2:00:00 AM 0.6 33.08 0.121 7.08 6.21 13.66
3/16/2021 2:15:00 AM 0.55 32.99 0.121 7.08 6.23 13.68
3/16/2021 2:30:00 AM 0.51 32.918 0.121 7.07 6.19 13.69
3/16/2021 2:45:00 AM 0.47 32.846 0.122 7.06 6.08 13.71
3/16/2021 3:00:00 AM 0.43 32.774 0.122 7.07 6.52 13.73
3/16/2021 3:15:00 AM 0.4 32.72 0.122 7.07 6.28 13.74
3/16/2021 3:30:00 AM 0.37 32.666 0.122 7.07 7.11 13.75
3/16/2021 3:45:00 AM 0.35 32.63 0.123 7.07 6.16 13.77
3/16/2021 4:00:00 AM 0.32 32.576 0.123 7.07 6.04 13.78
3/16/2021 4:15:00 AM 0.3 32.54 0.123 7.08 6.01 13.79
3/16/2021 4:30:00 AM 0.28 32.504 0.123 7.08 6.31 13.8
3/16/2021 4:45:00 AM 0.26 32.468 0.123 7.08 6.14 13.81
3/16/2021 5:00:00 AM 0.25 32.45 0.124 7.08 6.16 13.81
3/16/2021 5:15:00 AM 0.22 32.396 0.124 7.08 6.12 13.82
3/16/2021 5:30:00 AM 0.21 32.378 0.124 7.09 6.05 13.82
3/16/2021 5:45:00 AM 0.18 32.324 0.125 7.09 6.14 13.83
3/16/2021 6:00:00 AM 0.16 32.288 0.125 7.09 6.02 13.83
3/16/2021 6:15:00 AM 0.15 32.27 0.125 7.09 6.17 13.83
3/16/2021 6:30:00 AM 0.14 32.252 0.125 7.09 5.83 13.84
3/16/2021 6:45:00 AM 0.12 32.216 0.125 7.09 6.13 13.84
3/16/2021 7:00:00 AM 0.11 32.198 0.126 7.09 6.07 13.85
3/16/2021 7:15:00 AM 0.1 32.18 0.126 7.09 5.8 13.86
3/16/2021 7:30:00 AM 0.09 32.162 0.126 7.1 5.98 13.86
3/16/2021 7:45:00 AM 0.09 32.162 0.126 7.1 5.67 13.87
3/16/2021 8:00:00 AM 0.09 32.162 0.126 7.11 5.66 13.88
3/16/2021 8:15:00 AM 0.09 32.162 0.126 7.12 5.45 13.9
3/16/2021 8:30:00 AM 0.09 32.162 0.126 7.12 5.41 13.91
3/16/2021 8:45:00 AM 0.09 32.162 0.126 7.12 5.38 13.93
3/16/2021 9:00:00 AM 0.11 32.198 0.126 7.13 5.34 13.95
3/16/2021 9:15:00 AM 0.13 32.234 0.127 7.14 5.28 13.97
3/16/2021 9:30:00 AM 0.15 32.27 0.127 7.14 5.33 13.99
3/16/2021 9:45:00 AM 0.19 32.342 0.127 7.15 5.25 14.01
3/16/2021 10:00:00 AM 0.22 32.396 0.127 7.16 5.15 14.03
3/16/2021 10:15:00 AM 0.26 32.468 0.127 7.17 5.02 14.03
3/16/2021 10:30:00 AM 0.31 32.558 0.127 7.17 4.84 14.04
3/16/2021 10:45:00 AM 0.36 32.648 0.127 7.19 4.85 14.04
3/16/2021 11:00:00 AM 0.41 32.738 0.127 7.19 4.91 14.04
3/16/2021 11:15:00 AM 0.46 32.828 0.128 7.2 5.02 14.03
3/16/2021 11:30:00 AM 0.51 32.918 0.128 7.21 4.89 14.02
3/16/2021 11:45:00 AM 0.56 33.008 0.128 7.22 4.84 14.01
3/16/2021 12:00:00 PM 0.61 33.098 0.128 7.22 4.83 14.01
3/16/2021 12:15:00 PM 0.67 33.206 0.128 7.23 4.81 14
3/16/2021 12:30:00 PM 0.74 33.332 0.128 7.24 4.69 13.99
3/16/2021 12:45:00 PM 0.84 33.512 0.128 7.23 4.71 13.97
3/16/2021 1:00:00 PM 0.94 33.692 0.128 7.24 4.87 13.95
3/16/2021 1:15:00 PM 1.02 33.836 0.128 7.26 4.81 13.94
3/16/2021 1:30:00 PM 1.11 33.998 0.128 7.27 4.8 13.91
3/16/2021 1:45:00 PM 1.3 34.34 0.127 7.28 4.93 13.88
3/16/2021 2:00:00 PM 1.36 34.448 0.127 7.28 4.82 13.86
3/16/2021 2:15:00 PM 1.47 34.646 0.127 7.28 4.82 13.82
3/16/2021 2:30:00 PM 1.56 34.808 0.127 7.28 5.01 13.78
3/16/2021 2:45:00 PM 1.6 34.88 0.127 7.28 4.83 13.75
3/16/2021 3:00:00 PM 1.62 34.916 0.127 7.28 4.99 13.72
3/16/2021 3:15:00 PM 1.64 34.952 0.127 7.28 4.91 13.71
3/16/2021 3:30:00 PM 1.65 34.97 0.127 7.28 4.92 13.69
3/16/2021 3:45:00 PM 1.66 34.988 0.127 7.27 4.84 13.66
3/16/2021 4:00:00 PM 1.68 35.024 0.127 7.26 5.08 13.64
3/16/2021 4:15:00 PM 1.68 35.024 0.127 7.25 5.05 13.61
3/16/2021 4:30:00 PM 1.69 35.042 0.128 7.25 4.96 13.59
3/16/2021 4:45:00 PM 1.7 35.06 0.128 7.26 4.88 13.57
3/16/2021 5:00:00 PM 1.69 35.042 0.128 7.25 4.86 13.55
3/16/2021 5:15:00 PM 1.7 35.06 0.128 7.26 5.26 13.52
3/16/2021 5:30:00 PM 1.7 35.06 0.128 7.24 5.12 13.49
3/16/2021 5:45:00 PM 1.7 35.06 0.129 7.24 5.45 13.45
3/16/2021 6:00:00 PM 1.69 35.042 0.129 7.23 4.97 13.42
3/16/2021 6:15:00 PM 1.67 35.006 0.129 7.22 5.11 13.39
3/16/2021 6:30:00 PM 1.58 34.844 0.129 7.21 5.13 13.37
3/16/2021 6:45:00 PM 1.53 34.754 0.129 7.21 4.92 13.36
3/16/2021 7:00:00 PM 1.5 34.7 0.129 7.19 4.94 13.35
3/16/2021 7:15:00 PM 1.46 34.628 0.129 7.18 4.98 13.35
3/16/2021 7:30:00 PM 1.47 34.646 0.129 7.17 4.78 13.33
3/16/2021 7:45:00 PM 1.49 34.682 0.129 7.17 5.21 13.32
3/16/2021 8:00:00 PM 1.51 34.718 0.129 7.17 5.13 13.31
3/16/2021 8:15:00 PM 1.53 34.754 0.129 7.17 5.02 13.3
3/16/2021 8:30:00 PM 1.54 34.772 0.129 7.18 5.05 13.29
3/16/2021 8:45:00 PM 1.54 34.772 0.129 7.16 5.11 13.29
3/16/2021 9:00:00 PM 1.54 34.772 0.129 7.15 5.1 13.29
3/16/2021 9:15:00 PM 1.54 34.772 0.129 7.14 4.75 13.28
3/16/2021 9:30:00 PM 1.54 34.772 0.129 7.14 5.08 13.28
3/16/2021 9:45:00 PM 1.54 34.772 0.129 7.15 5.28 13.28
3/16/2021 10:00:00 PM 1.53 34.754 0.129 7.15 5.2 13.28
3/16/2021 10:15:00 PM 1.52 34.736 0.129 7.13 5.23 13.28
3/16/2021 10:30:00 PM 1.51 34.718 0.129 7.14 5.16 13.29
3/16/2021 10:45:00 PM 1.5 34.7 0.129 7.14 5.04 13.29
3/16/2021 11:00:00 PM 1.49 34.682 0.129 7.14 5.24 13.29
3/16/2021 11:15:00 PM 1.49 34.682 0.129 7.14 5.23 13.29
3/16/2021 11:30:00 PM 1.48 34.664 0.129 7.13 5.08 13.29
3/16/2021 11:45:00 PM 1.48 34.664 0.13 7.14 5.26 13.3
3/17/2021 12:00:00 AM 1.48 34.664 0.13 7.14 5.21 13.29
3/17/2021 12:15:00 AM 1.47 34.646 0.13 7.15 5.27 13.3
3/17/2021 12:30:00 AM 1.47 34.646 0.13 7.15 5.02 13.3
3/17/2021 12:45:00 AM 1.46 34.628 0.13 7.14 5.11 13.3
3/17/2021 1:00:00 AM 1.46 34.628 0.13 7.16 4.89 13.3
3/17/2021 1:15:00 AM 1.45 34.61 0.13 7.15 5.25 13.31
3/17/2021 1:30:00 AM 1.45 34.61 0.13 7.15 5.17 13.3
3/17/2021 1:45:00 AM 1.44 34.592 0.131 7.15 5.17 13.3
3/17/2021 2:00:00 AM 1.44 34.592 0.131 7.16 5.32 13.3
3/17/2021 2:15:00 AM 1.44 34.592 0.131 7.16 5.17 13.3
3/17/2021 2:30:00 AM 1.43 34.574 0.131 7.16 4.92 13.3
3/17/2021 2:45:00 AM 1.43 34.574 0.131 7.16 5.01 13.3
3/17/2021 3:00:00 AM 1.43 34.574 0.131 7.16 4.77 13.31
3/17/2021 3:15:00 AM 1.42 34.556 0.131 7.16 4.88 13.3
3/17/2021 3:30:00 AM 1.42 34.556 0.132 7.16 4.91 13.3
3/17/2021 3:45:00 AM 1.42 34.556 0.132 7.16 5.03 13.31
3/17/2021 4:00:00 AM 1.42 34.556 0.132 7.16 4.65 13.31
3/17/2021 4:15:00 AM 1.42 34.556 0.132 7.16 5 13.31
3/17/2021 4:30:00 AM 1.42 34.556 0.132 7.17 4.99 13.31
3/17/2021 4:45:00 AM 1.42 34.556 0.132 7.17 5.03 13.31
3/17/2021 5:00:00 AM 1.42 34.556 0.132 7.18 4.94 13.31
3/17/2021 5:15:00 AM 1.42 34.556 0.133 7.18 4.87 13.31
3/17/2021 5:30:00 AM 1.42 34.556 0.133 7.17 5.23 13.31
3/17/2021 5:45:00 AM 1.42 34.556 0.133 7.17 4.86 13.31
3/17/2021 6:00:00 AM 1.42 34.556 0.133 7.17 4.89 13.31
3/17/2021 6:15:00 AM 1.42 34.556 0.133 7.17 4.94 13.31
3/17/2021 6:30:00 AM 1.43 34.574 0.133 7.17 4.91 13.3
3/17/2021 6:45:00 AM 1.43 34.574 0.133 7.17 4.91 13.31
3/17/2021 7:00:00 AM 1.43 34.574 0.133 7.17 5.26 13.31
3/17/2021 7:15:00 AM 1.44 34.592 0.133 7.18 5.27 13.31
3/17/2021 7:30:00 AM 1.44 34.592 0.134 7.19 5.07 13.31
3/17/2021 7:45:00 AM 1.45 34.61 0.134 7.18 5.09 13.32
3/17/2021 8:00:00 AM 1.45 34.61 0.134 7.19 4.89 13.32
3/17/2021 8:15:00 AM 1.47 34.646 0.134 7.19 4.74 13.34
3/17/2021 8:30:00 AM 1.48 34.664 0.134 7.2 4.9 13.36
3/17/2021 8:45:00 AM 1.5 34.7 0.134 7.21 4.64 13.39
3/17/2021 9:00:00 AM 1.52 34.736 0.134 7.22 4.61 13.42
3/17/2021 9:15:00 AM 1.55 34.79 0.134 7.23 4.61 13.45
3/17/2021 9:30:00 AM 1.59 34.862 0.134 7.24 4.68 13.47
3/17/2021 9:45:00 AM 1.63 34.934 0.134 7.25 4.6 13.5
3/17/2021 10:00:00 AM 1.68 35.024 0.134 7.26 4.55 13.52
3/17/2021 10:15:00 AM 1.74 35.132 0.134 7.27 4.59 13.54
3/17/2021 10:30:00 AM 1.81 35.258 0.134 7.29 4.38 13.56
3/17/2021 10:45:00 AM 1.88 35.384 0.135 7.3 4.5 13.56
3/17/2021 11:00:00 AM -99999.99 -179968 -99999.99 -99999.99 -99999.99 -99999.99
3/17/2021 11:15:00 AM 2.04 35.672 0.135 7.32 4.42 13.55
3/17/2021 11:30:00 AM 2.15 35.87 0.135 7.33 4.46 13.54
3/17/2021 11:45:00 AM 2.29 36.122 0.135 7.33 4.36 13.53
3/17/2021 12:00:00 PM 2.47 36.446 0.135 7.35 4.19 13.5
3/17/2021 12:15:00 PM 2.66 36.788 0.135 7.37 4.23 13.46
3/17/2021 12:30:00 PM 2.9 37.22 0.135 7.39 4.24 13.41
3/17/2021 12:45:00 PM 3.07 37.526 0.135 7.41 4.28 13.37
3/17/2021 1:00:00 PM 3.25 37.85 0.135 7.41 4.3 13.31
3/17/2021 1:15:00 PM 3.42 38.156 0.135 7.41 4.33 13.27
3/17/2021 1:30:00 PM 3.59 38.462 0.135 7.42 4.19 13.21
3/17/2021 1:45:00 PM 3.8 38.84 0.135 7.43 4.14 13.17
3/17/2021 2:00:00 PM 3.93 39.074 0.135 7.43 4.27 13.12
3/17/2021 2:15:00 PM 4.14 39.452 0.135 7.43 4.33 13.06
3/17/2021 2:30:00 PM 4.32 39.776 0.135 7.44 4.54 13
3/17/2021 2:45:00 PM 4.47 40.046 0.135 7.44 4.31 12.95
3/17/2021 3:00:00 PM 4.53 40.154 0.135 7.43 4.22 12.9
3/17/2021 3:15:00 PM 4.67 40.406 0.135 7.43 4.42 12.85
3/17/2021 3:30:00 PM 4.75 40.55 0.135 7.43 4.61 12.82
3/17/2021 3:45:00 PM 4.83 40.694 0.135 7.43 4.32 12.77
3/17/2021 4:00:00 PM 4.89 40.802 0.135 7.43 4.53 12.74
3/17/2021 4:15:00 PM 4.93 40.874 0.135 7.43 4.52 12.71
3/17/2021 4:30:00 PM 4.94 40.892 0.135 7.43 4.49 12.68
3/17/2021 4:45:00 PM 4.93 40.874 0.135 7.41 4.49 12.64
3/17/2021 5:00:00 PM 4.89 40.802 0.135 7.41 4.56 12.61
3/17/2021 5:15:00 PM 4.85 40.73 0.135 7.4 4.71 12.59
3/17/2021 5:30:00 PM 4.81 40.658 0.135 7.38 4.59 12.56
3/17/2021 5:45:00 PM 4.77 40.586 0.135 7.37 4.9 12.53
3/17/2021 6:00:00 PM 4.72 40.496 0.135 7.35 4.76 12.5
3/17/2021 6:15:00 PM 4.67 40.406 0.135 7.33 4.97 12.48
3/17/2021 6:30:00 PM 4.63 40.334 0.135 7.32 5.05 12.44
3/17/2021 6:45:00 PM 4.58 40.244 0.135 7.3 5.21 12.41
3/17/2021 7:00:00 PM 4.54 40.172 0.135 7.27 5.02 12.39
3/17/2021 7:15:00 PM 4.5 40.1 0.135 7.25 5.17 12.36
3/17/2021 7:30:00 PM 4.46 40.028 0.135 7.23 5.37 12.33
3/17/2021 7:45:00 PM 4.41 39.938 0.135 7.22 5.58 12.31
3/17/2021 8:00:00 PM 4.38 39.884 0.135 7.21 5.61 12.29
3/17/2021 8:15:00 PM 4.34 39.812 0.135 7.2 5.42 12.28
3/17/2021 8:30:00 PM 4.3 39.74 0.135 7.18 5.82 12.27
3/17/2021 8:45:00 PM 4.27 39.686 0.135 7.18 6.18 12.26
3/17/2021 9:00:00 PM 4.24 39.632 0.135 7.18 5.79 12.26
3/17/2021 9:15:00 PM 4.22 39.596 0.135 7.18 5.93 12.26
3/17/2021 9:30:00 PM 4.19 39.542 0.135 7.18 5.94 12.26
3/17/2021 9:45:00 PM 4.17 39.506 0.136 7.18 6.08 12.25
3/17/2021 10:00:00 PM 4.15 39.47 0.136 7.18 6.21 12.25
3/17/2021 10:15:00 PM 4.13 39.434 0.136 7.18 6.21 12.26
3/17/2021 10:30:00 PM 4.11 39.398 0.136 7.18 6.11 12.26
3/17/2021 10:45:00 PM 4.08 39.344 0.135 7.18 6.23 12.26
3/17/2021 11:00:00 PM 4.05 39.29 0.135 7.18 5.68 12.27
3/17/2021 11:15:00 PM 4.02 39.236 0.135 7.18 5.67 12.28
3/17/2021 11:30:00 PM 3.99 39.182 0.135 7.18 5.61 12.29
3/17/2021 11:45:00 PM 3.95 39.11 0.135 7.18 5.81 12.31
3/18/2021 12:00:00 AM 3.91 39.038 0.135 7.18 5.6 12.32
3/18/2021 12:15:00 AM 3.86 38.948 0.135 7.18 5.43 12.33
3/18/2021 12:30:00 AM 3.8 38.84 0.135 7.17 5.56 12.35
3/18/2021 12:45:00 AM 3.75 38.75 0.135 7.17 5.56 12.37
3/18/2021 1:00:00 AM 3.71 38.678 0.135 7.17 5.61 12.39
3/18/2021 1:15:00 AM 3.66 38.588 0.135 7.17 5.68 12.4
3/18/2021 1:30:00 AM 3.62 38.516 0.135 7.16 5.69 12.42
3/18/2021 1:45:00 AM 3.58 38.444 0.135 7.16 5.92 12.43
3/18/2021 2:00:00 AM 3.54 38.372 0.135 7.16 5.86 12.44
3/18/2021 2:15:00 AM 3.51 38.318 0.134 7.16 5.89 12.47
3/18/2021 2:30:00 AM 3.47 38.246 0.134 7.17 6.28 12.48
3/18/2021 2:45:00 AM 3.44 38.192 0.134 7.16 5.58 12.5
3/18/2021 3:00:00 AM 3.41 38.138 0.134 7.16 5.53 12.51
3/18/2021 3:15:00 AM 3.38 38.084 0.134 7.16 5.71 12.52
3/18/2021 3:30:00 AM 3.35 38.03 0.134 7.16 5.74 12.53
3/18/2021 3:45:00 AM 3.31 37.958 0.134 7.16 5.74 12.54
3/18/2021 4:00:00 AM 3.28 37.904 0.134 7.16 5.79 12.55
3/18/2021 4:15:00 AM 3.25 37.85 0.134 7.16 5.96 12.57
3/18/2021 4:30:00 AM 3.22 37.796 0.134 7.16 5.8 12.57
3/18/2021 4:45:00 AM 3.19 37.742 0.134 7.16 6 12.59
3/18/2021 5:00:00 AM 3.17 37.706 0.134 7.16 5.97 12.6
3/18/2021 5:15:00 AM 3.14 37.652 0.134 7.16 5.76 12.6
3/18/2021 5:30:00 AM 3.11 37.598 0.134 7.16 5.99 12.61
3/18/2021 5:45:00 AM 3.08 37.544 0.134 7.16 6.35 12.62
3/18/2021 6:00:00 AM 3.06 37.508 0.134 7.15 5.82 12.63
3/18/2021 6:15:00 AM 3.03 37.454 0.134 7.15 5.88 12.64
3/18/2021 6:30:00 AM 3.01 37.418 0.134 7.15 6.01 12.65
3/18/2021 6:45:00 AM 2.99 37.382 0.135 7.15 5.58 12.66
3/18/2021 7:00:00 AM 2.97 37.346 0.135 7.16 5.8 12.66
3/18/2021 7:15:00 AM 2.95 37.31 0.135 7.16 5.7 12.67
3/18/2021 7:30:00 AM 2.93 37.274 0.135 7.16 5.92 12.68
3/18/2021 7:45:00 AM 2.92 37.256 0.135 7.16 6.02 12.69
3/18/2021 8:00:00 AM 2.91 37.238 0.135 7.17 5.94 12.7
3/18/2021 8:15:00 AM 2.89 37.202 0.135 7.17 5.63 12.7
3/18/2021 8:30:00 AM 2.88 37.184 0.135 7.17 5.45 12.72
3/18/2021 8:45:00 AM 2.87 37.166 0.135 7.18 5.25 12.72
3/18/2021 9:00:00 AM 2.86 37.148 0.135 7.18 5.13 12.73
3/18/2021 9:15:00 AM 2.85 37.13 0.135 7.18 5.16 12.75
3/18/2021 9:30:00 AM 2.85 37.13 0.135 7.18 5.04 12.77
3/18/2021 9:45:00 AM 2.84 37.112 0.135 7.18 5.31 12.79
3/18/2021 10:00:00 AM 2.84 37.112 0.135 7.18 5.57 12.8
3/18/2021 10:15:00 AM 2.85 37.13 0.134 7.18 5.56 12.83
3/18/2021 10:30:00 AM 2.85 37.13 0.134 7.18 5.71 12.85
3/18/2021 10:45:00 AM 2.86 37.148 0.134 7.18 5.92 12.87
3/18/2021 11:00:00 AM 2.86 37.148 0.134 7.17 6.28 12.87
3/18/2021 11:15:00 AM 2.86 37.148 0.135 7.17 6.54 12.89
3/18/2021 11:30:00 AM 2.87 37.166 0.137 7.17 7.29 12.91
3/18/2021 11:45:00 AM 2.88 37.184 0.138 7.16 8.87 12.92
3/18/2021 12:00:00 PM 2.88 37.184 0.139 7.15 10.81 12.93
3/18/2021 12:15:00 PM 2.88 37.184 0.139 7.13 11.48 12.94
3/18/2021 12:30:00 PM 2.88 37.184 0.139 7.12 11.45 12.95
3/18/2021 12:45:00 PM 2.89 37.202 0.139 7.1 12.09 12.96
3/18/2021 1:00:00 PM 2.89 37.202 0.138 7.12 12.22 12.97
3/18/2021 1:15:00 PM 2.89 37.202 0.138 7.14 13.49 12.96
3/18/2021 1:30:00 PM 2.89 37.202 0.138 7.14 15.47 12.96
3/18/2021 1:45:00 PM 2.88 37.184 0.138 7.16 18.03 12.95
3/18/2021 2:00:00 PM 2.87 37.166 0.137 7.17 20.15 12.95
3/18/2021 2:15:00 PM 2.86 37.148 0.137 7.17 24.31 12.94
3/18/2021 2:30:00 PM 2.85 37.13 0.137 7.14 27.32 12.92
3/18/2021 2:45:00 PM 2.85 37.13 0.137 7.02 26.86 12.9
3/18/2021 3:00:00 PM 2.86 37.148 0.136 6.96 31.97 12.91
3/18/2021 3:15:00 PM 2.86 37.148 0.134 6.92 35.41 12.91
3/18/2021 3:30:00 PM 2.87 37.166 0.132 6.95 27.73 12.91
3/18/2021 3:45:00 PM 2.88 37.184 0.131 6.94 34.51 12.9
3/18/2021 4:00:00 PM 2.89 37.202 0.129 6.95 37.6 12.89
3/18/2021 4:15:00 PM 2.9 37.22 0.128 6.98 33.12 12.87
3/18/2021 4:30:00 PM 2.91 37.238 0.127 7.01 39.19 12.86
3/18/2021 4:45:00 PM 2.92 37.256 0.124 7.01 35.57 12.85
3/18/2021 5:00:00 PM 2.92 37.256 0.121 7 46.1 12.84
3/18/2021 5:15:00 PM 2.9 37.22 0.118 7.02 40.62 12.83
3/18/2021 5:30:00 PM 2.88 37.184 0.116 7.01 40.93 12.83
3/18/2021 5:45:00 PM 2.86 37.148 0.115 7.01 43.74 12.83
3/18/2021 6:00:00 PM 2.83 37.094 0.114 6.97 60.52 12.83
3/18/2021 6:15:00 PM 2.81 37.058 0.113 6.98 34.48 12.84
3/18/2021 6:30:00 PM 2.78 37.004 0.114 6.95 40.21 12.84
3/18/2021 6:45:00 PM 2.75 36.95 0.114 6.89 33.9 12.85
3/18/2021 7:00:00 PM 2.71 36.878 0.115 6.78 38.33 12.85
3/18/2021 7:15:00 PM 2.68 36.824 0.116 6.8 40.95 12.86
3/18/2021 7:30:00 PM 2.65 36.77 0.117 6.8 66.02 12.86
3/18/2021 7:45:00 PM -99999.99 -179968 -99999.99 -99999.99 -99999.99 -99999.99
3/18/2021 8:00:00 PM 2.59 36.662 0.117 6.82 34.89 12.88
3/18/2021 8:15:00 PM 2.55 36.59 0.117 6.85 48.83 12.89
3/18/2021 8:30:00 PM 2.52 36.536 0.117 6.82 31.73 12.9
3/18/2021 8:45:00 PM 2.48 36.464 0.116 6.81 26 12.91
3/18/2021 9:00:00 PM 2.44 36.392 0.115 6.84 34.51 12.92
3/18/2021 9:15:00 PM 2.4 36.32 0.115 6.88 30.52 12.93
3/18/2021 9:30:00 PM 2.37 36.266 0.114 6.88 32.98 12.93
3/18/2021 9:45:00 PM 2.34 36.212 0.114 6.84 30.37 12.94
3/18/2021 10:00:00 PM 2.31 36.158 0.113 6.85 32.51 12.95
3/18/2021 10:15:00 PM 2.28 36.104 0.113 6.84 24.82 12.96
3/18/2021 10:30:00 PM 2.25 36.05 0.112 6.83 27.66 12.97
3/18/2021 10:45:00 PM 2.22 35.996 0.112 6.85 23.76 12.98
3/18/2021 11:00:00 PM 2.19 35.942 0.112 6.85 21.85 12.99
3/18/2021 11:15:00 PM 2.16 35.888 0.112 6.84 24.74 12.99
3/18/2021 11:30:00 PM 2.13 35.834 0.111 6.83 29.07 13
3/18/2021 11:45:00 PM 2.1 35.78 0.111 6.81 22.92 13.02
3/19/2021 12:00:00 AM 2.06 35.708 0.111 6.81 21.87 13.03
3/19/2021 12:15:00 AM 2.03 35.654 0.111 6.8 20.73 13.03
3/19/2021 12:30:00 AM 1.99 35.582 0.111 6.78 21.16 13.05
3/19/2021 12:45:00 AM 1.95 35.51 0.111 6.81 20.11 13.06
3/19/2021 1:00:00 AM 1.91 35.438 0.111 6.84 20.15 13.07
3/19/2021 1:15:00 AM 1.87 35.366 0.111 6.84 18.29 13.09
3/19/2021 1:30:00 AM 1.83 35.294 0.112 6.84 18.06 13.1
3/19/2021 1:45:00 AM 1.79 35.222 0.112 6.83 17.79 13.12
3/19/2021 2:00:00 AM 1.74 35.132 0.112 6.82 16.9 13.13
3/19/2021 2:15:00 AM 1.7 35.06 0.112 6.81 16.55 13.15
3/19/2021 2:30:00 AM 1.66 34.988 0.112 6.81 17.17 13.16
3/19/2021 2:45:00 AM 1.61 34.898 0.112 6.8 15.43 13.19
3/19/2021 3:00:00 AM 1.56 34.808 0.113 6.82 15.04 13.2
3/19/2021 3:15:00 AM 1.52 34.736 0.113 6.84 15.17 13.22
3/19/2021 3:30:00 AM 1.46 34.628 0.113 6.85 15.12 13.24
3/19/2021 3:45:00 AM 1.41 34.538 0.113 6.87 14.25 13.26
3/19/2021 4:00:00 AM 1.36 34.448 0.113 6.87 13.33 13.28
3/19/2021 4:15:00 AM 1.31 34.358 0.113 6.85 12.73 13.3
3/19/2021 4:30:00 AM 1.25 34.25 0.114 6.86 12.95 13.32
3/19/2021 4:45:00 AM 1.2 34.16 0.114 6.87 12.83 13.35
3/19/2021 5:00:00 AM 1.14 34.052 0.114 6.87 12.2 13.36
3/19/2021 5:15:00 AM 1.08 33.944 0.114 6.89 11.91 13.39
3/19/2021 5:30:00 AM 1.03 33.854 0.115 6.91 11.87 13.42
3/19/2021 5:45:00 AM 0.98 33.764 0.115 6.93 10.91 13.44
3/19/2021 6:00:00 AM 0.93 33.674 0.115 6.93 10.86 13.46
3/19/2021 6:15:00 AM 0.88 33.584 0.115 6.95 11.14 13.48
3/19/2021 6:30:00 AM 0.82 33.476 0.115 6.93 11.16 13.51
3/19/2021 6:45:00 AM 0.76 33.368 0.116 6.97 10.34 13.54
3/19/2021 7:00:00 AM 0.71 33.278 0.116 6.97 10.59 13.57
3/19/2021 7:15:00 AM 0.65 33.17 0.116 6.97 10.64 13.6
3/19/2021 7:30:00 AM 0.6 33.08 0.116 6.92 10.17 13.63
3/19/2021 7:45:00 AM 0.55 32.99 0.116 6.92 9.89 13.66
3/19/2021 8:00:00 AM 0.5 32.9 0.117 6.92 9.66 13.7
3/19/2021 8:15:00 AM 0.46 32.828 0.117 6.94 9.29 13.74
3/19/2021 8:30:00 AM 0.41 32.738 0.117 6.94 9.46 13.78
3/19/2021 8:45:00 AM 0.37 32.666 0.118 6.96 8.93 13.83
3/19/2021 9:00:00 AM 0.34 32.612 0.118 6.97 8.93 13.87
3/19/2021 9:15:00 AM 0.33 32.594 0.118 6.99 8.53 13.91
3/19/2021 9:30:00 AM 0.34 32.612 0.118 7.01 8.81 13.95
3/19/2021 9:45:00 AM 0.37 32.666 0.118 7.03 8.34 13.97
3/19/2021 10:00:00 AM 0.42 32.756 0.118 7.05 8.26 14
3/19/2021 10:15:00 AM 0.48 32.864 0.118 7.09 8.37 14.01
3/19/2021 10:30:00 AM 0.56 33.008 0.118 7.12 8.43 14.02
3/19/2021 10:45:00 AM 0.67 33.206 0.118 7.14 8.09 14.02
3/19/2021 11:00:00 AM 0.81 33.458 0.118 7.16 7.9 14
3/19/2021 11:15:00 AM 0.96 33.728 0.119 7.18 7.71 13.98
3/19/2021 11:30:00 AM 1.12 34.016 0.119 7.19 7.83 13.96
3/19/2021 11:45:00 AM 1.3 34.34 0.119 7.2 7.6 13.93
3/19/2021 12:00:00 PM 1.48 34.664 0.119 7.21 7.65 13.89
3/19/2021 12:15:00 PM 1.67 35.006 0.119 7.22 7.54 13.85
3/19/2021 12:30:00 PM 1.86 35.348 0.118 7.22 7.63 13.8
3/19/2021 12:45:00 PM 2.05 35.69 0.118 7.22 7.22 13.76
3/19/2021 1:00:00 PM 2.24 36.032 0.118 7.23 7.26 13.72
3/19/2021 1:15:00 PM 2.42 36.356 0.118 7.22 7.21 13.67
3/19/2021 1:30:00 PM 2.57 36.626 0.118 7.23 7.1 13.62
3/19/2021 1:45:00 PM 2.72 36.896 0.118 7.22 6.96 13.58
3/19/2021 2:00:00 PM 2.84 37.112 0.118 7.24 6.87 13.55
3/19/2021 2:15:00 PM 2.95 37.31 0.118 7.25 7.15 13.51
3/19/2021 2:30:00 PM 3.05 37.49 0.118 7.26 7.07 13.47
3/19/2021 2:45:00 PM 3.15 37.67 0.118 7.26 6.77 13.43
3/19/2021 3:00:00 PM 3.22 37.796 0.118 7.27 6.99 13.4
3/19/2021 3:15:00 PM 3.28 37.904 0.118 7.26 6.65 13.36
3/19/2021 3:30:00 PM 3.32 37.976 0.118 7.26 6.85 13.34
3/19/2021 3:45:00 PM 3.34 38.012 0.118 7.26 6.72 13.3
3/19/2021 4:00:00 PM 3.35 38.03 0.118 7.26 6.64 13.26
3/19/2021 4:15:00 PM 3.34 38.012 0.118 7.26 6.52 13.25
3/19/2021 4:30:00 PM 3.33 37.994 0.118 7.25 6.72 13.21
3/19/2021 4:45:00 PM 3.3 37.94 0.118 7.26 6.75 13.19
3/19/2021 5:00:00 PM 3.28 37.904 0.118 7.25 6.52 13.16
3/19/2021 5:15:00 PM 3.25 37.85 0.118 7.25 6.56 13.14
3/19/2021 5:30:00 PM 3.22 37.796 0.118 7.25 6.88 13.12
3/19/2021 5:45:00 PM 3.18 37.724 0.118 7.24 6.3 13.1
3/19/2021 6:00:00 PM 3.14 37.652 0.118 7.24 6.55 13.08
3/19/2021 6:15:00 PM 3.09 37.562 0.118 7.22 6.31 13.07
3/19/2021 6:30:00 PM 3.05 37.49 0.118 7.21 6.33 13.05
3/19/2021 6:45:00 PM 3.02 37.436 0.118 7.19 6.19 13.04
3/19/2021 7:00:00 PM 2.99 37.382 0.117 7.18 6.32 13.02
3/19/2021 7:15:00 PM 2.97 37.346 0.117 7.17 6.28 13
3/19/2021 7:30:00 PM 2.94 37.292 0.117 7.16 6.24 12.98
3/19/2021 7:45:00 PM 2.92 37.256 0.117 7.16 6.25 12.96
3/19/2021 8:00:00 PM 2.9 37.22 0.117 7.15 6.32 12.94
3/19/2021 8:15:00 PM 2.88 37.184 0.117 7.15 6.36 12.94
3/19/2021 8:30:00 PM 2.85 37.13 0.117 7.15 6.54 12.93
3/19/2021 8:45:00 PM 2.82 37.076 0.117 7.14 6.45 12.93
3/19/2021 9:00:00 PM 2.79 37.022 0.117 7.14 6.62 12.93
3/19/2021 9:15:00 PM 2.76 36.968 0.117 7.14 6.72 12.93
3/19/2021 9:30:00 PM 2.72 36.896 0.117 7.14 6.5 12.94
3/19/2021 9:45:00 PM 2.68 36.824 0.117 7.13 6.57 12.96
3/19/2021 10:00:00 PM 2.64 36.752 0.117 7.13 6.31 12.97
3/19/2021 10:15:00 PM 2.6 36.68 0.117 7.12 6.59 12.99
3/19/2021 10:30:00 PM 2.54 36.572 0.117 7.12 6.82 13
3/19/2021 10:45:00 PM 2.49 36.482 0.117 7.12 6.44 13.02
3/19/2021 11:00:00 PM 2.43 36.374 0.117 7.12 6.62 13.05
3/19/2021 11:15:00 PM 2.36 36.248 0.117 7.12 6.45 13.06
3/19/2021 11:30:00 PM 2.29 36.122 0.117 7.12 6.09 13.1
3/19/2021 11:45:00 PM 2.22 35.996 0.117 7.11 6.35 13.12
3/20/2021 12:00:00 AM 2.15 35.87 0.117 7.11 6.45 13.15
3/20/2021 12:15:00 AM 2.07 35.726 0.117 7.11 6.31 13.18
3/20/2021 12:30:00 AM 2 35.6 0.117 7.1 6.95 13.21
3/20/2021 12:45:00 AM 1.92 35.456 0.117 7.1 6.37 13.23
3/20/2021 1:00:00 AM 1.85 35.33 0.117 7.1 6.66 13.27
3/20/2021 1:15:00 AM 1.77 35.186 0.117 7.1 6.75 13.3
3/20/2021 1:30:00 AM 1.7 35.06 0.117 7.1 6.73 13.33
3/20/2021 1:45:00 AM 1.63 34.934 0.117 7.1 6.65 13.36
3/20/2021 2:00:00 AM 1.56 34.808 0.118 7.1 6.67 13.38
3/20/2021 2:15:00 AM 1.49 34.682 0.118 7.1 6.79 13.41
3/20/2021 2:30:00 AM 1.42 34.556 0.118 7.1 6.7 13.43
3/20/2021 2:45:00 AM 1.35 34.43 0.118 7.09 6.59 13.47
3/20/2021 3:00:00 AM 1.28 34.304 0.118 7.09 6.95 13.5
3/20/2021 3:15:00 AM 1.21 34.178 0.118 7.09 6.52 13.52
3/20/2021 3:30:00 AM 1.15 34.07 0.118 7.09 6.64 13.55
3/20/2021 3:45:00 AM 1.08 33.944 0.118 7.08 6.24 13.58
3/20/2021 4:00:00 AM 1.02 33.836 0.118 7.08 6.64 13.6
3/20/2021 4:15:00 AM 0.95 33.71 0.118 7.08 6.53 13.63
3/20/2021 4:30:00 AM 0.9 33.62 0.118 7.08 6.19 13.65
3/20/2021 4:45:00 AM 0.84 33.512 0.118 7.08 6.46 13.67
3/20/2021 5:00:00 AM 0.78 33.404 0.118 7.08 6.34 13.7
3/20/2021 5:15:00 AM 0.73 33.314 0.118 7.07 6.34 13.73
3/20/2021 5:30:00 AM 0.68 33.224 0.118 7.07 6.42 13.74
3/20/2021 5:45:00 AM 0.63 33.134 0.118 7.07 6.56 13.76
3/20/2021 6:00:00 AM 0.58 33.044 0.118 7.06 6.25 13.78
3/20/2021 6:15:00 AM 0.53 32.954 0.118 7.06 6.19 13.8
3/20/2021 6:30:00 AM 0.49 32.882 0.118 7.05 6.29 13.82
3/20/2021 6:45:00 AM 0.45 32.81 0.118 7.05 6.45 13.84
3/20/2021 7:00:00 AM 0.4 32.72 0.118 7.06 6.32 13.86
3/20/2021 7:15:00 AM 0.36 32.648 0.118 7.05 6.35 13.89
3/20/2021 7:30:00 AM 0.32 32.576 0.118 7.05 6.24 13.91
3/20/2021 7:45:00 AM 0.29 32.522 0.118 7.05 5.94 13.94
3/20/2021 8:00:00 AM 0.27 32.486 0.118 7.06 6.09 13.97
3/20/2021 8:15:00 AM 0.25 32.45 0.118 7.06 6.04 14.01
3/20/2021 8:30:00 AM 0.24 32.432 0.118 7.07 5.84 14.04
3/20/2021 8:45:00 AM 0.23 32.414 0.118 7.07 5.62 14.07
3/20/2021 9:00:00 AM 0.25 32.45 0.118 7.08 5.88 14.11
3/20/2021 9:15:00 AM 0.28 32.504 0.118 7.09 5.63 14.13
3/20/2021 9:30:00 AM 0.33 32.594 0.118 7.11 5.59 14.15
3/20/2021 9:45:00 AM 0.41 32.738 0.118 7.12 5.57 14.16
3/20/2021 10:00:00 AM 0.5 32.9 0.118 7.14 5.53 14.16
3/20/2021 10:15:00 AM 0.62 33.116 0.118 7.15 5.66 14.17
3/20/2021 10:30:00 AM 0.77 33.386 0.118 7.17 5.46 14.14
3/20/2021 10:45:00 AM 0.94 33.692 0.118 7.19 5.37 14.12
3/20/2021 11:00:00 AM 1.14 34.052 0.118 7.2 5.72 14.09
3/20/2021 11:15:00 AM 1.37 34.466 0.118 7.21 5.42 14.05
3/20/2021 11:30:00 AM 1.6 34.88 0.118 7.23 5.12 14
3/20/2021 11:45:00 AM 1.85 35.33 0.117 7.24 5.39 13.93
3/20/2021 12:00:00 PM 2.11 35.798 0.117 7.25 4.99 13.87
3/20/2021 12:15:00 PM 2.38 36.284 0.117 7.27 5.25 13.8
3/20/2021 12:30:00 PM 2.65 36.77 0.117 7.27 5.27 13.74
3/20/2021 12:45:00 PM 2.92 37.256 0.117 7.29 5.18 13.66
3/20/2021 1:00:00 PM 3.17 37.706 0.117 7.3 5.38 13.58
3/20/2021 1:15:00 PM 3.42 38.156 0.117 7.31 5.33 13.51
3/20/2021 1:30:00 PM 3.64 38.552 0.117 7.32 5.55 13.47
3/20/2021 1:45:00 PM 3.85 38.93 0.117 7.32 5.48 13.38
3/20/2021 2:00:00 PM 4.02 39.236 0.117 7.33 5.53 13.33
3/20/2021 2:15:00 PM 4.2 39.56 0.117 7.33 5.58 13.27
3/20/2021 2:30:00 PM 4.34 39.812 0.117 7.34 5.63 13.21
3/20/2021 2:45:00 PM 4.48 40.064 0.117 7.34 5.95 13.16
3/20/2021 3:00:00 PM 4.58 40.244 0.117 7.35 5.71 13.11
3/20/2021 3:15:00 PM 4.67 40.406 0.117 7.35 5.8 13.07
3/20/2021 3:30:00 PM 4.74 40.532 0.117 7.35 5.83 13.01
3/20/2021 3:45:00 PM 4.79 40.622 0.117 7.34 5.8 12.96
3/20/2021 4:00:00 PM 4.83 40.694 0.117 7.35 5.73 12.92
3/20/2021 4:15:00 PM 4.85 40.73 0.117 7.34 5.8 12.88
3/20/2021 4:30:00 PM 4.86 40.748 0.117 7.34 9.12 12.84
3/20/2021 4:45:00 PM 4.84 40.712 0.117 7.33 6.33 12.8
3/20/2021 5:00:00 PM 4.83 40.694 0.116 7.32 5.66 12.76
3/20/2021 5:15:00 PM 4.82 40.676 0.116 7.31 5.93 12.73
3/20/2021 5:30:00 PM 4.8 40.64 0.116 7.3 5.94 12.69
3/20/2021 5:45:00 PM 4.77 40.586 0.116 7.3 6.37 12.66
3/20/2021 6:00:00 PM 4.73 40.514 0.116 7.28 6.42 12.63
3/20/2021 6:15:00 PM 4.69 40.442 0.115 7.27 6.62 12.61
3/20/2021 6:30:00 PM 4.65 40.37 0.115 7.26 6.29 12.57
3/20/2021 6:45:00 PM 4.61 40.298 0.115 7.25 6.25 12.55
3/20/2021 7:00:00 PM 4.58 40.244 0.115 7.24 6.62 12.53
3/20/2021 7:15:00 PM 4.55 40.19 0.114 7.23 6.26 12.51
3/20/2021 7:30:00 PM 4.52 40.136 0.114 7.22 6.59 12.48
3/20/2021 7:45:00 PM 4.49 40.082 0.114 7.21 6.5 12.46
3/20/2021 8:00:00 PM 4.47 40.046 0.114 7.2 6.8 12.44
3/20/2021 8:15:00 PM 4.45 40.01 0.114 7.2 6.82 12.43
3/20/2021 8:30:00 PM 4.42 39.956 0.114 7.2 7.2 12.41
3/20/2021 8:45:00 PM 4.4 39.92 0.113 7.2 6.9 12.41
3/20/2021 9:00:00 PM 4.38 39.884 0.113 7.19 7.1 12.4
3/20/2021 9:15:00 PM 4.35 39.83 0.113 7.19 7.38 12.4
3/20/2021 9:30:00 PM 4.32 39.776 0.113 7.18 6.94 12.41
3/20/2021 9:45:00 PM 4.29 39.722 0.113 7.18 7.2 12.41
3/20/2021 10:00:00 PM 4.25 39.65 0.113 7.18 6.92 12.41
3/20/2021 10:15:00 PM 4.22 39.596 0.113 7.18 6.74 12.42
3/20/2021 10:30:00 PM 4.17 39.506 0.113 7.17 6.94 12.43
3/20/2021 10:45:00 PM 4.12 39.416 0.113 7.17 7.13 12.45
3/20/2021 11:00:00 PM 4.06 39.308 0.113 7.16 7.24 12.47
3/20/2021 11:15:00 PM 3.99 39.182 0.113 7.16 6.97 12.49
3/20/2021 11:30:00 PM 3.92 39.056 0.113 7.15 6.88 12.51
3/20/2021 11:45:00 PM 3.84 38.912 0.113 7.15 7.09 12.54
3/21/2021 12:00:00 AM 3.76 38.768 0.113 7.15 6.94 12.56
3/21/2021 12:15:00 AM 3.68 38.624 0.113 7.14 7.13 12.59
3/21/2021 12:30:00 AM 3.6 38.48 0.113 7.14 6.82 12.62
3/21/2021 12:45:00 AM 3.51 38.318 0.113 7.13 6.81 12.65
3/21/2021 1:00:00 AM 3.43 38.174 0.113 7.13 6.74 12.68
3/21/2021 1:15:00 AM 3.34 38.012 0.113 7.13 6.98 12.71
3/21/2021 1:30:00 AM 3.25 37.85 0.113 7.12 6.79 12.74
3/21/2021 1:45:00 AM 3.17 37.706 0.113 7.12 6.88 12.78
3/21/2021 2:00:00 AM 3.08 37.544 0.113 7.11 6.86 12.8
3/21/2021 2:15:00 AM 2.99 37.382 0.113 7.11 6.8 12.84
3/21/2021 2:30:00 AM 2.91 37.238 0.113 7.1 6.92 12.87
3/21/2021 2:45:00 AM 2.82 37.076 0.113 7.1 6.78 12.9
3/21/2021 3:00:00 AM 2.74 36.932 0.113 7.1 6.6 12.93
3/21/2021 3:15:00 AM 2.65 36.77 0.113 7.1 7 12.96
3/21/2021 3:30:00 AM 2.57 36.626 0.113 7.09 7.07 13
3/21/2021 3:45:00 AM 2.49 36.482 0.113 7.09 7.07 13.03
3/21/2021 4:00:00 AM 2.41 36.338 0.113 7.09 6.48 13.06
3/21/2021 4:15:00 AM 2.34 36.212 0.113 7.09 6.83 13.08
3/21/2021 4:30:00 AM 2.26 36.068 0.113 7.08 6.81 13.12
3/21/2021 4:45:00 AM 2.19 35.942 0.113 7.08 7.02 13.15
3/21/2021 5:00:00 AM 2.12 35.816 0.113 7.08 6.59 13.17
3/21/2021 5:15:00 AM 2.05 35.69 0.113 7.08 6.84 13.2
3/21/2021 5:30:00 AM 1.98 35.564 0.113 7.08 6.79 13.23
3/21/2021 5:45:00 AM 1.92 35.456 0.113 7.07 6.43 13.26
3/21/2021 6:00:00 AM 1.86 35.348 0.113 7.07 6.23 13.28
3/21/2021 6:15:00 AM 1.8 35.24 0.114 7.07 6.32 13.3
3/21/2021 6:30:00 AM 1.74 35.132 0.114 7.06 6.51 13.33
3/21/2021 6:45:00 AM 1.68 35.024 0.114 7.06 6.5 13.35
3/21/2021 7:00:00 AM 1.62 34.916 0.114 7.06 6.68 13.37
3/21/2021 7:15:00 AM 1.57 34.826 0.114 7.06 6.6 13.4
3/21/2021 7:30:00 AM 1.51 34.718 0.114 7.06 6.17 13.44
3/21/2021 7:45:00 AM 1.47 34.646 0.114 7.06 6.13 13.47
3/21/2021 8:00:00 AM 1.43 34.574 0.114 7.06 6.04 13.51
3/21/2021 8:15:00 AM 1.4 34.52 0.114 7.07 5.9 13.55
3/21/2021 8:30:00 AM 1.38 34.484 0.115 7.09 5.86 13.59
3/21/2021 8:45:00 AM 1.37 34.466 0.115 7.1 5.84 13.64
3/21/2021 9:00:00 AM 1.37 34.466 0.115 7.1 5.8 13.67
3/21/2021 9:15:00 AM 1.4 34.52 0.115 7.11 5.67 13.71
3/21/2021 9:30:00 AM 1.44 34.592 0.115 7.13 5.78 13.74
3/21/2021 9:45:00 AM 1.51 34.718 0.115 7.15 5.8 13.76
3/21/2021 10:00:00 AM 1.61 34.898 0.115 7.16 5.61 13.78
3/21/2021 10:15:00 AM 1.73 35.114 0.115 7.18 5.69 13.78
3/21/2021 10:30:00 AM 1.88 35.384 0.115 7.2 5.4 13.77
3/21/2021 10:45:00 AM 2.05 35.69 0.115 7.22 5.55 13.75
3/21/2021 11:00:00 AM 2.25 36.05 0.114 7.24 5.68 13.72
3/21/2021 11:15:00 AM 2.47 36.446 0.114 7.25 5.36 13.69
3/21/2021 11:30:00 AM 2.7 36.86 0.115 7.27 5.32 13.64
3/21/2021 11:45:00 AM 2.96 37.328 0.115 7.29 5.41 13.59
3/21/2021 12:00:00 PM 3.22 37.796 0.115 7.3 5.36 13.53
3/21/2021 12:15:00 PM 3.5 38.3 0.115 7.31 5.46 13.47
3/21/2021 12:30:00 PM 3.77 38.786 0.115 7.33 5.42 13.4
3/21/2021 12:45:00 PM 4.05 39.29 0.115 7.34 5.4 13.33
3/21/2021 1:00:00 PM 4.31 39.758 0.115 7.35 5.51 13.26
3/21/2021 1:15:00 PM 4.57 40.226 0.115 7.36 5.34 13.19
3/21/2021 1:30:00 PM 4.81 40.658 0.115 7.37 5.26 13.12
3/21/2021 1:45:00 PM 5.03 41.054 0.115 7.37 5.49 13.06
3/21/2021 2:00:00 PM 5.23 41.414 0.115 7.38 5.39 12.99
3/21/2021 2:15:00 PM 5.41 41.738 0.114 7.38 5.53 12.93
3/21/2021 2:30:00 PM 5.55 41.99 0.115 7.39 5.85 12.88
3/21/2021 2:45:00 PM 5.68 42.224 0.115 7.39 5.96 12.83
3/21/2021 3:00:00 PM 5.8 42.44 0.114 7.39 5.91 12.78
3/21/2021 3:15:00 PM 5.89 42.602 0.111 7.4 5.88 12.72
3/21/2021 3:30:00 PM 5.95 42.71 0.076 7.39 5.57 12.69
3/21/2021 3:45:00 PM 6 42.8 0.114 7.39 6.05 12.62
3/21/2021 4:00:00 PM 6.02 42.836 0.114 7.39 6.21 12.58
3/21/2021 4:15:00 PM 6.03 42.854 0.114 7.38 6.47 12.54
3/21/2021 4:30:00 PM 6.02 42.836 0.113 7.37 6.82 12.5
3/21/2021 4:45:00 PM 5.99 42.782 0.113 7.36 6.85 12.46
3/21/2021 5:00:00 PM 5.96 42.728 0.113 7.35 7.25 12.4
3/21/2021 5:15:00 PM 5.94 42.692 0.113 7.33 7.2 12.37
3/21/2021 5:30:00 PM 5.92 42.656 0.113 7.32 7.01 12.32
3/21/2021 5:45:00 PM 5.88 42.584 0.112 7.31 7.57 12.28
3/21/2021 6:00:00 PM 5.84 42.512 0.112 7.3 7.79 12.25
3/21/2021 6:15:00 PM 5.8 42.44 0.112 7.29 8.01 12.23
3/21/2021 6:30:00 PM 5.75 42.35 0.111 7.28 8.29 12.19
3/21/2021 6:45:00 PM 5.71 42.278 0.111 7.26 8.03 12.17
3/21/2021 7:00:00 PM 5.68 42.224 0.11 7.25 9.52 12.14
3/21/2021 7:15:00 PM 5.65 42.17 0.11 7.25 11.27 12.11
3/21/2021 7:30:00 PM 5.62 42.116 0.11 7.23 13.26 12.08
3/21/2021 7:45:00 PM 5.6 42.08 0.109 7.22 13.76 12.06
3/21/2021 8:00:00 PM 5.57 42.026 0.109 7.18 14.26 12.04
3/21/2021 8:15:00 PM 5.55 41.99 0.108 7.11 22.14 12.03
3/21/2021 8:30:00 PM 5.53 41.954 0.068 7.09 22.35 12.02
3/21/2021 8:45:00 PM 5.5 41.9 0.068 7.09 25.82 12.01
3/21/2021 9:00:00 PM 5.46 41.828 0.073 7.07 29.15 12.02
3/21/2021 9:15:00 PM 5.43 41.774 0.083 7.04 31.06 12.01
3/21/2021 9:30:00 PM 5.39 41.702 0.067 7.02 32.55 12.02
3/21/2021 9:45:00 PM 5.35 41.63 0.068 7.01 42.39 12.02
3/21/2021 10:00:00 PM 5.3 41.54 0.068 6.98 77.78 12.03
3/21/2021 10:15:00 PM 5.25 41.45 0.069 6.98 82.85 12.07
3/21/2021 10:30:00 PM 5.18 41.324 0.066 6.97 81.18 12.08
3/21/2021 10:45:00 PM 5.11 41.198 0.065 6.97 90.42 12.08
3/21/2021 11:00:00 PM 5.03 41.054 0.062 6.96 81.22 12.1
3/21/2021 11:15:00 PM 4.94 40.892 0.056 6.96 71.09 12.11
3/21/2021 11:30:00 PM 4.85 40.73 0.042 6.95 72.24 12.14
3/21/2021 11:45:00 PM 4.75 40.55 0.03 6.94 341.65 12.16
3/22/2021 12:00:00 AM 4.67 40.406 0.059 6.94 168.89 12.2
3/22/2021 12:15:00 AM 4.57 40.226 0.058 6.93 167.22 12.22
3/22/2021 12:30:00 AM 4.45 40.01 0.06 6.94 357.07 12.27
3/22/2021 12:45:00 AM 4.36 39.848 0.058 6.97 1611.16 12.31
3/22/2021 1:00:00 AM 4.28 39.704 0.052 6.97 1669.12 12.33
3/22/2021 1:15:00 AM 4.22 39.596 0.048 6.95 1836.88 12.34
3/22/2021 1:30:00 AM 4.11 39.398 0.063 6.97 1778.45 12.38
3/22/2021 1:45:00 AM 4 39.2 0.064 6.93 2331.49 12.41
3/22/2021 2:00:00 AM 3.92 39.056 0.064 6.9 2798.28 12.44
3/22/2021 2:15:00 AM 3.81 38.858 0.061 6.88 3098.28 12.49
3/22/2021 2:30:00 AM 3.72 38.696 0.061 6.87 3329.2 12.52
3/22/2021 2:45:00 AM 3.65 38.57 0.06 6.88 3302.6 12.54
3/22/2021 3:00:00 AM 3.6 38.48 0.059 6.88 3299.43 12.55
3/22/2021 3:15:00 AM 3.48 38.264 0.06 6.89 3109.15 12.6
3/22/2021 3:30:00 AM 3.39 38.102 0.06 6.89 2943.72 12.62
3/22/2021 3:45:00 AM 3.3 37.94 0.062 6.89 3488.1 12.68
3/22/2021 4:00:00 AM 3.2 37.76 0.063 6.91 3928.88 12.72
3/22/2021 4:15:00 AM 3.09 37.562 0.059 6.93 3901.32 12.75
3/22/2021 4:30:00 AM 3.01 37.418 0.06 6.95 3520.19 12.77
3/22/2021 4:45:00 AM 2.93 37.274 0.052 6.96 3838.54 12.81
3/22/2021 5:00:00 AM 2.85 37.13 0.05 6.97 3939.91 12.83
3/22/2021 5:15:00 AM 2.78 37.004 0.046 6.98 3652.65 12.86
3/22/2021 5:30:00 AM 2.71 36.878 0.036 6.97 2936.75 12.9
3/22/2021 5:45:00 AM 2.65 36.77 0.071 6.99 640.5 12.91
3/22/2021 6:00:00 AM 2.58 36.644 0.072 6.96 672.87 12.95
3/22/2021 6:15:00 AM 2.51 36.518 0.066 6.97 783.63 12.97
3/22/2021 6:30:00 AM 2.45 36.41 0.061 6.97 871.13 12.99
3/22/2021 6:45:00 AM 2.39 36.302 0.057 6.98 933.1 13.02
3/22/2021 7:00:00 AM 2.34 36.212 0.051 6.99 942.44 13.04
3/22/2021 7:15:00 AM 2.28 36.104 0.046 6.99 1124.47 13.07
3/22/2021 7:30:00 AM 2.23 36.014 0.035 7.01 3130.71 13.1
3/22/2021 7:45:00 AM 2.18 35.924 0.064 7.04 1374.94 13.13
3/22/2021 8:00:00 AM 2.14 35.852 0.064 7 2089.36 13.18
3/22/2021 8:15:00 AM 2.11 35.798 0.066 6.99 2084.37 13.23
3/22/2021 8:30:00 AM 2.08 35.744 0.067 6.99 2453.55 13.27
3/22/2021 8:45:00 AM 2.06 35.708 0.066 7 2463.17 13.31
3/22/2021 9:00:00 AM 2.06 35.708 0.071 7.02 2494.98 13.36
3/22/2021 9:15:00 AM 2.08 35.744 0.066 7.05 2625.24 13.39
3/22/2021 9:30:00 AM 2.13 35.834 0.064 7.07 3983.22 13.42
3/22/2021 9:45:00 AM 2.2 35.96 0.06 7.09 4151.27 13.45
3/22/2021 10:00:00 AM 2.29 36.122 0.055 7.12 4619.75 13.47
3/22/2021 10:15:00 AM 2.42 36.356 0.046 7.14 3146.69 13.49
3/22/2021 10:30:00 AM 2.56 36.608 0.044 7.16 3162.22 13.48
3/22/2021 10:45:00 AM 2.73 36.914 0.065 7.19 2446.94 13.46
3/22/2021 11:00:00 AM 2.92 37.256 0.064 7.18 3916.88 13.45
3/22/2021 11:15:00 AM 3.15 37.67 0.063 7.21 3942.28 13.4
3/22/2021 11:30:00 AM 3.38 38.084 0.065 7.23 4610.56 13.37
3/22/2021 11:45:00 AM 3.63 38.534 0.065 7.24 4386.65 13.32
3/22/2021 12:00:00 PM 3.89 39.002 0.069 7.26 4099.99 13.27
3/22/2021 12:15:00 PM 4.16 39.488 0.069 7.28 3670.43 13.2
3/22/2021 12:30:00 PM 4.42 39.956 0.063 7.29 3525.17 13.15
3/22/2021 12:45:00 PM 4.69 40.442 0.05 7.31 3053.86 13.07
3/22/2021 1:00:00 PM 4.94 40.892 0.066 7.32 3337.88 13.01
3/22/2021 1:15:00 PM 5.19 41.342 0.067 7.31 2949.57 12.95
3/22/2021 1:30:00 PM 5.41 41.738 0.062 7.34 3131.65 12.89
3/22/2021 1:45:00 PM 5.6 42.08 0.058 7.35 3167.74 12.83
3/22/2021 2:00:00 PM 5.83 42.494 0.057 7.34 2999.67 12.75
3/22/2021 2:15:00 PM 6.01 42.818 0.05 7.35 2882.01 12.71
3/22/2021 2:30:00 PM 6.17 43.106 0.046 7.37 1630.54 12.64
3/22/2021 2:45:00 PM 6.31 43.358 0.066 7.36 7069.86 12.58
3/22/2021 3:00:00 PM 6.41 43.538 0.065 7.36 6205.32 12.53
3/22/2021 3:15:00 PM 6.51 43.718 0.061 7.37 6059.19 12.48
3/22/2021 3:30:00 PM 6.58 43.844 0.055 7.36 6402.06 12.43
3/22/2021 3:45:00 PM 6.63 43.934 0.052 7.34 5253.43 12.38
3/22/2021 4:00:00 PM 6.67 44.006 0.051 7.29 4674.06 12.33
3/22/2021 4:15:00 PM 6.69 44.042 0.053 7.26 4104.04 12.28
3/22/2021 4:30:00 PM 6.7 44.06 0.046 7.21 5153.95 12.24
3/22/2021 4:45:00 PM 6.69 44.042 0.064 7.21 1873.82 12.18
3/22/2021 5:00:00 PM 6.68 44.024 0.054 7.18 2078.78 12.13
3/22/2021 5:15:00 PM 6.67 44.006 0.054 7.18 2145.07 12.09
3/22/2021 5:30:00 PM 6.66 43.988 0.048 7.14 2409.21 12.05
3/22/2021 5:45:00 PM 6.63 43.934 0.043 7.15 3951.91 12.01
3/22/2021 6:00:00 PM 6.6 43.88 0.084 7.15 1554.22 11.97
3/22/2021 6:15:00 PM 6.57 43.826 0.084 7.09 1726.94 11.93
3/22/2021 6:30:00 PM 6.54 43.772 0.083 7.1 1994.41 11.9
3/22/2021 6:45:00 PM 6.51 43.718 0.082 7.1 2316.51 11.87
3/22/2021 7:00:00 PM 6.49 43.682 0.086 7.07 2099.72 11.84
3/22/2021 7:15:00 PM 6.46 43.628 0.083 7 2114.01 11.8
3/22/2021 7:30:00 PM 6.41 43.538 0.085 6.96 2262.55 11.78
3/22/2021 7:45:00 PM 6.4 43.52 0.082 6.93 2241.35 11.75
3/22/2021 8:00:00 PM 6.38 43.484 0.081 6.97 2409.64 11.71
3/22/2021 8:15:00 PM 6.33 43.394 0.074 6.97 2558.5 11.71
3/22/2021 8:30:00 PM 6.29 43.322 0.069 6.95 2632.45 11.69
3/22/2021 8:45:00 PM 6.24 43.232 0.06 6.96 2771.37 11.7
3/22/2021 9:00:00 PM 6.19 43.142 0.055 6.97 2866.14 11.71
3/22/2021 9:15:00 PM 6.14 43.052 0.05 6.93 2832.16 11.72
3/22/2021 9:30:00 PM 6.07 42.926 0.047 6.91 2825.24 11.71
3/22/2021 9:45:00 PM 6 42.8 0.043 6.9 3034.51 11.73
3/22/2021 10:00:00 PM 5.93 42.674 0.042 6.92 3120.46 11.76
3/22/2021 10:15:00 PM 5.86 42.548 0.041 6.93 4960.78 11.77
3/22/2021 10:30:00 PM 5.76 42.368 0.04 6.94 5046.26 11.82
3/22/2021 10:45:00 PM 5.65 42.17 0.037 6.95 13.59 11.85
3/22/2021 11:00:00 PM 5.55 41.99 0.043 6.7 14.36 11.88
3/22/2021 11:15:00 PM 5.44 41.792 0.094 6.81 15.64 11.91
3/22/2021 11:30:00 PM 5.34 41.612 0.094 6.74 16.74 11.93
3/22/2021 11:45:00 PM 5.23 41.414 0.094 6.63 12.45 11.97
3/23/2021 12:00:00 AM 5.12 41.216 0.094 6.72 7.61 12
3/23/2021 12:15:00 AM 5.02 41.036 0.094 6.67 7.04 12.04
3/23/2021 12:30:00 AM 4.91 40.838 0.094 6.72 10.91 12.07
3/23/2021 12:45:00 AM 4.8 40.64 0.094 6.7 10.5 12.11
3/23/2021 1:00:00 AM 4.7 40.46 0.094 6.66 11.48 12.14
3/23/2021 1:15:00 AM 4.6 40.28 0.094 6.72 12.32 12.18
3/23/2021 1:30:00 AM 4.5 40.1 0.094 6.71 12.6 12.21
3/23/2021 1:45:00 AM 4.4 39.92 0.094 6.68 16.96 12.25
3/23/2021 2:00:00 AM 4.3 39.74 0.094 6.72 22.02 12.28
3/23/2021 2:15:00 AM 4.22 39.596 0.094 6.76 24.21 12.31
3/23/2021 2:30:00 AM 4.13 39.434 0.094 6.76 25.1 12.34
3/23/2021 2:45:00 AM 4.05 39.29 0.094 6.81 26.98 12.38
3/23/2021 3:00:00 AM 3.97 39.146 0.094 6.82 29.04 12.4
3/23/2021 3:15:00 AM 3.88 38.984 0.094 6.78 29.55 12.43
3/23/2021 3:30:00 AM 3.81 38.858 0.094 6.8 28.7 12.46
3/23/2021 3:45:00 AM 3.73 38.714 0.094 6.75 26.7 12.49
3/23/2021 4:00:00 AM 3.65 38.57 0.094 6.74 20.51 12.51
3/23/2021 4:15:00 AM 3.58 38.444 0.094 6.73 17.52 12.54
3/23/2021 4:30:00 AM 3.51 38.318 0.094 6.71 20.62 12.56
3/23/2021 4:45:00 AM 3.44 38.192 0.094 6.76 17.78 12.59
3/23/2021 5:00:00 AM 3.38 38.084 0.094 6.78 17.93 12.61
3/23/2021 5:15:00 AM 3.32 37.976 0.094 6.87 23.62 12.63
3/23/2021 5:30:00 AM 3.26 37.868 0.095 6.93 22.94 12.64
3/23/2021 5:45:00 AM 3.2 37.76 0.095 6.94 26.31 12.67
3/23/2021 6:00:00 AM 3.14 37.652 0.095 6.94 25.32 12.7
3/23/2021 6:15:00 AM 3.08 37.544 0.095 6.92 21.31 12.71
3/23/2021 6:30:00 AM 3.02 37.436 0.095 6.92 19.94 12.74
3/23/2021 6:45:00 AM 2.96 37.328 0.095 6.85 16.76 12.75
3/23/2021 7:00:00 AM 2.91 37.238 0.095 6.76 18.92 12.78
3/23/2021 7:15:00 AM 2.86 37.148 0.095 6.78 19.75 12.8
3/23/2021 7:30:00 AM 2.8 37.04 0.095 6.78 15.83 12.83
3/23/2021 7:45:00 AM 2.76 36.968 0.095 6.84 16.71 12.87
3/23/2021 8:00:00 AM 2.72 36.896 0.095 6.85 18.4 12.92
3/23/2021 8:15:00 AM 2.69 36.842 0.095 6.86 16.3 12.96
3/23/2021 8:30:00 AM 2.67 36.806 0.095 6.87 15.93 12.99
3/23/2021 8:45:00 AM 2.66 36.788 0.095 6.88 16.48 13.04
3/23/2021 9:00:00 AM 2.67 36.806 0.096 6.96 22.52 13.08
3/23/2021 9:15:00 AM 2.7 36.86 0.095 6.95 25.7 13.11
3/23/2021 9:30:00 AM 2.75 36.95 0.095 6.98 19.99 13.15
3/23/2021 9:45:00 AM 2.83 37.094 0.095 7 20.91 13.18
3/23/2021 10:00:00 AM 2.94 37.292 0.095 7.03 16.7 13.19
3/23/2021 10:15:00 AM 3.06 37.508 0.095 7.06 14.26 13.2
3/23/2021 10:30:00 AM 3.21 37.778 0.074 7.08 20.89 13.21
3/23/2021 10:45:00 AM 3.39 38.102 0.095 7.1 18.07 13.19
3/23/2021 11:00:00 AM 3.59 38.462 0.095 7.13 20.14 13.17
3/23/2021 11:15:00 AM 3.81 38.858 0.092 7.13 87.76 13.14
3/23/2021 11:30:00 AM 4.04 39.272 0.095 7.15 72.83 13.1
3/23/2021 11:45:00 AM 4.28 39.704 0.095 7.17 17.88 13.05
3/23/2021 12:00:00 PM 4.53 40.154 0.094 7.18 16.53 13.01
3/23/2021 12:15:00 PM 4.76 40.568 0.032 7.12 24.58 12.97
3/23/2021 12:30:00 PM 5 41 0.095 7.21 30.95 12.91
3/23/2021 12:45:00 PM 5.22 41.396 0.095 7.23 28.65 12.86
3/23/2021 1:00:00 PM 5.45 41.81 0.094 7.24 15.98 12.8
3/23/2021 1:15:00 PM 5.66 42.188 0.074 7.22 13.4 12.75
3/23/2021 1:30:00 PM 5.88 42.584 0.062 7.22 25.82 12.72
3/23/2021 1:45:00 PM 6.07 42.926 0.065 7.22 35.88 12.66
3/23/2021 2:00:00 PM 6.25 43.25 0.06 7.23 46.32 12.61
3/23/2021 2:15:00 PM 6.41 43.538 0.062 7.23 32.54 12.55
3/23/2021 2:30:00 PM 6.55 43.79 0.057 7.2 26.74 12.5
3/23/2021 2:45:00 PM 6.65 43.97 0.057 7.23 18.91 12.45
3/23/2021 3:00:00 PM 6.75 44.15 0.053 7.2 21.8 12.4
3/23/2021 3:15:00 PM 6.82 44.276 0.052 7.19 20.21 12.36
3/23/2021 3:30:00 PM 6.83 44.294 0.049 7.19 40.8 12.31
3/23/2021 3:45:00 PM 6.87 44.366 0.045 7.27 22.25 12.27
3/23/2021 4:00:00 PM 6.91 44.438 0.045 7.25 96.3 12.24
3/23/2021 4:15:00 PM 6.94 44.492 0.044 7.25 95.63 12.2
3/23/2021 4:30:00 PM 6.99 44.582 0.043 7.24 95.05 12.16
3/23/2021 4:45:00 PM 7.04 44.672 0.042 7.26 91.2 12.13
3/23/2021 5:00:00 PM 7.08 44.744 0.04 7.25 149.11 12.09
3/23/2021 5:15:00 PM 7.1 44.78 0.038 7.2 68.77 12.05
3/23/2021 5:30:00 PM 7.1 44.78 0.037 7.15 83.67 11.98
3/23/2021 5:45:00 PM 7.15 44.87 0.036 7.15 68.62 11.94
3/23/2021 6:00:00 PM 7.16 44.888 0.035 7.04 223.37 11.89
3/23/2021 6:15:00 PM 7.17 44.906 0.035 7.03 13.68 11.84
3/23/2021 6:30:00 PM 7.18 44.924 0.033 7.01 9.24 11.77
3/23/2021 6:45:00 PM 7.18 44.924 0.038 6.96 8.81 11.72
3/23/2021 7:00:00 PM 7.19 44.942 0.09 7.01 8.48 11.67
3/23/2021 7:15:00 PM 7.18 44.924 0.089 7.01 8.29 11.62
3/23/2021 7:30:00 PM 7.15 44.87 0.089 6.99 8.45 11.59
3/23/2021 7:45:00 PM 7.1 44.78 0.089 6.95 9.32 11.56
3/23/2021 8:00:00 PM 7.05 44.69 0.088 6.94 9.82 11.54
3/23/2021 8:15:00 PM 6.99 44.582 0.088 6.93 10.1 11.53
3/23/2021 8:30:00 PM 6.92 44.456 0.088 6.89 10.27 11.53
3/23/2021 8:45:00 PM 6.85 44.33 0.087 6.87 10.02 11.53
3/23/2021 9:00:00 PM 6.78 44.204 0.087 6.86 10.21 11.54
3/23/2021 9:15:00 PM 6.7 44.06 0.087 6.85 9.87 11.55
3/23/2021 9:30:00 PM 6.62 43.916 0.087 6.84 10.45 11.57
3/23/2021 9:45:00 PM 6.53 43.754 0.087 6.85 9.98 11.59
3/23/2021 10:00:00 PM 6.44 43.592 0.087 6.82 9.96 11.61
3/23/2021 10:15:00 PM 6.35 43.43 0.086 6.81 10.42 11.64
3/23/2021 10:30:00 PM 6.25 43.25 0.086 6.78 10.2 11.65
3/23/2021 10:45:00 PM 6.16 43.088 0.086 6.78 9.59 11.68
3/23/2021 11:00:00 PM 6.06 42.908 0.086 6.76 9.36 11.69
3/23/2021 11:15:00 PM 5.97 42.746 0.086 6.75 9.95 11.72
3/23/2021 11:30:00 PM 5.87 42.566 0.086 6.77 9.87 11.74
3/23/2021 11:45:00 PM 5.77 42.386 0.086 6.73 9.66 11.77
3/24/2021 12:00:00 AM 5.68 42.224 0.086 6.74 9.89 11.79
3/24/2021 12:15:00 AM 5.59 42.062 0.086 6.73 9.72 11.83
3/24/2021 12:30:00 AM 5.5 41.9 0.086 6.77 9.52 11.86
3/24/2021 12:45:00 AM 5.41 41.738 0.086 6.79 9.42 11.88
3/24/2021 1:00:00 AM 5.33 41.594 0.086 6.74 8.86 11.9
3/24/2021 1:15:00 AM 5.25 41.45 0.086 6.74 9.3 11.93
3/24/2021 1:30:00 AM 5.17 41.306 0.086 6.77 8.51 11.96
3/24/2021 1:45:00 AM 5.1 41.18 0.086 6.77 9.23 11.98
3/24/2021 2:00:00 AM 5.03 41.054 0.086 6.75 9.38 12.01
3/24/2021 2:15:00 AM 4.97 40.946 0.086 6.73 8.76 12.03
3/24/2021 2:30:00 AM 4.91 40.838 0.086 6.74 9.07 12.05
3/24/2021 2:45:00 AM 4.86 40.748 0.086 6.76 8.52 12.07
3/24/2021 3:00:00 AM 4.81 40.658 0.086 6.78 8.17 12.08
3/24/2021 3:15:00 AM 4.76 40.568 0.086 6.81 8.7 12.1
3/24/2021 3:30:00 AM 4.72 40.496 0.086 6.81 8.04 12.11
3/24/2021 3:45:00 AM 4.68 40.424 0.086 6.81 8.76 12.13
3/24/2021 4:00:00 AM 4.64 40.352 0.086 6.78 8.15 12.14
3/24/2021 4:15:00 AM 4.61 40.298 0.086 6.8 7.81 12.15
3/24/2021 4:30:00 AM 4.58 40.244 0.086 6.81 7.77 12.16
3/24/2021 4:45:00 AM 4.56 40.208 0.086 6.81 7.74 12.17
3/24/2021 5:00:00 AM 4.54 40.172 0.086 6.82 7.62 12.18
3/24/2021 5:15:00 AM 4.52 40.136 0.086 6.83 7.73 12.18
3/24/2021 5:30:00 AM 4.51 40.118 0.086 6.85 7.58 12.19
3/24/2021 5:45:00 AM 4.5 40.1 0.086 6.87 7.38 12.2
3/24/2021 6:00:00 AM 4.49 40.082 0.086 6.88 7.51 12.2
3/24/2021 6:15:00 AM 4.49 40.082 0.086 6.88 7.08 12.2
3/24/2021 6:30:00 AM 4.48 40.064 0.086 6.88 7.27 12.21
3/24/2021 6:45:00 AM 4.47 40.046 0.086 6.9 6.71 12.21
3/24/2021 7:00:00 AM 4.47 40.046 0.086 6.88 7.12 12.21
3/24/2021 7:15:00 AM 4.47 40.046 0.086 6.89 6.96 12.22
3/24/2021 7:30:00 AM 4.47 40.046 0.086 6.87 7.5 12.22
3/24/2021 7:45:00 AM 4.47 40.046 0.086 6.87 6.93 12.23
3/24/2021 8:00:00 AM 4.48 40.064 0.086 6.87 6.85 12.24
3/24/2021 8:15:00 AM 4.49 40.082 0.086 6.89 6.73 12.25
3/24/2021 8:30:00 AM 4.5 40.1 0.086 6.87 6.78 12.26
3/24/2021 8:45:00 AM 4.51 40.118 0.086 6.84 6.73 12.27
3/24/2021 9:00:00 AM 4.52 40.136 0.085 6.86 6.93 12.28
3/24/2021 9:15:00 AM 4.54 40.172 0.085 6.83 7.44 12.28
3/24/2021 9:30:00 AM 4.56 40.208 0.085 6.83 6.69 12.29
3/24/2021 9:45:00 AM 4.57 40.226 0.085 6.82 7.57 12.3
3/24/2021 10:00:00 AM 4.6 40.28 0.085 6.83 6.99 12.32
3/24/2021 10:15:00 AM 4.62 40.316 0.085 6.83 7.6 12.33
3/24/2021 10:30:00 AM 4.65 40.37 0.085 6.83 7.94 12.35
3/24/2021 10:45:00 AM 4.69 40.442 0.085 6.87 8.03 12.37
3/24/2021 11:00:00 AM 4.72 40.496 0.084 6.9 8.71 12.38
3/24/2021 11:15:00 AM 4.75 40.55 0.084 6.93 9.8 12.38
3/24/2021 11:30:00 AM 4.78 40.604 0.083 6.93 9.9 12.37
3/24/2021 11:45:00 AM 4.82 40.676 0.083 6.94 10.98 12.36
3/24/2021 12:00:00 PM 4.85 40.73 0.083 6.95 12.1 12.36
3/24/2021 12:15:00 PM 4.88 40.784 0.083 6.99 13.48 12.34
3/24/2021 12:30:00 PM 4.92 40.856 0.082 6.99 14.52 12.32
3/24/2021 12:45:00 PM 4.95 40.91 0.082 7 16.62 12.3
3/24/2021 1:00:00 PM 4.98 40.964 0.082 6.98 18.24 12.28
3/24/2021 1:15:00 PM 5.01 41.018 0.082 6.97 20.68 12.26
3/24/2021 1:30:00 PM 5.04 41.072 0.081 6.95 22.84 12.24
3/24/2021 1:45:00 PM 5.06 41.108 0.081 6.93 31.26 12.22
3/24/2021 2:00:00 PM 5.09 41.162 0.08 6.92 24.87 12.21
3/24/2021 2:15:00 PM 5.13 41.234 0.08 6.95 26.59 12.21
3/24/2021 2:30:00 PM 5.19 41.342 0.079 6.95 25.1 12.19
3/24/2021 2:45:00 PM 5.24 41.432 0.079 6.96 32.37 12.18
3/24/2021 3:00:00 PM 5.28 41.504 0.078 6.94 36.56 12.17
3/24/2021 3:15:00 PM 5.31 41.558 0.077 6.96 36.17 12.15
3/24/2021 3:30:00 PM 5.34 41.612 0.076 6.95 33.63 12.13
3/24/2021 3:45:00 PM 5.37 41.666 0.076 6.93 29.49 12.11
3/24/2021 4:00:00 PM 5.41 41.738 0.075 6.92 33.28 12.09
3/24/2021 4:15:00 PM 5.45 41.81 0.075 6.92 40.37 12.08
3/24/2021 4:30:00 PM 5.48 41.864 0.074 6.89 52.28 12.06
3/24/2021 4:45:00 PM 5.51 41.918 0.074 6.89 45.47 12.04
3/24/2021 5:00:00 PM 5.53 41.954 0.074 6.84 40.63 12.02
3/24/2021 5:15:00 PM 5.56 42.008 0.074 6.84 39.53 12.01
3/24/2021 5:30:00 PM 5.59 42.062 0.074 6.81 35.91 11.99
3/24/2021 5:45:00 PM 5.62 42.116 0.075 6.81 90.1 11.97
3/24/2021 6:00:00 PM 5.65 42.17 0.075 6.81 40.3 11.95
3/24/2021 6:15:00 PM 5.68 42.224 0.075 6.81 37.37 11.94
3/24/2021 6:30:00 PM 5.7 42.26 0.076 6.8 32.65 11.92
3/24/2021 6:45:00 PM 5.73 42.314 0.076 6.82 32.37 11.89
3/24/2021 7:00:00 PM 5.74 42.332 0.077 6.81 27.09 11.88
3/24/2021 7:15:00 PM 5.76 42.368 0.077 6.8 30.22 11.87
3/24/2021 7:30:00 PM 5.77 42.386 0.077 6.8 31.93 11.86
3/24/2021 7:45:00 PM 5.78 42.404 0.078 6.82 31.55 11.85
3/24/2021 8:00:00 PM 5.79 42.422 0.078 6.81 27.5 11.84
3/24/2021 8:15:00 PM 5.79 42.422 0.078 6.8 31.88 11.82
3/24/2021 8:30:00 PM 5.79 42.422 0.078 6.8 29.18 11.82
3/24/2021 8:45:00 PM 5.79 42.422 0.078 6.81 28.71 11.81
3/24/2021 9:00:00 PM 5.78 42.404 0.078 6.83 26.87 11.81
3/24/2021 9:15:00 PM 5.78 42.404 0.078 6.79 25.28 11.81
3/24/2021 9:30:00 PM 5.78 42.404 0.078 6.8 25.71 11.8
3/24/2021 9:45:00 PM 5.77 42.386 0.078 6.8 25.1 11.79
3/24/2021 10:00:00 PM 5.77 42.386 0.078 6.8 22.33 11.8
3/24/2021 10:15:00 PM 5.76 42.368 0.078 6.8 22.94 11.8
3/24/2021 10:30:00 PM 5.76 42.368 0.078 6.8 21.56 11.78
3/24/2021 10:45:00 PM 5.75 42.35 0.078 6.81 22.33 11.79
3/24/2021 11:00:00 PM 5.75 42.35 0.078 6.81 20.52 11.79
3/24/2021 11:15:00 PM 5.74 42.332 0.078 6.8 20.06 11.79
3/24/2021 11:30:00 PM 5.73 42.314 0.078 6.81 20.23 11.79
3/24/2021 11:45:00 PM 5.71 42.278 0.078 6.81 19.29 11.79
3/25/2021 12:00:00 AM 5.71 42.278 0.078 6.81 19.23 11.8
3/25/2021 12:15:00 AM 5.7 42.26 0.077 6.8 18.74 11.79
3/25/2021 12:30:00 AM 5.69 42.242 0.077 6.79 18.46 11.8
3/25/2021 12:45:00 AM 5.69 42.242 0.077 6.81 17.87 11.79
3/25/2021 1:00:00 AM 5.68 42.224 0.077 6.81 17.67 11.79
3/25/2021 1:15:00 AM 5.68 42.224 0.077 6.82 17.02 11.81
3/25/2021 1:30:00 AM 5.68 42.224 0.077 6.82 16.8 11.8
3/25/2021 1:45:00 AM 5.68 42.224 0.077 6.82 16.4 11.8
3/25/2021 2:00:00 AM 5.68 42.224 0.077 6.83 15.93 11.8
3/25/2021 2:15:00 AM 5.68 42.224 0.077 6.83 16.5 11.8
3/25/2021 2:30:00 AM 5.68 42.224 0.077 6.82 15.39 11.8
3/25/2021 2:45:00 AM 5.68 42.224 0.077 6.82 15.22 11.79
3/25/2021 3:00:00 AM 5.68 42.224 0.077 6.83 15.81 11.79
3/25/2021 3:15:00 AM 5.69 42.242 0.076 6.82 15.26 11.8
3/25/2021 3:30:00 AM 5.7 42.26 0.076 6.82 14.9 11.78
3/25/2021 3:45:00 AM 5.7 42.26 0.076 6.82 14.87 11.78
3/25/2021 4:00:00 AM 5.7 42.26 0.076 6.83 15.08 11.78
3/25/2021 4:15:00 AM 5.71 42.278 0.076 6.82 14.75 11.78
3/25/2021 4:30:00 AM 5.71 42.278 0.076 6.83 14.1 11.78
3/25/2021 4:45:00 AM 5.71 42.278 0.076 6.83 14.38 11.78
3/25/2021 5:00:00 AM 5.71 42.278 0.076 6.83 13.95 11.78
3/25/2021 5:15:00 AM 5.71 42.278 0.076 6.83 14.04 11.79
3/25/2021 5:30:00 AM 5.71 42.278 0.076 6.83 13.93 11.79
3/25/2021 5:45:00 AM 5.7 42.26 0.076 6.83 13.36 11.78
3/25/2021 6:00:00 AM 5.69 42.242 0.076 6.84 13.76 11.79
3/25/2021 6:15:00 AM 5.68 42.224 0.076 6.82 13.17 11.79
3/25/2021 6:30:00 AM 5.68 42.224 0.076 6.83 13.04 11.79
3/25/2021 6:45:00 AM 5.67 42.206 0.076 6.83 13.06 11.79
3/25/2021 7:00:00 AM 5.66 42.188 0.076 6.83 13.06 11.79
3/25/2021 7:15:00 AM 5.66 42.188 0.076 6.83 13.24 11.8
3/25/2021 7:30:00 AM 5.66 42.188 0.076 6.84 13.08 11.8
3/25/2021 7:45:00 AM 5.66 42.188 0.076 6.84 13.12 11.82
3/25/2021 8:00:00 AM 5.67 42.206 0.075 6.83 12.5 11.84
3/25/2021 8:15:00 AM 5.68 42.224 0.075 6.83 11.2 11.85
3/25/2021 8:30:00 AM 5.7 42.26 0.075 6.84 11.87 11.87
3/25/2021 8:45:00 AM 5.72 42.296 0.075 6.86 12.15 11.89
3/25/2021 9:00:00 AM 5.76 42.368 0.075 6.88 11.24 11.91
3/25/2021 9:15:00 AM 5.81 42.458 0.075 6.89 10.93 11.93
3/25/2021 9:30:00 AM 5.87 42.566 0.075 6.9 10.97 11.96
3/25/2021 9:45:00 AM 5.94 42.692 0.075 6.93 10.6 11.99
3/25/2021 10:00:00 AM 6.01 42.818 0.075 6.94 10.5 11.99
3/25/2021 10:15:00 AM 6.08 42.944 0.075 6.95 10.53 12.01
3/25/2021 10:30:00 AM 6.18 43.124 0.075 6.98 10.62 12.03
3/25/2021 10:45:00 AM 6.28 43.304 0.075 6.98 10.19 12.02
3/25/2021 11:00:00 AM 6.41 43.538 0.075 7.02 9.88 12.02
3/25/2021 11:15:00 AM 6.56 43.808 0.075 7.02 10.05 12.01
3/25/2021 11:30:00 AM 6.72 44.096 0.075 7.04 9.89 11.99
3/25/2021 11:45:00 AM 6.9 44.42 0.075 7.05 9.71 11.97
3/25/2021 12:00:00 PM 7.1 44.78 0.075 7.08 9.68 11.94
3/25/2021 12:15:00 PM 7.31 45.158 0.075 7.09 10.52 11.91
3/25/2021 12:30:00 PM 7.53 45.554 0.075 7.11 9.65 11.88
3/25/2021 12:45:00 PM 7.74 45.932 0.075 7.12 9.9 11.84
3/25/2021 1:00:00 PM 7.95 46.31 0.075 7.15 9.68 11.8
3/25/2021 1:15:00 PM 8.16 46.688 0.075 7.14 9.56 11.76
3/25/2021 1:30:00 PM 8.36 47.048 0.075 7.15 9.41 11.72
3/25/2021 1:45:00 PM 8.52 47.336 0.075 7.17 9.98 11.66
3/25/2021 2:00:00 PM 8.66 47.588 0.075 7.15 10.09 11.61
3/25/2021 2:15:00 PM 8.8 47.84 0.075 7.15 9.91 11.57
3/25/2021 2:30:00 PM 8.96 48.128 0.075 7.17 9.64 11.53
3/25/2021 2:45:00 PM 9.09 48.362 0.075 7.16 9.74 11.49
3/25/2021 3:00:00 PM 9.22 48.596 0.075 7.18 10.08 11.44
3/25/2021 3:15:00 PM 9.35 48.83 0.075 7.16 10.1 11.4
3/25/2021 3:30:00 PM 9.47 49.046 0.075 7.17 10.78 11.35
3/25/2021 3:45:00 PM 9.57 49.226 0.075 7.17 10.94 11.29
3/25/2021 4:00:00 PM 9.65 49.37 0.075 7.17 10.94 11.24
3/25/2021 4:15:00 PM 9.73 49.514 0.075 7.16 11.42 11.19
3/25/2021 4:30:00 PM 9.8 49.64 0.075 7.16 11.61 11.14
3/25/2021 4:45:00 PM 9.87 49.766 0.075 7.15 12.21 11.09
3/25/2021 5:00:00 PM 9.93 49.874 0.075 7.15 12.03 11.03
3/25/2021 5:15:00 PM 9.99 49.982 0.075 7.14 12.49 10.98
3/25/2021 5:30:00 PM 10.05 50.09 0.075 7.13 12.6 10.93
3/25/2021 5:45:00 PM 10.11 50.198 0.075 7.12 12.68 10.88
3/25/2021 6:00:00 PM 10.16 50.288 0.075 7.11 12.25 10.83
3/25/2021 6:15:00 PM 10.19 50.342 0.075 7.1 12.49 10.78
3/25/2021 6:30:00 PM 10.21 50.378 0.075 7.08 11.76 10.74
3/25/2021 6:45:00 PM 10.22 50.396 0.075 7.08 11.73 10.71
3/25/2021 7:00:00 PM 10.21 50.378 0.075 7.05 11.51 10.67
3/25/2021 7:15:00 PM 10.18 50.324 0.076 7.04 11.91 10.65
3/25/2021 7:30:00 PM 10.14 50.252 0.076 7.02 12.07 10.62
3/25/2021 7:45:00 PM 10.1 50.18 0.076 7 11.68 10.6
3/25/2021 8:00:00 PM 10.04 50.072 0.076 6.99 11.8 10.59
3/25/2021 8:15:00 PM 9.98 49.964 0.076 6.98 12.34 10.58
3/25/2021 8:30:00 PM 9.91 49.838 0.077 6.96 11.4 10.59
3/25/2021 8:45:00 PM 9.83 49.694 0.077 6.94 11.8 10.59
3/25/2021 9:00:00 PM 9.75 49.55 0.077 6.93 12.17 10.6
3/25/2021 9:15:00 PM 9.67 49.406 0.077 6.91 11.8 10.61
3/25/2021 9:30:00 PM 9.59 49.262 0.078 6.92 11.5 10.62
3/25/2021 9:45:00 PM 9.51 49.118 0.078 6.91 11.68 10.63
3/25/2021 10:00:00 PM 9.42 48.956 0.079 6.9 11.41 10.65
3/25/2021 10:15:00 PM 9.34 48.812 0.079 6.9 11.34 10.66
3/25/2021 10:30:00 PM 9.26 48.668 0.079 6.89 11.18 10.68
3/25/2021 10:45:00 PM 9.18 48.524 0.08 6.89 11.11 10.69
3/25/2021 11:00:00 PM 9.1 48.38 0.08 6.9 11.28 10.7
3/25/2021 11:15:00 PM 9.03 48.254 0.081 6.89 11.07 10.72
3/25/2021 11:30:00 PM 8.96 48.128 0.081 6.89 11.07 10.73
3/25/2021 11:45:00 PM 8.9 48.02 0.081 6.88 11.37 10.75
3/26/2021 12:00:00 AM 8.85 47.93 0.081 6.9 11.09 10.76
3/26/2021 12:15:00 AM 8.8 47.84 0.082 6.91 10.98 10.77
3/26/2021 12:30:00 AM 8.75 47.75 0.082 6.92 10.67 10.78
3/26/2021 12:45:00 AM 8.7 47.66 0.082 6.91 10.82 10.79
3/26/2021 1:00:00 AM 8.67 47.606 0.083 6.93 10.44 10.8
3/26/2021 1:15:00 AM 8.63 47.534 0.083 6.93 10.4 10.8
3/26/2021 1:30:00 AM 8.59 47.462 0.083 6.93 10.69 10.82
3/26/2021 1:45:00 AM 8.55 47.39 0.084 6.95 10.55 10.82
3/26/2021 2:00:00 AM 8.51 47.318 0.084 6.95 10.46 10.83
3/26/2021 2:15:00 AM 8.47 47.246 0.084 6.95 10.29 10.83
3/26/2021 2:30:00 AM 8.44 47.192 0.084 6.95 10.22 10.84
3/26/2021 2:45:00 AM 8.4 47.12 0.085 6.96 9.93 10.85
3/26/2021 3:00:00 AM 8.36 47.048 0.085 6.96 10.19 10.85
3/26/2021 3:15:00 AM 8.32 46.976 0.085 6.97 10.27 10.86
3/26/2021 3:30:00 AM 8.29 46.922 0.086 6.95 10.11 10.87
3/26/2021 3:45:00 AM 8.26 46.868 0.086 6.95 9.82 10.87
3/26/2021 4:00:00 AM 8.23 46.814 0.086 6.96 10.32 10.87
3/26/2021 4:15:00 AM 8.21 46.778 0.086 6.96 9.64 10.88
3/26/2021 4:30:00 AM 8.19 46.742 0.087 6.94 10.15 10.88
3/26/2021 4:45:00 AM 8.17 46.706 0.087 6.95 9.87 10.88
3/26/2021 5:00:00 AM 8.16 46.688 0.087 6.95 9.86 10.88
3/26/2021 5:15:00 AM 8.14 46.652 0.088 6.94 9.76 10.88
3/26/2021 5:30:00 AM 8.13 46.634 0.088 6.94 9.94 10.89
3/26/2021 5:45:00 AM 8.11 46.598 0.088 6.95 9.42 10.89
3/26/2021 6:00:00 AM 8.1 46.58 0.088 6.95 9.7 10.88
3/26/2021 6:15:00 AM 8.08 46.544 0.089 6.94 9.58 10.88
3/26/2021 6:30:00 AM 8.07 46.526 0.089 6.93 9.38 10.88
3/26/2021 6:45:00 AM 8.06 46.508 0.089 6.94 9.46 10.88
3/26/2021 7:00:00 AM 8.06 46.508 0.089 6.95 9.7 10.88
3/26/2021 7:15:00 AM 8.06 46.508 0.089 6.94 9.53 10.88
3/26/2021 7:30:00 AM 8.04 46.472 0.09 6.93 9.74 10.88
3/26/2021 7:45:00 AM 8.03 46.454 0.09 6.94 9.44 10.89
3/26/2021 8:00:00 AM 8.05 46.49 0.09 6.94 9.15 10.91
3/26/2021 8:15:00 AM 8.07 46.526 0.09 6.95 9.22 10.92
3/26/2021 8:30:00 AM 8.09 46.562 0.09 6.95 9.44 10.94
3/26/2021 8:45:00 AM 8.14 46.652 0.09 6.96 8.79 10.98
3/26/2021 9:00:00 AM 8.2 46.76 0.091 6.98 8.57 11.02
3/26/2021 9:15:00 AM 8.26 46.868 0.091 7 8.6 11.05
3/26/2021 9:30:00 AM 8.35 47.03 0.091 7.01 7.86 11.08
3/26/2021 9:45:00 AM 8.46 47.228 0.091 7.04 7.95 11.1
3/26/2021 10:00:00 AM 8.56 47.408 0.091 7.05 7.81 11.1
3/26/2021 10:15:00 AM 8.67 47.606 0.091 7.07 8.66 11.09
3/26/2021 10:30:00 AM 8.76 47.768 0.091 7.08 8.44 11.11
3/26/2021 10:45:00 AM 8.86 47.948 0.091 7.09 8.49 11.1
3/26/2021 11:00:00 AM 8.92 48.056 0.092 7.09 7.97 11.06
3/26/2021 11:15:00 AM 8.94 48.092 0.092 7.08 7.75 11.04
3/26/2021 11:30:00 AM 8.97 48.146 0.092 7.07 7.83 11.03
3/26/2021 11:45:00 AM 9.01 48.218 0.092 7.08 7.99 11.05
3/26/2021 12:00:00 PM 9.06 48.308 0.092 7.09 7.88 11.06
3/26/2021 12:15:00 PM 9.13 48.434 0.092 7.11 7.65 11.06
3/26/2021 12:30:00 PM 9.17 48.506 0.092 7.12 7.8 11.07
3/26/2021 12:45:00 PM 9.26 48.668 0.093 7.12 7.81 11.08
3/26/2021 1:00:00 PM 9.3 48.74 0.093 7.13 8.08 11.07
3/26/2021 1:15:00 PM 9.35 48.83 0.093 7.13 7.76 11.04
3/26/2021 1:30:00 PM 9.39 48.902 0.093 7.13 7.77 11.03
3/26/2021 1:45:00 PM 9.41 48.938 0.093 7.13 7.53 11.01
3/26/2021 2:00:00 PM 9.43 48.974 0.093 7.12 7.69 10.99
3/26/2021 2:15:00 PM 9.47 49.046 0.093 7.13 7.61 10.98
3/26/2021 2:30:00 PM 9.48 49.064 0.093 7.13 7.86 10.96
3/26/2021 2:45:00 PM 9.48 49.064 0.094 7.12 7.64 10.93
3/26/2021 3:00:00 PM 9.48 49.064 0.094 7.11 7.65 10.92
3/26/2021 3:15:00 PM 9.47 49.046 0.094 7.11 7.7 10.92
3/26/2021 3:30:00 PM 9.49 49.082 0.094 7.12 8.05 10.95
3/26/2021 3:45:00 PM 9.51 49.118 0.094 7.12 8.4 10.96
3/26/2021 4:00:00 PM 9.54 49.172 0.094 7.14 8.02 10.99
3/26/2021 4:15:00 PM 9.55 49.19 0.094 7.14 7.95 11.01
3/26/2021 4:30:00 PM 9.56 49.208 0.094 7.17 8.16 11.03
3/26/2021 4:45:00 PM 9.51 49.118 0.094 7.16 7.81 11.02
3/26/2021 5:00:00 PM 9.45 49.01 0.094 7.13 7.82 11
3/26/2021 5:15:00 PM 9.37 48.866 0.094 7.1 7.68 10.97
3/26/2021 5:30:00 PM 9.3 48.74 0.094 7.08 7.75 10.94
3/26/2021 5:45:00 PM 9.22 48.596 0.095 7.06 7.85 10.92
3/26/2021 6:00:00 PM 9.14 48.452 0.095 7.03 7.81 10.9
3/26/2021 6:15:00 PM 9.06 48.308 0.095 7.02 8.23 10.89
3/26/2021 6:30:00 PM 8.99 48.182 0.095 6.97 8.49 10.88
3/26/2021 6:45:00 PM 8.91 48.038 0.096 6.95 7.88 10.89
3/26/2021 7:00:00 PM 8.84 47.912 0.096 6.96 8.13 10.89
3/26/2021 7:15:00 PM 8.76 47.768 0.096 6.97 8.03 10.89
3/26/2021 7:30:00 PM 8.68 47.624 0.096 6.96 8.08 10.9
3/26/2021 7:45:00 PM 8.61 47.498 0.096 6.95 8.72 10.89
3/26/2021 8:00:00 PM 8.54 47.372 0.097 6.91 8.48 10.9
3/26/2021 8:15:00 PM 8.47 47.246 0.097 6.92 8.11 10.91
3/26/2021 8:30:00 PM 8.4 47.12 0.097 6.94 8.08 10.92
3/26/2021 8:45:00 PM 8.33 46.994 0.097 6.94 8.15 10.94
3/26/2021 9:00:00 PM 8.26 46.868 0.098 6.95 7.95 10.95
3/26/2021 9:15:00 PM 8.19 46.742 0.098 6.95 7.98 10.97
3/26/2021 9:30:00 PM 8.12 46.616 0.098 6.96 8.09 10.99
3/26/2021 9:45:00 PM 8.06 46.508 0.099 6.96 7.98 11.01
3/26/2021 10:00:00 PM 7.99 46.382 0.099 6.99 8.16 11.03
3/26/2021 10:15:00 PM 7.93 46.274 0.099 6.99 8.07 11.04
3/26/2021 10:30:00 PM 7.87 46.166 0.099 6.99 7.88 11.06
3/26/2021 10:45:00 PM 7.81 46.058 0.099 7 7.59 11.08
3/26/2021 11:00:00 PM 7.75 45.95 0.1 7 7.83 11.1
3/26/2021 11:15:00 PM 7.69 45.842 0.1 7 7.7 11.11
3/26/2021 11:30:00 PM 7.63 45.734 0.1 7.01 7.39 11.13
3/26/2021 11:45:00 PM 7.57 45.626 0.1 7.02 7.46 11.14
3/27/2021 12:00:00 AM 7.52 45.536 0.101 7.02 7.4 11.16
3/27/2021 12:15:00 AM 7.46 45.428 0.101 7.02 7.4 11.18
3/27/2021 12:30:00 AM 7.4 45.32 0.101 7.02 7.36 11.2
3/27/2021 12:45:00 AM 7.35 45.23 0.101 7.02 7.63 11.21
3/27/2021 1:00:00 AM 7.29 45.122 0.102 7 8.79 11.24
3/27/2021 1:15:00 AM 7.24 45.032 0.07 6.98 26.84 11.25
3/27/2021 1:30:00 AM 7.18 44.924 0.102 6.98 12.98 11.27
3/27/2021 1:45:00 AM 7.11 44.798 0.102 6.96 17.04 11.29
3/27/2021 2:00:00 AM 7.06 44.708 0.102 6.94 19.26 11.3
3/27/2021 2:15:00 AM 7 44.6 0.103 6.95 19.85 11.33
3/27/2021 2:30:00 AM 6.95 44.51 0.103 6.92 19.83 11.34
3/27/2021 2:45:00 AM 6.9 44.42 0.103 6.86 22.07 11.36
3/27/2021 3:00:00 AM 6.86 44.348 0.103 7 28.35 11.36
3/27/2021 3:15:00 AM 6.82 44.276 0.102 7.01 28.16 11.35
3/27/2021 3:30:00 AM 6.77 44.186 0.103 7.02 25.36 11.38
3/27/2021 3:45:00 AM 6.73 44.114 0.1 7.01 58.06 11.38
3/27/2021 4:00:00 AM 6.69 44.042 0.104 7.02 64.21 11.38
3/27/2021 4:15:00 AM 6.64 43.952 0.078 7.04 68.91 11.42
3/27/2021 4:30:00 AM 6.6 43.88 0.071 7.05 71.84 11.42
3/27/2021 4:45:00 AM 6.56 43.808 0.074 6.92 80.02 11.4
3/27/2021 5:00:00 AM 6.52 43.736 0.065 7.04 105.88 11.42
3/27/2021 5:15:00 AM 6.48 43.664 0.071 7.04 103.4 11.48
3/27/2021 5:30:00 AM 6.43 43.574 0.073 7.03 116.8 11.49
3/27/2021 5:45:00 AM 6.4 43.52 0.086 7.01 118.13 11.5
3/27/2021 6:00:00 AM 6.36 43.448 0.092 7 136.69 11.52
3/27/2021 6:15:00 AM 6.32 43.376 0.088 6.99 137.47 11.53
3/27/2021 6:30:00 AM 6.29 43.322 0.086 6.99 161.81 11.55
3/27/2021 6:45:00 AM 6.25 43.25 0.078 7 175.9 11.56
3/27/2021 7:00:00 AM 6.23 43.214 0.073 7 189.53 11.57
3/27/2021 7:15:00 AM 6.19 43.142 0.061 6.97 157.11 11.59
3/27/2021 7:30:00 AM 6.16 43.088 0.089 6.98 86.7 11.59
3/27/2021 7:45:00 AM 6.13 43.034 0.09 7.05 56.14 11.62
3/27/2021 8:00:00 AM 6.1 42.98 0.082 7.06 38.52 11.64
3/27/2021 8:15:00 AM 6.09 42.962 0.075 7.06 38.67 11.67
3/27/2021 8:30:00 AM 6.07 42.926 0.073 7.07 47.1 11.69
3/27/2021 8:45:00 AM 6.05 42.89 0.075 7.05 48.32 11.76
3/27/2021 9:00:00 AM 6.04 42.872 0.077 7.09 48.14 11.81
3/27/2021 9:15:00 AM 6.03 42.854 0.077 7.09 52.52 11.87
3/27/2021 9:30:00 AM 6.03 42.854 0.095 7.1 52.75 11.91
3/27/2021 9:45:00 AM 6.03 42.854 0.105 7.11 52.34 11.95
3/27/2021 10:00:00 AM 6.03 42.854 0.105 7.09 71.46 11.99
3/27/2021 10:15:00 AM 6.03 42.854 0.105 7.08 69 12.03
3/27/2021 10:30:00 AM 6.04 42.872 0.105 7.08 74.25 12.04
3/27/2021 10:45:00 AM 6.04 42.872 0.105 7.12 76.83 12.07
3/27/2021 11:00:00 AM 6.06 42.908 0.105 7.17 152.52 12.11
3/27/2021 11:15:00 AM 6.08 42.944 0.105 7.22 42.21 12.13
3/27/2021 11:30:00 AM 6.1 42.98 0.105 7.22 34.99 12.16
3/27/2021 11:45:00 AM 6.14 43.052 0.105 7.24 13.45 12.18
3/27/2021 12:00:00 PM 6.18 43.124 0.105 7.27 13.78 12.2
3/27/2021 12:15:00 PM 6.25 43.25 0.105 7.25 8.9 12.22
3/27/2021 12:30:00 PM 6.36 43.448 0.104 7.3 8.88 12.24
3/27/2021 12:45:00 PM 6.54 43.772 0.104 7.34 8 12.24
3/27/2021 1:00:00 PM 6.7 44.06 0.104 7.35 7.83 12.24
3/27/2021 1:15:00 PM 6.9 44.42 0.104 7.37 7.46 12.22
3/27/2021 1:30:00 PM 6.99 44.582 0.104 7.38 7.48 12.19
3/27/2021 1:45:00 PM 7.14 44.852 0.104 7.39 7.39 12.16
3/27/2021 2:00:00 PM 7.16 44.888 0.103 7.38 7.52 12.15
3/27/2021 2:15:00 PM 7.32 45.176 0.103 7.39 7.73 12.12
3/27/2021 2:30:00 PM 7.5 45.5 0.102 7.41 7.64 12.1
3/27/2021 2:45:00 PM 7.7 45.86 0.102 7.43 7.89 12.07
3/27/2021 3:00:00 PM 7.87 46.166 0.101 7.45 8.23 12.03
3/27/2021 3:15:00 PM 7.95 46.31 0.099 7.42 8.05 11.98
3/27/2021 3:30:00 PM 8.09 46.562 0.097 7.43 8.08 11.95
3/27/2021 3:45:00 PM 8.19 46.742 0.097 7.44 8.57 11.91
3/27/2021 4:00:00 PM 8.25 46.85 0.095 7.45 8.29 11.88
3/27/2021 4:15:00 PM 8.28 46.904 0.091 7.44 7.72 11.85
3/27/2021 4:30:00 PM 8.27 46.886 0.088 7.44 7.65 11.82
3/27/2021 4:45:00 PM 8.26 46.868 0.08 7.44 7.56 11.8
3/27/2021 5:00:00 PM 8.25 46.85 0.076 7.44 8.17 11.77
3/27/2021 5:15:00 PM 8.26 46.868 0.062 7.45 7.42 11.74
3/27/2021 5:30:00 PM 8.25 46.85 0.079 7.44 7.88 11.71
3/27/2021 5:45:00 PM 8.26 46.868 0.07 7.44 7.87 11.69
3/27/2021 6:00:00 PM 8.24 46.832 0.109 7.43 7.92 11.66
3/27/2021 6:15:00 PM 8.24 46.832 0.109 7.42 7.79 11.6
3/27/2021 6:30:00 PM 8.23 46.814 0.109 7.41 7.81 11.54
3/27/2021 6:45:00 PM 8.23 46.814 0.11 7.4 7.51 11.48
3/27/2021 7:00:00 PM 8.24 46.832 0.11 7.38 7.62 11.42
3/27/2021 7:15:00 PM 8.23 46.814 0.11 7.36 10.25 11.34
3/27/2021 7:30:00 PM 8.23 46.814 0.11 7.34 11.04 11.27
3/27/2021 7:45:00 PM 8.23 46.814 0.11 7.32 10.88 11.21
3/27/2021 8:00:00 PM 8.22 46.796 0.11 7.31 11.57 11.16
3/27/2021 8:15:00 PM 8.21 46.778 0.111 7.29 10.72 11.13
3/27/2021 8:30:00 PM 8.19 46.742 0.111 7.27 10.5 11.1
3/27/2021 8:45:00 PM 8.16 46.688 0.111 7.27 11.51 11.07
3/27/2021 9:00:00 PM 8.12 46.616 0.111 7.25 11.27 11.06
3/27/2021 9:15:00 PM 8.08 46.544 0.111 7.24 11.14 11.05
3/27/2021 9:30:00 PM 8.04 46.472 0.111 7.23 11.67 11.05
3/27/2021 9:45:00 PM 7.99 46.382 0.111 7.23 16.71 11.05
3/27/2021 10:00:00 PM 7.94 46.292 0.112 7.22 13.47 11.06
3/27/2021 10:15:00 PM 7.89 46.202 0.112 7.22 12.49 11.07
3/27/2021 10:30:00 PM 7.84 46.112 0.112 7.21 11.77 11.07
3/27/2021 10:45:00 PM 7.79 46.022 0.112 7.2 12.17 11.08
3/27/2021 11:00:00 PM 7.73 45.914 0.112 7.19 11.5 11.09
3/27/2021 11:15:00 PM 7.68 45.824 0.112 7.2 12.49 11.09
3/27/2021 11:30:00 PM 7.63 45.734 0.112 7.19 11.92 11.11
3/27/2021 11:45:00 PM 7.57 45.626 0.112 7.19 11.41 11.11
3/28/2021 12:00:00 AM 7.51 45.518 0.113 7.18 11.81 11.13
3/28/2021 12:15:00 AM 7.44 45.392 0.113 7.18 11.37 11.14
3/28/2021 12:30:00 AM 7.37 45.266 0.113 7.18 11.45 11.16
3/28/2021 12:45:00 AM 7.3 45.14 0.113 7.17 11.41 11.18
3/28/2021 1:00:00 AM 7.23 45.014 0.113 7.17 11.5 11.19
3/28/2021 1:15:00 AM 7.16 44.888 0.113 7.16 11.82 11.21
3/28/2021 1:30:00 AM 7.09 44.762 0.113 7.16 11.38 11.23
3/28/2021 1:45:00 AM 7.02 44.636 0.114 7.16 11.57 11.24
3/28/2021 2:00:00 AM 6.95 44.51 0.114 7.16 11.7 11.26
3/28/2021 2:30:00 AM 6.81 44.258 0.114 7.15 11.48 11.29
3/28/2021 2:45:00 AM 6.75 44.15 0.114 7.15 11 11.31
3/28/2021 3:00:00 AM 6.68 44.024 0.114 7.15 11 11.32
3/28/2021 3:15:00 AM 6.61 43.898 0.115 7.14 10.85 11.34
3/28/2021 3:30:00 AM 6.55 43.79 0.115 7.14 10.78 11.36
3/28/2021 3:45:00 AM 6.49 43.682 0.115 7.14 10.78 11.38
3/28/2021 4:00:00 AM 6.43 43.574 0.115 7.13 11.51 11.4
3/28/2021 4:15:00 AM 6.37 43.466 0.115 7.14 11.22 11.41
3/28/2021 4:30:00 AM 6.31 43.358 0.115 7.13 10.59 11.42
3/28/2021 4:45:00 AM 6.25 43.25 0.115 7.11 11.35 11.45
3/28/2021 5:00:00 AM 6.2 43.16 0.116 7.12 11.01 11.46
3/28/2021 5:15:00 AM 6.15 43.07 0.116 7.11 10.69 11.48
3/28/2021 5:30:00 AM 6.1 42.98 0.116 7.12 10.25 11.48
3/28/2021 5:45:00 AM 6.07 42.926 0.116 7.12 9.68 11.49
3/28/2021 6:00:00 AM 6.04 42.872 0.116 7.13 11.51 11.51
3/28/2021 6:15:00 AM 6.02 42.836 0.116 7.14 11.44 11.52
3/28/2021 6:30:00 AM 6.01 42.818 0.116 7.14 10.91 11.52
3/28/2021 6:45:00 AM 6 42.8 0.116 7.15 12.25 11.52
3/28/2021 7:00:00 AM 6 42.8 0.116 7.15 10.58 11.53
3/28/2021 7:15:00 AM 6.01 42.818 0.116 7.16 15.11 11.52
3/28/2021 7:30:00 AM 6.01 42.818 0.116 7.16 13.69 11.52
3/28/2021 7:45:00 AM 6.02 42.836 0.116 7.16 13.24 11.52
3/28/2021 8:00:00 AM 6.04 42.872 0.116 7.16 13.12 11.53
3/28/2021 8:15:00 AM 6.06 42.908 0.116 7.17 12.24 11.54
3/28/2021 8:30:00 AM 6.09 42.962 0.116 7.17 12.6 11.54
3/28/2021 8:45:00 AM -99999.99 -179968 -99999.99 -99999.99 -99999.99 -99999.99
3/28/2021 9:00:00 AM 6.16 43.088 0.116 7.19 13.34 11.56
3/28/2021 9:15:00 AM 6.19 43.142 0.116 7.2 13.45 11.58
3/28/2021 9:30:00 AM 6.22 43.196 0.116 7.21 16 11.58
3/28/2021 9:45:00 AM 6.26 43.268 0.116 7.23 15.33 11.59
3/28/2021 10:00:00 AM 6.29 43.322 0.115 7.24 19.73 11.6
3/28/2021 10:15:00 AM 6.31 43.358 0.115 7.24 20.73 11.6
3/28/2021 10:30:00 AM 6.34 43.412 0.115 7.25 18.82 11.59
3/28/2021 10:45:00 AM 6.37 43.466 0.115 7.25 17.31 11.6
3/28/2021 11:00:00 AM 6.4 43.52 0.115 7.26 17.36 11.62
3/28/2021 11:15:00 AM 6.43 43.574 0.115 7.27 16.78 11.63
3/28/2021 11:30:00 AM 6.46 43.628 0.115 7.28 17.05 11.63
3/28/2021 11:45:00 AM 6.49 43.682 0.115 7.28 16.19 11.63
3/28/2021 12:00:00 PM 6.51 43.718 0.115 7.29 26.76 11.62
3/28/2021 12:15:00 PM 6.53 43.754 0.115 7.29 26.96 11.62
3/28/2021 12:30:00 PM 6.56 43.808 0.115 7.3 26.42 11.62
3/28/2021 12:45:00 PM 6.59 43.862 0.115 7.3 26.82 11.61
3/28/2021 1:00:00 PM 6.62 43.916 0.114 7.31 27.38 11.59
3/28/2021 1:15:00 PM 6.66 43.988 0.114 7.31 26.34 11.58
3/28/2021 1:30:00 PM 6.69 44.042 0.114 7.31 24.24 11.57
3/28/2021 1:45:00 PM 6.73 44.114 0.114 7.32 26.42 11.57
3/28/2021 2:00:00 PM 6.77 44.186 0.114 7.32 26.31 11.58
3/28/2021 2:15:00 PM 6.81 44.258 0.114 7.32 27.47 11.58
3/28/2021 2:30:00 PM 6.85 44.33 0.114 7.33 27.2 11.59
3/28/2021 2:45:00 PM 6.9 44.42 0.114 7.34 26.7 11.58
3/28/2021 3:00:00 PM 6.95 44.51 0.114 7.35 26.54 11.59
3/28/2021 3:15:00 PM 7 44.6 0.114 7.35 26.76 11.58
3/28/2021 3:30:00 PM 7.03 44.654 0.114 7.35 27.04 11.53
3/28/2021 3:45:00 PM 7.06 44.708 0.115 7.35 26.72 11.49
3/28/2021 4:00:00 PM 7.11 44.798 0.114 7.33 25.28 11.44
3/28/2021 4:15:00 PM 7.15 44.87 0.114 7.33 26.05 11.43
3/28/2021 4:30:00 PM 7.19 44.942 0.114 7.33 24.88 11.42
3/28/2021 4:45:00 PM 7.21 44.978 0.113 7.33 25.14 11.41
3/28/2021 5:00:00 PM 7.24 45.032 0.114 7.33 27.5 11.39
3/28/2021 5:15:00 PM 7.26 45.068 0.113 7.32 16.67 11.37
3/28/2021 5:30:00 PM 7.27 45.086 0.113 7.31 23.36 11.32
3/28/2021 5:45:00 PM 7.28 45.104 0.113 7.29 24.62 11.31
3/28/2021 6:00:00 PM 7.29 45.122 0.113 7.28 22.02 11.31
3/28/2021 6:15:00 PM 7.3 45.14 0.113 7.27 21.83 11.32
3/28/2021 6:30:00 PM 7.29 45.122 0.113 7.28 21.16 11.31
3/28/2021 6:45:00 PM 7.29 45.122 0.112 7.27 21.25 11.31
3/28/2021 7:00:00 PM 7.28 45.104 0.112 7.26 22.77 11.29
3/28/2021 7:15:00 PM 7.26 45.068 0.112 7.26 35.47 11.28
3/28/2021 7:30:00 PM 7.24 45.032 0.112 7.26 38.02 11.25
3/28/2021 7:45:00 PM 7.22 44.996 0.111 7.23 32.87 11.23
3/28/2021 8:00:00 PM 7.19 44.942 0.111 7.18 32.59 11.21
3/28/2021 8:15:00 PM 7.16 44.888 0.111 7.13 38.62 11.19
3/28/2021 8:30:00 PM 7.13 44.834 0.111 7.13 33.4 11.18
3/28/2021 8:45:00 PM 7.09 44.762 0.105 7.07 27.22 11.17
3/28/2021 9:00:00 PM 7.04 44.672 0.11 6.99 21.91 11.16
3/28/2021 9:15:00 PM 7.01 44.618 0.109 7.02 19 11.17
3/28/2021 9:30:00 PM 6.96 44.528 0.103 7.03 12.61 11.18
3/28/2021 9:45:00 PM 6.93 44.474 0.071 6.98 11.8 11.19
3/28/2021 10:00:00 PM 6.88 44.384 0.11 6.97 11.4 11.2
3/28/2021 10:15:00 PM 6.84 44.312 0.109 6.99 11.57 11.21
3/28/2021 10:30:00 PM 6.8 44.24 0.109 7.01 11.69 11.22
3/28/2021 10:45:00 PM 6.76 44.168 0.109 7 12.48 11.23
3/28/2021 11:00:00 PM 6.73 44.114 0.109 6.99 11.91 11.24
3/28/2021 11:15:00 PM 6.68 44.024 0.109 7.05 11.48 11.26
3/28/2021 11:30:00 PM 6.62 43.916 0.109 7.09 11.21 11.26
3/28/2021 11:45:00 PM 6.57 43.826 0.109 7.07 11.17 11.28
3/29/2021 12:00:00 AM 6.51 43.718 0.109 7.07 11.45 11.29
3/29/2021 12:15:00 AM 6.44 43.592 0.109 7.05 10.67 11.31
3/29/2021 12:30:00 AM 6.37 43.466 0.109 7 10.64 11.33
3/29/2021 12:45:00 AM 6.3 43.34 0.109 7.02 10.68 11.36
3/29/2021 1:00:00 AM 6.22 43.196 0.109 7.02 10.73 11.38
3/29/2021 1:15:00 AM 6.16 43.088 0.11 7.06 10.81 11.4
3/29/2021 1:30:00 AM 6.08 42.944 0.11 7.07 10.62 11.42
3/29/2021 1:45:00 AM 6 42.8 0.11 7.04 11.11 11.45
3/29/2021 2:00:00 AM 5.93 42.674 0.11 7.02 11.21 11.48
3/29/2021 2:15:00 AM 5.86 42.548 0.111 7.02 10.8 11.49
3/29/2021 2:30:00 AM 5.79 42.422 0.111 7.06 10.48 11.52
3/29/2021 2:45:00 AM 5.72 42.296 0.111 7.04 10.74 11.54
3/29/2021 3:00:00 AM 5.65 42.17 0.111 7.03 10.55 11.56
3/29/2021 3:15:00 AM 5.58 42.044 0.111 7.03 10.57 11.58
3/29/2021 3:30:00 AM 5.51 41.918 0.111 7.04 10.31 11.61
3/29/2021 3:45:00 AM 5.44 41.792 0.111 7.05 10.41 11.64
3/29/2021 4:00:00 AM 5.38 41.684 0.111 7.06 9.94 11.66
3/29/2021 4:15:00 AM 5.3 41.54 0.111 7.06 10.21 11.69
3/29/2021 4:30:00 AM 5.2 41.36 0.111 7.05 9.42 11.72
3/29/2021 4:45:00 AM 5.11 41.198 0.111 7.06 9.37 11.75
3/29/2021 5:00:00 AM 5.01 41.018 0.111 7.05 9.41 11.77
3/29/2021 5:15:00 AM 4.9 40.82 0.111 7.05 9.11 11.8
3/29/2021 5:30:00 AM 4.81 40.658 0.111 7.06 9.74 11.84
3/29/2021 5:45:00 AM 4.72 40.496 0.111 7.08 9.2 11.87
3/29/2021 6:00:00 AM 4.64 40.352 0.111 7.06 8.59 11.91
3/29/2021 6:15:00 AM 4.58 40.244 0.111 7.05 9.03 11.93
3/29/2021 6:30:00 AM 4.52 40.136 0.111 7.06 8.86 11.97
3/29/2021 6:45:00 AM 4.46 40.028 0.111 7.04 8.67 11.99
3/29/2021 7:00:00 AM 4.41 39.938 0.111 7.04 8.66 12.02
3/29/2021 7:15:00 AM 4.37 39.866 0.111 7.05 8.57 12.05
3/29/2021 7:30:00 AM 4.33 39.794 0.111 7.04 8.23 12.08
3/29/2021 7:45:00 AM 4.29 39.722 0.111 7.05 8.05 12.11
3/29/2021 8:00:00 AM 4.24 39.632 0.111 7.06 7.9 12.15
3/29/2021 8:15:00 AM 4.19 39.542 0.111 7.06 7.64 12.19
3/29/2021 8:30:00 AM 4.15 39.47 0.111 7.06 7.58 12.23
3/29/2021 8:45:00 AM 4.12 39.416 0.111 7.06 7.17 12.28
3/29/2021 9:00:00 AM 4.1 39.38 0.111 7.09 7.1 12.34
3/29/2021 9:15:00 AM 4.09 39.362 0.111 7.1 6.85 12.4
3/29/2021 9:30:00 AM 4.08 39.344 0.112 7.12 6.56 12.47
3/29/2021 9:45:00 AM 4.07 39.326 0.112 7.13 6.63 12.52
3/29/2021 10:00:00 AM 4.06 39.308 0.112 7.14 6.57 12.57
3/29/2021 10:15:00 AM 4.07 39.326 0.112 7.16 6.52 12.62
3/29/2021 10:30:00 AM 4.07 39.326 0.112 7.17 6.33 12.67
3/29/2021 10:45:00 AM 4.11 39.398 0.112 7.21 6.29 12.72
3/29/2021 11:00:00 AM 4.2 39.56 0.112 7.23 6.18 12.75
3/29/2021 11:15:00 AM 4.28 39.704 0.112 7.25 6.28 12.77
3/29/2021 11:30:00 AM 4.39 39.902 0.113 7.27 6.31 12.79
3/29/2021 11:45:00 AM 4.53 40.154 0.113 7.31 6.36 12.78
3/29/2021 12:00:00 PM 4.76 40.568 0.113 7.33 6.31 12.77
3/29/2021 12:15:00 PM 4.93 40.874 0.113 7.36 6.42 12.75
3/29/2021 12:30:00 PM 5.14 41.252 0.113 7.39 6.03 12.71
3/29/2021 12:45:00 PM 5.36 41.648 0.113 7.4 6 12.68
3/29/2021 1:00:00 PM 5.57 42.026 0.113 7.41 6.17 12.63
3/29/2021 1:15:00 PM 5.79 42.422 0.114 7.42 5.99 12.58
3/29/2021 1:30:00 PM 5.99 42.782 0.114 7.42 5.95 12.54
3/29/2021 1:45:00 PM 6.16 43.088 0.114 7.44 5.77 12.52
3/29/2021 2:00:00 PM 6.36 43.448 0.114 7.44 5.76 12.47
3/29/2021 2:15:00 PM 6.56 43.808 0.114 7.45 5.84 12.42
3/29/2021 2:30:00 PM 6.7 44.06 0.114 7.45 5.63 12.39
3/29/2021 2:45:00 PM 6.81 44.258 0.114 7.46 5.71 12.35
3/29/2021 3:00:00 PM 6.89 44.402 0.114 7.45 5.68 12.32
3/29/2021 3:15:00 PM 6.94 44.492 0.114 7.45 5.81 12.28
3/29/2021 3:30:00 PM 6.96 44.528 0.114 7.45 5.69 12.26
3/29/2021 3:45:00 PM 6.96 44.528 0.114 7.44 5.8 12.24
3/29/2021 4:00:00 PM 6.96 44.528 0.114 7.43 5.63 12.22
3/29/2021 4:15:00 PM 6.92 44.456 0.114 7.43 5.6 12.19
3/29/2021 4:30:00 PM 6.86 44.348 0.114 7.39 5.75 12.17
3/29/2021 4:45:00 PM 6.8 44.24 0.114 7.38 5.57 12.15
3/29/2021 5:00:00 PM 6.72 44.096 0.114 7.38 5.45 12.12
3/29/2021 5:15:00 PM 6.64 43.952 0.115 7.35 5.49 12.1
3/29/2021 5:30:00 PM 6.58 43.844 0.115 7.34 5.5 12.08
3/29/2021 5:45:00 PM 6.52 43.736 0.115 7.32 5.58 12.06
3/29/2021 6:00:00 PM 6.45 43.61 0.115 7.31 5.36 12.03
3/29/2021 6:15:00 PM 6.39 43.502 0.115 7.3 5.4 12.01
3/29/2021 6:30:00 PM 6.34 43.412 0.115 7.29 5.62 11.98
3/29/2021 6:45:00 PM 6.29 43.322 0.116 7.27 6.2 11.95
3/29/2021 7:00:00 PM 6.25 43.25 0.116 7.27 5.91 11.92
3/29/2021 7:15:00 PM 6.22 43.196 0.116 7.26 5.79 11.89
3/29/2021 7:30:00 PM 6.19 43.142 0.116 7.27 6.53 11.86
3/29/2021 7:45:00 PM 6.16 43.088 0.116 7.25 5.87 11.83
3/29/2021 8:00:00 PM 6.12 43.016 0.116 7.24 5.95 11.8
3/29/2021 8:15:00 PM 6.08 42.944 0.116 7.23 5.78 11.77
3/29/2021 8:30:00 PM 6.05 42.89 0.116 7.22 5.78 11.75
3/29/2021 8:45:00 PM 6.02 42.836 0.116 7.22 5.72 11.74
3/29/2021 9:00:00 PM 5.99 42.782 0.117 7.21 5.75 11.73
3/29/2021 9:15:00 PM 5.95 42.71 0.117 7.2 5.56 11.74
3/29/2021 9:30:00 PM 5.91 42.638 0.117 7.2 5.67 11.73
3/29/2021 9:45:00 PM 5.87 42.566 0.117 7.19 5.4 11.73
3/29/2021 10:00:00 PM 5.83 42.494 0.117 7.19 5.18 11.74
3/29/2021 10:15:00 PM 5.8 42.44 0.117 7.18 5.48 11.74
3/29/2021 10:30:00 PM 5.75 42.35 0.117 7.18 5.63 11.75
3/29/2021 10:45:00 PM 5.71 42.278 0.117 7.18 5.87 11.76
3/29/2021 11:00:00 PM 5.66 42.188 0.118 7.18 5.41 11.76
3/29/2021 11:15:00 PM 5.61 42.098 0.118 7.17 6.77 11.77
3/29/2021 11:30:00 PM 5.56 42.008 0.118 7.17 6.04 11.79
3/29/2021 11:45:00 PM 5.5 41.9 0.118 7.16 5.43 11.81
3/30/2021 12:00:00 AM 5.43 41.774 0.118 7.17 5.53 11.83
3/30/2021 12:15:00 AM 5.36 41.648 0.118 7.16 6.3 11.85
3/30/2021 12:30:00 AM 5.29 41.522 0.119 7.17 5.94 11.87
3/30/2021 12:45:00 AM 5.22 41.396 0.119 7.15 5.93 11.89
3/30/2021 1:00:00 AM 5.15 41.27 0.119 7.17 5.97 11.92
3/30/2021 1:15:00 AM 5.07 41.126 0.119 7.16 5.96 11.95
3/30/2021 1:30:00 AM 5 41 0.119 7.15 5.59 11.97
3/30/2021 1:45:00 AM 4.92 40.856 0.119 7.15 5.31 11.99
3/30/2021 2:00:00 AM 4.85 40.73 0.12 7.16 5.34 12.02
3/30/2021 2:15:00 AM 4.78 40.604 0.12 7.15 5.24 12.04
3/30/2021 2:30:00 AM 4.7 40.46 0.12 7.15 5.12 12.07
3/30/2021 2:45:00 AM 4.63 40.334 0.12 7.15 6.2 12.09
3/30/2021 3:00:00 AM 4.55 40.19 0.12 7.16 6.07 12.12
3/30/2021 3:15:00 AM 4.48 40.064 0.12 7.14 6.04 12.14
3/30/2021 3:30:00 AM 4.4 39.92 0.12 7.13 6.12 12.17
3/30/2021 3:45:00 AM 4.33 39.794 0.12 7.13 6.09 12.2
3/30/2021 4:00:00 AM 4.26 39.668 0.12 7.14 6.04 12.22
3/30/2021 4:15:00 AM 4.19 39.542 0.12 7.14 5.88 12.25
3/30/2021 4:30:00 AM 4.12 39.416 0.12 7.13 6.28 12.28
3/30/2021 4:45:00 AM 4.05 39.29 0.12 7.14 5.84 12.3
3/30/2021 5:00:00 AM 3.98 39.164 0.12 7.14 5.94 12.33
3/30/2021 5:15:00 AM 3.91 39.038 0.12 7.14 6.1 12.35
3/30/2021 5:30:00 AM 3.84 38.912 0.121 7.15 6.6 12.38
3/30/2021 5:45:00 AM 3.78 38.804 0.121 7.14 6.22 12.4
3/30/2021 6:00:00 AM 3.71 38.678 0.121 7.14 6.36 12.43
3/30/2021 6:15:00 AM 3.65 38.57 0.121 7.14 6.26 12.45
3/30/2021 6:30:00 AM 3.59 38.462 0.121 7.13 6.26 12.47
3/30/2021 6:45:00 AM 3.53 38.354 0.121 7.14 6.05 12.5
3/30/2021 7:00:00 AM 3.48 38.264 0.121 7.15 6.34 12.52
3/30/2021 7:15:00 AM 3.43 38.174 0.121 7.15 6.26 12.55
3/30/2021 7:30:00 AM 3.38 38.084 0.121 7.15 6.35 12.59
3/30/2021 7:45:00 AM 3.34 38.012 0.121 7.15 6.1 12.63
3/30/2021 8:00:00 AM 3.31 37.958 0.122 7.16 6 12.68
3/30/2021 8:15:00 AM 3.29 37.922 0.122 7.16 6.1 12.74
3/30/2021 8:30:00 AM 3.27 37.886 0.122 7.15 6.05 12.79
3/30/2021 8:45:00 AM 3.27 37.886 0.122 7.15 6.04 12.83
3/30/2021 9:00:00 AM 3.29 37.922 0.122 7.16 5.6 12.88
3/30/2021 9:15:00 AM 3.34 38.012 0.122 7.18 5.77 12.93
3/30/2021 9:30:00 AM 3.41 38.138 0.122 7.21 5.66 12.96
3/30/2021 9:45:00 AM 3.51 38.318 0.122 7.23 5.49 12.99
3/30/2021 10:00:00 AM 3.63 38.534 0.122 7.26 5.56 13
3/30/2021 10:15:00 AM 3.79 38.822 0.122 7.28 5.02 13.01
3/30/2021 10:30:00 AM 3.97 39.146 0.121 7.3 4.89 13
3/30/2021 10:45:00 AM 4.18 39.524 0.121 7.32 4.88 12.98
3/30/2021 11:00:00 AM 4.41 39.938 0.121 7.34 4.79 12.95
3/30/2021 11:15:00 AM 4.66 40.388 0.121 7.36 4.67 12.91
3/30/2021 11:30:00 AM 4.93 40.874 0.121 7.38 4.64 12.87
3/30/2021 11:45:00 AM 5.21 41.378 0.121 7.39 4.73 12.82
3/30/2021 12:00:00 PM 5.52 41.936 0.121 7.41 4.06 12.75
3/30/2021 12:15:00 PM 5.83 42.494 0.121 7.43 4.52 12.69
3/30/2021 12:30:00 PM 6.15 43.07 0.121 7.45 4.18 12.63
3/30/2021 12:45:00 PM 6.46 43.628 0.121 7.46 4.47 12.56
3/30/2021 1:00:00 PM 6.78 44.204 0.121 7.48 4.74 12.48
3/30/2021 1:15:00 PM 7.07 44.726 0.121 7.49 4.76 12.41
3/30/2021 1:30:00 PM 7.35 45.23 0.121 7.5 4.51 12.34
3/30/2021 1:45:00 PM 7.6 45.68 0.121 7.51 4.29 12.28
3/30/2021 2:00:00 PM 7.83 46.094 0.121 7.52 4.29 12.22
3/30/2021 2:15:00 PM 8.04 46.472 0.121 7.52 4.37 12.16
3/30/2021 2:30:00 PM 8.22 46.796 0.121 7.53 4.27 12.1
3/30/2021 2:45:00 PM 8.38 47.084 0.121 7.53 4.35 12.05
3/30/2021 3:00:00 PM 8.5 47.3 0.122 7.54 4.76 12
3/30/2021 3:15:00 PM 8.59 47.462 0.122 7.54 4.61 11.96
3/30/2021 3:30:00 PM 8.66 47.588 0.122 7.53 4.53 11.91
3/30/2021 3:45:00 PM 8.69 47.642 0.122 7.53 4.76 11.86
3/30/2021 4:00:00 PM 8.71 47.678 0.122 7.52 4.79 11.83
3/30/2021 4:15:00 PM 8.7 47.66 0.122 7.52 4.69 11.79
3/30/2021 4:30:00 PM 8.68 47.624 0.122 7.51 4.57 11.75
3/30/2021 4:45:00 PM 8.63 47.534 0.122 7.49 4.8 11.71
3/30/2021 5:00:00 PM 8.59 47.462 0.122 7.47 4.51 11.66
3/30/2021 5:15:00 PM 8.55 47.39 0.122 7.45 4.61 11.62
3/30/2021 5:30:00 PM 8.52 47.336 0.123 7.44 4.49 11.6
3/30/2021 5:45:00 PM 8.47 47.246 0.123 7.42 4.72 11.56
3/30/2021 6:00:00 PM 8.43 47.174 0.123 7.41 4.77 11.51
3/30/2021 6:15:00 PM 8.41 47.138 0.123 7.39 4.96 11.47
3/30/2021 6:30:00 PM 8.37 47.066 0.123 7.38 5.14 11.43
3/30/2021 6:45:00 PM 8.33 46.994 0.123 7.37 4.78 11.39
3/30/2021 7:00:00 PM 8.29 46.922 0.123 7.35 4.81 11.34
3/30/2021 7:15:00 PM 8.26 46.868 0.123 7.33 4.98 11.3
3/30/2021 7:30:00 PM 8.23 46.814 0.123 7.32 5.02 11.25
3/30/2021 7:45:00 PM 8.22 46.796 0.124 7.31 4.13 11.2
3/30/2021 8:00:00 PM 8.2 46.76 0.124 7.29 4.28 11.16
3/30/2021 8:15:00 PM 8.18 46.724 0.124 7.27 4.52 11.13
3/30/2021 8:30:00 PM 8.16 46.688 0.124 7.26 4.4 11.1
3/30/2021 8:45:00 PM 8.14 46.652 0.124 7.26 4.7 11.07
3/30/2021 9:00:00 PM 8.13 46.634 0.124 7.25 5.04 11.05
3/30/2021 9:15:00 PM 8.12 46.616 0.124 7.24 4.31 11.04
3/30/2021 9:30:00 PM 8.12 46.616 0.124 7.24 4.58 11.03
3/30/2021 9:45:00 PM 8.1 46.58 0.124 7.24 5.5 11.03
3/30/2021 10:00:00 PM 8.09 46.562 0.124 7.23 5.32 11.01
3/30/2021 10:15:00 PM 8.08 46.544 0.124 7.22 5.41 11.02
3/30/2021 10:30:00 PM 8.06 46.508 0.124 7.22 5.14 11.01
3/30/2021 10:45:00 PM 8.05 46.49 0.124 7.22 5.19 11.01
3/30/2021 11:00:00 PM 8.03 46.454 0.125 7.22 4.94 11
3/30/2021 11:15:00 PM 8.01 46.418 0.125 7.22 4.49 11.01
3/30/2021 11:30:00 PM 7.99 46.382 0.125 7.22 4.59 11.01
3/30/2021 11:45:00 PM 7.97 46.346 0.125 7.22 4.4 11.02
3/31/2021 12:00:00 AM 7.94 46.292 0.125 7.21 4.59 11.02
3/31/2021 12:15:00 AM 7.91 46.238 0.125 7.21 4.89 11.02
3/31/2021 12:30:00 AM 7.88 46.184 0.125 7.21 4.82 11.03
3/31/2021 12:45:00 AM 7.84 46.112 0.125 7.19 4.65 11.04
3/31/2021 1:00:00 AM 7.8 46.04 0.125 7.19 4.7 11.05
3/31/2021 1:15:00 AM 7.75 45.95 0.125 7.19 4.67 11.06
3/31/2021 1:30:00 AM 7.71 45.878 0.125 7.2 4.72 11.08
3/31/2021 1:45:00 AM 7.66 45.788 0.126 7.2 4.93 11.09
3/31/2021 2:00:00 AM 7.61 45.698 0.126 7.19 4.88 11.1
3/31/2021 2:15:00 AM 7.57 45.626 0.126 7.2 4.94 11.12
3/31/2021 2:30:00 AM 7.52 45.536 0.126 7.19 4.92 11.13
3/31/2021 2:45:00 AM 7.47 45.446 0.126 7.19 4.89 11.14
3/31/2021 3:00:00 AM 7.43 45.374 0.126 7.19 4.73 11.15
3/31/2021 3:15:00 AM 7.38 45.284 0.126 7.19 4.8 11.17
3/31/2021 3:30:00 AM 7.33 45.194 0.127 7.2 4.93 11.17
3/31/2021 3:45:00 AM 7.28 45.104 0.127 7.19 4.95 11.19
3/31/2021 4:00:00 AM 7.23 45.014 0.127 7.19 4.64 11.2
3/31/2021 4:15:00 AM 7.18 44.924 0.127 7.19 4.77 11.21
3/31/2021 4:30:00 AM 7.13 44.834 0.127 7.2 4.86 11.23
3/31/2021 4:45:00 AM 7.07 44.726 0.127 7.19 4.76 11.24
3/31/2021 5:00:00 AM 7.02 44.636 0.127 7.19 4.65 11.26
3/31/2021 5:15:00 AM 6.98 44.564 0.127 7.18 4.75 11.27
3/31/2021 5:30:00 AM 6.93 44.474 0.128 7.18 4.73 11.28
3/31/2021 5:45:00 AM 6.88 44.384 0.128 7.19 4.89 11.3
3/31/2021 6:00:00 AM 6.84 44.312 0.128 7.19 4.72 11.31
3/31/2021 6:15:00 AM 6.79 44.222 0.128 7.19 4.77 11.33
3/31/2021 6:30:00 AM 6.75 44.15 0.128 7.19 4.74 11.34
3/31/2021 6:45:00 AM 6.72 44.096 0.128 7.19 4.87 11.35
3/31/2021 7:00:00 AM 6.69 44.042 0.128 7.19 4.73 11.36
3/31/2021 7:15:00 AM 6.66 43.988 0.128 7.2 5.04 11.38
3/31/2021 7:30:00 AM 6.63 43.934 0.128 7.21 4.79 11.4
3/31/2021 7:45:00 AM 6.61 43.898 0.128 7.21 4.69 11.44
3/31/2021 8:00:00 AM 6.6 43.88 0.128 7.23 4.9 11.48
3/31/2021 8:15:00 AM 6.6 43.88 0.128 7.24 4.67 11.54
3/31/2021 8:30:00 AM 6.6 43.88 0.128 7.26 4.44 11.61
3/31/2021 8:45:00 AM 6.61 43.898 0.128 7.28 4.45 11.67
3/31/2021 9:00:00 AM 6.63 43.934 0.128 7.3 4.45 11.72
3/31/2021 9:15:00 AM 6.65 43.97 0.128 7.32 4.43 11.77
3/31/2021 9:30:00 AM 6.67 44.006 0.128 7.34 4.41 11.81
3/31/2021 9:45:00 AM 6.71 44.078 0.128 7.35 4.22 11.85
3/31/2021 10:00:00 AM 6.75 44.15 0.128 7.38 4.28 11.88
3/31/2021 10:15:00 AM 6.79 44.222 0.128 7.39 4.25 11.91
3/31/2021 10:30:00 AM 6.84 44.312 0.128 7.4 4.23 11.93
3/31/2021 10:45:00 AM 6.88 44.384 0.128 7.41 4.18 11.94
3/31/2021 11:00:00 AM 6.94 44.492 0.128 7.43 4.23 11.95
3/31/2021 11:15:00 AM 6.98 44.564 0.128 7.44 4.1 11.96
3/31/2021 11:30:00 AM 7.02 44.636 0.128 7.45 4.04 11.95
3/31/2021 11:45:00 AM 7.06 44.708 0.128 7.45 4.05 11.94